<?xml version="1.0" encoding="UTF-8" standalone="no" ?>
<gpx xmlns="http://www.topografix.com/GPX/1/1" xmlns:xsi="http://www.w3.org/2001/XMLSchema-instance" xsi:schemaLocation="http://www.topografix.com/GPX/1/1 http://www.topografix.com/GPX/1/1/gpx.xsd" version="1.1" creator="VisuGPX - https://www.visugpx.com">
  <metadata>
    <name>GR58 - Les Fonds-Ville Vieille par col de Péas</name>
    <desc><![CDATA[6ème étape
]]></desc>
  </metadata>
  <trk>
    <name><![CDATA[Ville-Vieille]]></name>
    <trkseg>
      <trkpt lat="44.8446" lon="6.81603">
        <ele>2054.7</ele>
        <time>2015-07-22T06:06:05Z</time>
      </trkpt>
      <trkpt lat="44.8446" lon="6.81603">
        <ele>2054.8</ele>
        <time>2015-07-22T06:06:06Z</time>
      </trkpt>
      <trkpt lat="44.8445" lon="6.816">
        <ele>2050.5</ele>
        <time>2015-07-22T06:07:28Z</time>
      </trkpt>
      <trkpt lat="44.84435" lon="6.81599">
        <ele>2049.6</ele>
        <time>2015-07-22T06:07:46Z</time>
      </trkpt>
      <trkpt lat="44.84427" lon="6.81603">
        <ele>2049</ele>
        <time>2015-07-22T06:07:56Z</time>
      </trkpt>
      <trkpt lat="44.8442" lon="6.81619">
        <ele>2049</ele>
        <time>2015-07-22T06:08:14Z</time>
      </trkpt>
      <trkpt lat="44.84417" lon="6.81631">
        <ele>2049.3</ele>
        <time>2015-07-22T06:08:24Z</time>
      </trkpt>
      <trkpt lat="44.84413" lon="6.81642">
        <ele>2050.2</ele>
        <time>2015-07-22T06:08:32Z</time>
      </trkpt>
      <trkpt lat="44.84412" lon="6.81643">
        <ele>2050.3</ele>
        <time>2015-07-22T06:08:33Z</time>
      </trkpt>
      <trkpt lat="44.84409" lon="6.81666">
        <ele>2052.8</ele>
        <time>2015-07-22T06:08:50Z</time>
      </trkpt>
      <trkpt lat="44.84407" lon="6.81677">
        <ele>2054.9</ele>
        <time>2015-07-22T06:08:58Z</time>
      </trkpt>
      <trkpt lat="44.84403" lon="6.81689">
        <ele>2058.4</ele>
        <time>2015-07-22T06:09:09Z</time>
      </trkpt>
      <trkpt lat="44.84399" lon="6.81699">
        <ele>2060.5</ele>
        <time>2015-07-22T06:09:18Z</time>
      </trkpt>
      <trkpt lat="44.84393" lon="6.81707">
        <ele>2061.4</ele>
        <time>2015-07-22T06:09:25Z</time>
      </trkpt>
      <trkpt lat="44.84385" lon="6.81706">
        <ele>2062.7</ele>
        <time>2015-07-22T06:09:33Z</time>
      </trkpt>
      <trkpt lat="44.84383" lon="6.81705">
        <ele>2062.7</ele>
        <time>2015-07-22T06:09:34Z</time>
      </trkpt>
      <trkpt lat="44.84368" lon="6.81703">
        <ele>2059.7</ele>
        <time>2015-07-22T06:09:57Z</time>
      </trkpt>
      <trkpt lat="44.84357" lon="6.817">
        <ele>2059</ele>
        <time>2015-07-22T06:10:09Z</time>
      </trkpt>
      <trkpt lat="44.84346" lon="6.81701">
        <ele>2062</ele>
        <time>2015-07-22T06:10:20Z</time>
      </trkpt>
      <trkpt lat="44.84333" lon="6.81706">
        <ele>2059</ele>
        <time>2015-07-22T06:10:32Z</time>
      </trkpt>
      <trkpt lat="44.84331" lon="6.81707">
        <ele>2059.3</ele>
        <time>2015-07-22T06:10:35Z</time>
      </trkpt>
      <trkpt lat="44.84306" lon="6.81707">
        <ele>2052.4</ele>
        <time>2015-07-22T06:10:55Z</time>
      </trkpt>
      <trkpt lat="44.84297" lon="6.8171">
        <ele>2054.1</ele>
        <time>2015-07-22T06:11:06Z</time>
      </trkpt>
      <trkpt lat="44.84288" lon="6.81709">
        <ele>2055.1</ele>
        <time>2015-07-22T06:11:42Z</time>
      </trkpt>
      <trkpt lat="44.84288" lon="6.81709">
        <ele>2055.1</ele>
        <time>2015-07-22T06:11:43Z</time>
      </trkpt>
      <trkpt lat="44.84287" lon="6.81709">
        <ele>2055.2</ele>
        <time>2015-07-22T06:12:07Z</time>
      </trkpt>
      <trkpt lat="44.84279" lon="6.8171">
        <ele>2057</ele>
        <time>2015-07-22T06:12:28Z</time>
      </trkpt>
      <trkpt lat="44.84271" lon="6.81709">
        <ele>2054.3</ele>
        <time>2015-07-22T06:12:36Z</time>
      </trkpt>
      <trkpt lat="44.84262" lon="6.81708">
        <ele>2048.5</ele>
        <time>2015-07-22T06:12:43Z</time>
      </trkpt>
      <trkpt lat="44.84261" lon="6.81709">
        <ele>2047.6</ele>
        <time>2015-07-22T06:12:44Z</time>
      </trkpt>
      <trkpt lat="44.84247" lon="6.81702">
        <ele>2049.7</ele>
        <time>2015-07-22T06:13:07Z</time>
      </trkpt>
      <trkpt lat="44.84238" lon="6.81699">
        <ele>2052.1</ele>
        <time>2015-07-22T06:13:16Z</time>
      </trkpt>
      <trkpt lat="44.8423" lon="6.817">
        <ele>2050.7</ele>
        <time>2015-07-22T06:13:25Z</time>
      </trkpt>
      <trkpt lat="44.84221" lon="6.81701">
        <ele>2052.6</ele>
        <time>2015-07-22T06:13:35Z</time>
      </trkpt>
      <trkpt lat="44.84213" lon="6.81702">
        <ele>2056.3</ele>
        <time>2015-07-22T06:13:45Z</time>
      </trkpt>
      <trkpt lat="44.84212" lon="6.81701">
        <ele>2056.7</ele>
        <time>2015-07-22T06:13:46Z</time>
      </trkpt>
      <trkpt lat="44.84197" lon="6.8171">
        <ele>2074.4</ele>
        <time>2015-07-22T06:14:21Z</time>
      </trkpt>
      <trkpt lat="44.84187" lon="6.81714">
        <ele>2076</ele>
        <time>2015-07-22T06:14:31Z</time>
      </trkpt>
      <trkpt lat="44.84179" lon="6.81719">
        <ele>2077.5</ele>
        <time>2015-07-22T06:14:57Z</time>
      </trkpt>
      <trkpt lat="44.84178" lon="6.81718">
        <ele>2077.7</ele>
        <time>2015-07-22T06:14:58Z</time>
      </trkpt>
      <trkpt lat="44.84162" lon="6.8172">
        <ele>2083.5</ele>
        <time>2015-07-22T06:15:29Z</time>
      </trkpt>
      <trkpt lat="44.84157" lon="6.8173">
        <ele>2085.4</ele>
        <time>2015-07-22T06:15:45Z</time>
      </trkpt>
      <trkpt lat="44.84157" lon="6.81743">
        <ele>2088.2</ele>
        <time>2015-07-22T06:16:03Z</time>
      </trkpt>
      <trkpt lat="44.84157" lon="6.81744">
        <ele>2088.2</ele>
        <time>2015-07-22T06:16:04Z</time>
      </trkpt>
      <trkpt lat="44.84142" lon="6.81755">
        <ele>2093.1</ele>
        <time>2015-07-22T06:16:37Z</time>
      </trkpt>
      <trkpt lat="44.84138" lon="6.81766">
        <ele>2095.8</ele>
        <time>2015-07-22T06:16:51Z</time>
      </trkpt>
      <trkpt lat="44.84132" lon="6.81774">
        <ele>2098.4</ele>
        <time>2015-07-22T06:17:05Z</time>
      </trkpt>
      <trkpt lat="44.84132" lon="6.81775">
        <ele>2098.6</ele>
        <time>2015-07-22T06:17:06Z</time>
      </trkpt>
      <trkpt lat="44.8412" lon="6.81792">
        <ele>2104.2</ele>
        <time>2015-07-22T06:17:36Z</time>
      </trkpt>
      <trkpt lat="44.84116" lon="6.81803">
        <ele>2106.6</ele>
        <time>2015-07-22T06:17:49Z</time>
      </trkpt>
      <trkpt lat="44.84107" lon="6.818">
        <ele>2109.7</ele>
        <time>2015-07-22T06:18:07Z</time>
      </trkpt>
      <trkpt lat="44.84107" lon="6.818">
        <ele>2110</ele>
        <time>2015-07-22T06:18:08Z</time>
      </trkpt>
      <trkpt lat="44.84094" lon="6.81784">
        <ele>2114.2</ele>
        <time>2015-07-22T06:18:32Z</time>
      </trkpt>
      <trkpt lat="44.84089" lon="6.81774">
        <ele>2114.6</ele>
        <time>2015-07-22T06:18:57Z</time>
      </trkpt>
      <trkpt lat="44.84082" lon="6.81766">
        <ele>2118</ele>
        <time>2015-07-22T06:19:12Z</time>
      </trkpt>
      <trkpt lat="44.84082" lon="6.81766">
        <ele>2117.8</ele>
        <time>2015-07-22T06:19:13Z</time>
      </trkpt>
      <trkpt lat="44.84065" lon="6.81762">
        <ele>2120.1</ele>
        <time>2015-07-22T06:19:41Z</time>
      </trkpt>
      <trkpt lat="44.84056" lon="6.81763">
        <ele>2123</ele>
        <time>2015-07-22T06:19:55Z</time>
      </trkpt>
      <trkpt lat="44.84048" lon="6.8176">
        <ele>2127</ele>
        <time>2015-07-22T06:20:17Z</time>
      </trkpt>
      <trkpt lat="44.84047" lon="6.8176">
        <ele>2127.4</ele>
        <time>2015-07-22T06:20:18Z</time>
      </trkpt>
      <trkpt lat="44.84031" lon="6.81763">
        <ele>2129.6</ele>
        <time>2015-07-22T06:20:40Z</time>
      </trkpt>
      <trkpt lat="44.84022" lon="6.81765">
        <ele>2130.5</ele>
        <time>2015-07-22T06:20:53Z</time>
      </trkpt>
      <trkpt lat="44.84013" lon="6.81764">
        <ele>2132</ele>
        <time>2015-07-22T06:21:05Z</time>
      </trkpt>
      <trkpt lat="44.84005" lon="6.81762">
        <ele>2133.1</ele>
        <time>2015-07-22T06:21:16Z</time>
      </trkpt>
      <trkpt lat="44.83997" lon="6.81757">
        <ele>2134.6</ele>
        <time>2015-07-22T06:21:30Z</time>
      </trkpt>
      <trkpt lat="44.83996" lon="6.81757">
        <ele>2134.5</ele>
        <time>2015-07-22T06:21:31Z</time>
      </trkpt>
      <trkpt lat="44.8398" lon="6.81753">
        <ele>2137.9</ele>
        <time>2015-07-22T06:22:15Z</time>
      </trkpt>
      <trkpt lat="44.83972" lon="6.81749">
        <ele>2138.7</ele>
        <time>2015-07-22T06:22:27Z</time>
      </trkpt>
      <trkpt lat="44.83964" lon="6.81749">
        <ele>2140.5</ele>
        <time>2015-07-22T06:22:38Z</time>
      </trkpt>
      <trkpt lat="44.83963" lon="6.81748">
        <ele>2140.8</ele>
        <time>2015-07-22T06:22:39Z</time>
      </trkpt>
      <trkpt lat="44.83947" lon="6.81744">
        <ele>2142.6</ele>
        <time>2015-07-22T06:23:07Z</time>
      </trkpt>
      <trkpt lat="44.83939" lon="6.81738">
        <ele>2144.9</ele>
        <time>2015-07-22T06:23:18Z</time>
      </trkpt>
      <trkpt lat="44.83933" lon="6.81728">
        <ele>2146.7</ele>
        <time>2015-07-22T06:23:30Z</time>
      </trkpt>
      <trkpt lat="44.83926" lon="6.81722">
        <ele>2146.3</ele>
        <time>2015-07-22T06:23:40Z</time>
      </trkpt>
      <trkpt lat="44.83925" lon="6.81721">
        <ele>2146.7</ele>
        <time>2015-07-22T06:23:41Z</time>
      </trkpt>
      <trkpt lat="44.8391" lon="6.81711">
        <ele>2149.4</ele>
        <time>2015-07-22T06:23:59Z</time>
      </trkpt>
      <trkpt lat="44.83902" lon="6.8171">
        <ele>2148.7</ele>
        <time>2015-07-22T06:24:12Z</time>
      </trkpt>
      <trkpt lat="44.83893" lon="6.81708">
        <ele>2147.5</ele>
        <time>2015-07-22T06:24:24Z</time>
      </trkpt>
      <trkpt lat="44.83885" lon="6.81705">
        <ele>2146</ele>
        <time>2015-07-22T06:24:33Z</time>
      </trkpt>
      <trkpt lat="44.83876" lon="6.81702">
        <ele>2145.7</ele>
        <time>2015-07-22T06:24:44Z</time>
      </trkpt>
      <trkpt lat="44.83876" lon="6.81702">
        <ele>2145.1</ele>
        <time>2015-07-22T06:24:45Z</time>
      </trkpt>
      <trkpt lat="44.83859" lon="6.817">
        <ele>2140.5</ele>
        <time>2015-07-22T06:25:06Z</time>
      </trkpt>
      <trkpt lat="44.83851" lon="6.81698">
        <ele>2141.9</ele>
        <time>2015-07-22T06:25:15Z</time>
      </trkpt>
      <trkpt lat="44.83843" lon="6.81697">
        <ele>2141.2</ele>
        <time>2015-07-22T06:25:22Z</time>
      </trkpt>
      <trkpt lat="44.83835" lon="6.81694">
        <ele>2140.7</ele>
        <time>2015-07-22T06:25:29Z</time>
      </trkpt>
      <trkpt lat="44.83826" lon="6.81692">
        <ele>2140.9</ele>
        <time>2015-07-22T06:25:37Z</time>
      </trkpt>
      <trkpt lat="44.83818" lon="6.81688">
        <ele>2140.4</ele>
        <time>2015-07-22T06:25:48Z</time>
      </trkpt>
      <trkpt lat="44.83817" lon="6.81688">
        <ele>2140.7</ele>
        <time>2015-07-22T06:25:49Z</time>
      </trkpt>
      <trkpt lat="44.83805" lon="6.81675">
        <ele>2142</ele>
        <time>2015-07-22T06:26:07Z</time>
      </trkpt>
      <trkpt lat="44.83798" lon="6.81667">
        <ele>2144.1</ele>
        <time>2015-07-22T06:26:15Z</time>
      </trkpt>
      <trkpt lat="44.83792" lon="6.8166">
        <ele>2144.8</ele>
        <time>2015-07-22T06:26:23Z</time>
      </trkpt>
      <trkpt lat="44.83785" lon="6.81653">
        <ele>2145.2</ele>
        <time>2015-07-22T06:26:31Z</time>
      </trkpt>
      <trkpt lat="44.83778" lon="6.81647">
        <ele>2146.2</ele>
        <time>2015-07-22T06:26:38Z</time>
      </trkpt>
      <trkpt lat="44.83772" lon="6.81639">
        <ele>2146.5</ele>
        <time>2015-07-22T06:26:45Z</time>
      </trkpt>
      <trkpt lat="44.83766" lon="6.81631">
        <ele>2146.8</ele>
        <time>2015-07-22T06:26:54Z</time>
      </trkpt>
      <trkpt lat="44.83765" lon="6.81631">
        <ele>2146.9</ele>
        <time>2015-07-22T06:26:55Z</time>
      </trkpt>
      <trkpt lat="44.83752" lon="6.81616">
        <ele>2148.3</ele>
        <time>2015-07-22T06:27:24Z</time>
      </trkpt>
      <trkpt lat="44.83747" lon="6.81607">
        <ele>2149.2</ele>
        <time>2015-07-22T06:27:33Z</time>
      </trkpt>
      <trkpt lat="44.83741" lon="6.81599">
        <ele>2150.5</ele>
        <time>2015-07-22T06:27:42Z</time>
      </trkpt>
      <trkpt lat="44.83734" lon="6.81591">
        <ele>2150.2</ele>
        <time>2015-07-22T06:27:51Z</time>
      </trkpt>
      <trkpt lat="44.83726" lon="6.81582">
        <ele>2151</ele>
        <time>2015-07-22T06:28:00Z</time>
      </trkpt>
      <trkpt lat="44.83725" lon="6.8158">
        <ele>2151.1</ele>
        <time>2015-07-22T06:28:02Z</time>
      </trkpt>
      <trkpt lat="44.83712" lon="6.81565">
        <ele>2152.8</ele>
        <time>2015-07-22T06:28:30Z</time>
      </trkpt>
      <trkpt lat="44.83705" lon="6.81558">
        <ele>2154.4</ele>
        <time>2015-07-22T06:28:47Z</time>
      </trkpt>
      <trkpt lat="44.83699" lon="6.81549">
        <ele>2154.9</ele>
        <time>2015-07-22T06:28:56Z</time>
      </trkpt>
      <trkpt lat="44.83692" lon="6.81541">
        <ele>2156</ele>
        <time>2015-07-22T06:29:07Z</time>
      </trkpt>
      <trkpt lat="44.83691" lon="6.8154">
        <ele>2156.4</ele>
        <time>2015-07-22T06:29:08Z</time>
      </trkpt>
      <trkpt lat="44.83679" lon="6.81525">
        <ele>2160.2</ele>
        <time>2015-07-22T06:29:31Z</time>
      </trkpt>
      <trkpt lat="44.83671" lon="6.81519">
        <ele>2162.3</ele>
        <time>2015-07-22T06:29:44Z</time>
      </trkpt>
      <trkpt lat="44.83663" lon="6.81513">
        <ele>2164.2</ele>
        <time>2015-07-22T06:29:55Z</time>
      </trkpt>
      <trkpt lat="44.83656" lon="6.81506">
        <ele>2166.6</ele>
        <time>2015-07-22T06:30:05Z</time>
      </trkpt>
      <trkpt lat="44.83649" lon="6.81498">
        <ele>2167.8</ele>
        <time>2015-07-22T06:30:17Z</time>
      </trkpt>
      <trkpt lat="44.83649" lon="6.81497">
        <ele>2168.1</ele>
        <time>2015-07-22T06:30:18Z</time>
      </trkpt>
      <trkpt lat="44.83635" lon="6.81485">
        <ele>2169.7</ele>
        <time>2015-07-22T06:30:36Z</time>
      </trkpt>
      <trkpt lat="44.83629" lon="6.81479">
        <ele>2170.1</ele>
        <time>2015-07-22T06:30:44Z</time>
      </trkpt>
      <trkpt lat="44.83621" lon="6.81474">
        <ele>2172.6</ele>
        <time>2015-07-22T06:31:00Z</time>
      </trkpt>
      <trkpt lat="44.83612" lon="6.81471">
        <ele>2175.2</ele>
        <time>2015-07-22T06:31:19Z</time>
      </trkpt>
      <trkpt lat="44.83612" lon="6.81471">
        <ele>2175.1</ele>
        <time>2015-07-22T06:31:20Z</time>
      </trkpt>
      <trkpt lat="44.83599" lon="6.81458">
        <ele>2177.7</ele>
        <time>2015-07-22T06:31:44Z</time>
      </trkpt>
      <trkpt lat="44.83594" lon="6.81448">
        <ele>2179.4</ele>
        <time>2015-07-22T06:31:54Z</time>
      </trkpt>
      <trkpt lat="44.83589" lon="6.81438">
        <ele>2180.3</ele>
        <time>2015-07-22T06:32:04Z</time>
      </trkpt>
      <trkpt lat="44.83584" lon="6.81429">
        <ele>2183</ele>
        <time>2015-07-22T06:32:14Z</time>
      </trkpt>
      <trkpt lat="44.83578" lon="6.81423">
        <ele>2184</ele>
        <time>2015-07-22T06:32:28Z</time>
      </trkpt>
      <trkpt lat="44.83577" lon="6.81423">
        <ele>2184</ele>
        <time>2015-07-22T06:32:29Z</time>
      </trkpt>
      <trkpt lat="44.83563" lon="6.8141">
        <ele>2184</ele>
        <time>2015-07-22T06:32:55Z</time>
      </trkpt>
      <trkpt lat="44.83559" lon="6.814">
        <ele>2182.9</ele>
        <time>2015-07-22T06:33:04Z</time>
      </trkpt>
      <trkpt lat="44.83551" lon="6.81397">
        <ele>2184.5</ele>
        <time>2015-07-22T06:33:12Z</time>
      </trkpt>
      <trkpt lat="44.83545" lon="6.81391">
        <ele>2184.6</ele>
        <time>2015-07-22T06:33:19Z</time>
      </trkpt>
      <trkpt lat="44.83539" lon="6.81382">
        <ele>2185.3</ele>
        <time>2015-07-22T06:33:30Z</time>
      </trkpt>
      <trkpt lat="44.83538" lon="6.81381">
        <ele>2185.4</ele>
        <time>2015-07-22T06:33:31Z</time>
      </trkpt>
      <trkpt lat="44.83524" lon="6.8137">
        <ele>2182.3</ele>
        <time>2015-07-22T06:33:49Z</time>
      </trkpt>
      <trkpt lat="44.83516" lon="6.81365">
        <ele>2183.9</ele>
        <time>2015-07-22T06:34:00Z</time>
      </trkpt>
      <trkpt lat="44.83508" lon="6.8136">
        <ele>2184.4</ele>
        <time>2015-07-22T06:34:10Z</time>
      </trkpt>
      <trkpt lat="44.835" lon="6.81358">
        <ele>2184.8</ele>
        <time>2015-07-22T06:34:48Z</time>
      </trkpt>
      <trkpt lat="44.83499" lon="6.81358">
        <ele>2185</ele>
        <time>2015-07-22T06:34:49Z</time>
      </trkpt>
      <trkpt lat="44.83484" lon="6.81348">
        <ele>2188</ele>
        <time>2015-07-22T06:35:11Z</time>
      </trkpt>
      <trkpt lat="44.83476" lon="6.81346">
        <ele>2186.9</ele>
        <time>2015-07-22T06:35:19Z</time>
      </trkpt>
      <trkpt lat="44.83468" lon="6.81342">
        <ele>2187.6</ele>
        <time>2015-07-22T06:35:28Z</time>
      </trkpt>
      <trkpt lat="44.83459" lon="6.8134">
        <ele>2188.7</ele>
        <time>2015-07-22T06:35:37Z</time>
      </trkpt>
      <trkpt lat="44.83451" lon="6.81334">
        <ele>2189.4</ele>
        <time>2015-07-22T06:35:46Z</time>
      </trkpt>
      <trkpt lat="44.83444" lon="6.8133">
        <ele>2190</ele>
        <time>2015-07-22T06:35:56Z</time>
      </trkpt>
      <trkpt lat="44.83443" lon="6.81329">
        <ele>2190</ele>
        <time>2015-07-22T06:35:57Z</time>
      </trkpt>
      <trkpt lat="44.8343" lon="6.81315">
        <ele>2191.1</ele>
        <time>2015-07-22T06:36:16Z</time>
      </trkpt>
      <trkpt lat="44.83423" lon="6.8131">
        <ele>2192.6</ele>
        <time>2015-07-22T06:36:27Z</time>
      </trkpt>
      <trkpt lat="44.83415" lon="6.81304">
        <ele>2192.7</ele>
        <time>2015-07-22T06:36:38Z</time>
      </trkpt>
      <trkpt lat="44.83407" lon="6.81298">
        <ele>2193.5</ele>
        <time>2015-07-22T06:36:48Z</time>
      </trkpt>
      <trkpt lat="44.83399" lon="6.81292">
        <ele>2195.5</ele>
        <time>2015-07-22T06:36:58Z</time>
      </trkpt>
      <trkpt lat="44.83399" lon="6.81292">
        <ele>2195.4</ele>
        <time>2015-07-22T06:36:59Z</time>
      </trkpt>
      <trkpt lat="44.83384" lon="6.81282">
        <ele>2194.4</ele>
        <time>2015-07-22T06:37:17Z</time>
      </trkpt>
      <trkpt lat="44.83376" lon="6.81277">
        <ele>2194.8</ele>
        <time>2015-07-22T06:37:26Z</time>
      </trkpt>
      <trkpt lat="44.83368" lon="6.81274">
        <ele>2193.1</ele>
        <time>2015-07-22T06:37:33Z</time>
      </trkpt>
      <trkpt lat="44.8336" lon="6.8127">
        <ele>2193.1</ele>
        <time>2015-07-22T06:37:41Z</time>
      </trkpt>
      <trkpt lat="44.83352" lon="6.81265">
        <ele>2192</ele>
        <time>2015-07-22T06:37:49Z</time>
      </trkpt>
      <trkpt lat="44.83344" lon="6.81261">
        <ele>2191.7</ele>
        <time>2015-07-22T06:37:58Z</time>
      </trkpt>
      <trkpt lat="44.83336" lon="6.81259">
        <ele>2191</ele>
        <time>2015-07-22T06:38:06Z</time>
      </trkpt>
      <trkpt lat="44.83335" lon="6.81258">
        <ele>2190.9</ele>
        <time>2015-07-22T06:38:07Z</time>
      </trkpt>
      <trkpt lat="44.8332" lon="6.81249">
        <ele>2189.6</ele>
        <time>2015-07-22T06:38:25Z</time>
      </trkpt>
      <trkpt lat="44.83312" lon="6.81244">
        <ele>2188.3</ele>
        <time>2015-07-22T06:38:34Z</time>
      </trkpt>
      <trkpt lat="44.83304" lon="6.8124">
        <ele>2187.7</ele>
        <time>2015-07-22T06:38:44Z</time>
      </trkpt>
      <trkpt lat="44.83296" lon="6.8124">
        <ele>2187.7</ele>
        <time>2015-07-22T06:38:52Z</time>
      </trkpt>
      <trkpt lat="44.83288" lon="6.81234">
        <ele>2187.6</ele>
        <time>2015-07-22T06:39:01Z</time>
      </trkpt>
      <trkpt lat="44.83281" lon="6.8123">
        <ele>2188.8</ele>
        <time>2015-07-22T06:39:09Z</time>
      </trkpt>
      <trkpt lat="44.8328" lon="6.8123">
        <ele>2188.7</ele>
        <time>2015-07-22T06:39:10Z</time>
      </trkpt>
      <trkpt lat="44.83266" lon="6.81222">
        <ele>2189.7</ele>
        <time>2015-07-22T06:39:25Z</time>
      </trkpt>
      <trkpt lat="44.83259" lon="6.81216">
        <ele>2190.2</ele>
        <time>2015-07-22T06:39:32Z</time>
      </trkpt>
      <trkpt lat="44.83251" lon="6.81212">
        <ele>2190.7</ele>
        <time>2015-07-22T06:39:40Z</time>
      </trkpt>
      <trkpt lat="44.83246" lon="6.81202">
        <ele>2192</ele>
        <time>2015-07-22T06:39:50Z</time>
      </trkpt>
      <trkpt lat="44.83243" lon="6.81191">
        <ele>2191.3</ele>
        <time>2015-07-22T06:39:59Z</time>
      </trkpt>
      <trkpt lat="44.83236" lon="6.81184">
        <ele>2193.6</ele>
        <time>2015-07-22T06:40:11Z</time>
      </trkpt>
      <trkpt lat="44.83235" lon="6.81183">
        <ele>2193.8</ele>
        <time>2015-07-22T06:40:12Z</time>
      </trkpt>
      <trkpt lat="44.83224" lon="6.81167">
        <ele>2196</ele>
        <time>2015-07-22T06:40:30Z</time>
      </trkpt>
      <trkpt lat="44.83218" lon="6.81159">
        <ele>2196.9</ele>
        <time>2015-07-22T06:40:41Z</time>
      </trkpt>
      <trkpt lat="44.83211" lon="6.81151">
        <ele>2198.1</ele>
        <time>2015-07-22T06:40:51Z</time>
      </trkpt>
      <trkpt lat="44.83204" lon="6.81144">
        <ele>2199.9</ele>
        <time>2015-07-22T06:41:31Z</time>
      </trkpt>
      <trkpt lat="44.83203" lon="6.81145">
        <ele>2199.9</ele>
        <time>2015-07-22T06:41:32Z</time>
      </trkpt>
      <trkpt lat="44.83188" lon="6.81136">
        <ele>2200.3</ele>
        <time>2015-07-22T06:41:52Z</time>
      </trkpt>
      <trkpt lat="44.83181" lon="6.81129">
        <ele>2201</ele>
        <time>2015-07-22T06:42:16Z</time>
      </trkpt>
      <trkpt lat="44.83173" lon="6.81127">
        <ele>2202.6</ele>
        <time>2015-07-22T06:42:27Z</time>
      </trkpt>
      <trkpt lat="44.83165" lon="6.81127">
        <ele>2203.3</ele>
        <time>2015-07-22T06:42:37Z</time>
      </trkpt>
      <trkpt lat="44.83164" lon="6.81128">
        <ele>2203.3</ele>
        <time>2015-07-22T06:42:38Z</time>
      </trkpt>
      <trkpt lat="44.83148" lon="6.81128">
        <ele>2206.5</ele>
        <time>2015-07-22T06:43:00Z</time>
      </trkpt>
      <trkpt lat="44.83139" lon="6.81124">
        <ele>2210.6</ele>
        <time>2015-07-22T06:43:16Z</time>
      </trkpt>
      <trkpt lat="44.83131" lon="6.81121">
        <ele>2212.4</ele>
        <time>2015-07-22T06:43:33Z</time>
      </trkpt>
      <trkpt lat="44.83124" lon="6.81112">
        <ele>2215.2</ele>
        <time>2015-07-22T06:43:50Z</time>
      </trkpt>
      <trkpt lat="44.83124" lon="6.81112">
        <ele>2214.8</ele>
        <time>2015-07-22T06:43:51Z</time>
      </trkpt>
      <trkpt lat="44.83111" lon="6.81098">
        <ele>2217.9</ele>
        <time>2015-07-22T06:44:22Z</time>
      </trkpt>
      <trkpt lat="44.83102" lon="6.81093">
        <ele>2220.7</ele>
        <time>2015-07-22T06:44:36Z</time>
      </trkpt>
      <trkpt lat="44.83095" lon="6.81087">
        <ele>2223.3</ele>
        <time>2015-07-22T06:45:01Z</time>
      </trkpt>
      <trkpt lat="44.83094" lon="6.81086">
        <ele>2223.4</ele>
        <time>2015-07-22T06:45:02Z</time>
      </trkpt>
      <trkpt lat="44.83078" lon="6.81083">
        <ele>2226.7</ele>
        <time>2015-07-22T06:45:27Z</time>
      </trkpt>
      <trkpt lat="44.8307" lon="6.81078">
        <ele>2228.2</ele>
        <time>2015-07-22T06:45:39Z</time>
      </trkpt>
      <trkpt lat="44.83063" lon="6.81072">
        <ele>2229.1</ele>
        <time>2015-07-22T06:45:50Z</time>
      </trkpt>
      <trkpt lat="44.83055" lon="6.81066">
        <ele>2229.6</ele>
        <time>2015-07-22T06:46:00Z</time>
      </trkpt>
      <trkpt lat="44.83047" lon="6.81061">
        <ele>2230.9</ele>
        <time>2015-07-22T06:46:10Z</time>
      </trkpt>
      <trkpt lat="44.83047" lon="6.8106">
        <ele>2231.5</ele>
        <time>2015-07-22T06:46:11Z</time>
      </trkpt>
      <trkpt lat="44.83032" lon="6.81053">
        <ele>2234.4</ele>
        <time>2015-07-22T06:46:32Z</time>
      </trkpt>
      <trkpt lat="44.83024" lon="6.81049">
        <ele>2236.2</ele>
        <time>2015-07-22T06:46:43Z</time>
      </trkpt>
      <trkpt lat="44.83016" lon="6.81046">
        <ele>2238.4</ele>
        <time>2015-07-22T06:46:53Z</time>
      </trkpt>
      <trkpt lat="44.83007" lon="6.81043">
        <ele>2238.7</ele>
        <time>2015-07-22T06:47:09Z</time>
      </trkpt>
      <trkpt lat="44.82999" lon="6.81041">
        <ele>2239.3</ele>
        <time>2015-07-22T06:47:20Z</time>
      </trkpt>
      <trkpt lat="44.82998" lon="6.8104">
        <ele>2239.7</ele>
        <time>2015-07-22T06:47:21Z</time>
      </trkpt>
      <trkpt lat="44.82984" lon="6.81028">
        <ele>2242.9</ele>
        <time>2015-07-22T06:47:46Z</time>
      </trkpt>
      <trkpt lat="44.82976" lon="6.81024">
        <ele>2245</ele>
        <time>2015-07-22T06:47:58Z</time>
      </trkpt>
      <trkpt lat="44.82967" lon="6.8102">
        <ele>2245.9</ele>
        <time>2015-07-22T06:48:10Z</time>
      </trkpt>
      <trkpt lat="44.82959" lon="6.8102">
        <ele>2248</ele>
        <time>2015-07-22T06:48:20Z</time>
      </trkpt>
      <trkpt lat="44.82951" lon="6.81017">
        <ele>2249.6</ele>
        <time>2015-07-22T06:48:30Z</time>
      </trkpt>
      <trkpt lat="44.8295" lon="6.81016">
        <ele>2249.9</ele>
        <time>2015-07-22T06:48:31Z</time>
      </trkpt>
      <trkpt lat="44.82936" lon="6.81021">
        <ele>2251.8</ele>
        <time>2015-07-22T06:48:51Z</time>
      </trkpt>
      <trkpt lat="44.82927" lon="6.8102">
        <ele>2252</ele>
        <time>2015-07-22T06:49:01Z</time>
      </trkpt>
      <trkpt lat="44.82919" lon="6.81019">
        <ele>2253.1</ele>
        <time>2015-07-22T06:49:11Z</time>
      </trkpt>
      <trkpt lat="44.82911" lon="6.81015">
        <ele>2253.7</ele>
        <time>2015-07-22T06:49:23Z</time>
      </trkpt>
      <trkpt lat="44.82903" lon="6.8101">
        <ele>2254.9</ele>
        <time>2015-07-22T06:49:33Z</time>
      </trkpt>
      <trkpt lat="44.82902" lon="6.8101">
        <ele>2254.9</ele>
        <time>2015-07-22T06:49:34Z</time>
      </trkpt>
      <trkpt lat="44.82889" lon="6.81013">
        <ele>2258.2</ele>
        <time>2015-07-22T06:49:54Z</time>
      </trkpt>
      <trkpt lat="44.8288" lon="6.81011">
        <ele>2259.9</ele>
        <time>2015-07-22T06:50:03Z</time>
      </trkpt>
      <trkpt lat="44.82874" lon="6.81003">
        <ele>2260.9</ele>
        <time>2015-07-22T06:50:14Z</time>
      </trkpt>
      <trkpt lat="44.82866" lon="6.81001">
        <ele>2262.5</ele>
        <time>2015-07-22T06:50:26Z</time>
      </trkpt>
      <trkpt lat="44.8286" lon="6.80991">
        <ele>2263.9</ele>
        <time>2015-07-22T06:50:39Z</time>
      </trkpt>
      <trkpt lat="44.8286" lon="6.8099">
        <ele>2264</ele>
        <time>2015-07-22T06:50:40Z</time>
      </trkpt>
      <trkpt lat="44.82852" lon="6.80969">
        <ele>2267.3</ele>
        <time>2015-07-22T06:51:04Z</time>
      </trkpt>
      <trkpt lat="44.82848" lon="6.80959">
        <ele>2269.4</ele>
        <time>2015-07-22T06:51:16Z</time>
      </trkpt>
      <trkpt lat="44.82842" lon="6.8095">
        <ele>2271.4</ele>
        <time>2015-07-22T06:51:29Z</time>
      </trkpt>
      <trkpt lat="44.82834" lon="6.80945">
        <ele>2273</ele>
        <time>2015-07-22T06:51:40Z</time>
      </trkpt>
      <trkpt lat="44.82833" lon="6.80945">
        <ele>2273.3</ele>
        <time>2015-07-22T06:51:41Z</time>
      </trkpt>
      <trkpt lat="44.82825" lon="6.80926">
        <ele>2276.6</ele>
        <time>2015-07-22T06:52:03Z</time>
      </trkpt>
      <trkpt lat="44.8282" lon="6.80917">
        <ele>2277.4</ele>
        <time>2015-07-22T06:52:14Z</time>
      </trkpt>
      <trkpt lat="44.82815" lon="6.80907">
        <ele>2279.6</ele>
        <time>2015-07-22T06:52:27Z</time>
      </trkpt>
      <trkpt lat="44.82811" lon="6.80896">
        <ele>2283.1</ele>
        <time>2015-07-22T06:53:14Z</time>
      </trkpt>
      <trkpt lat="44.8281" lon="6.80896">
        <ele>2283.2</ele>
        <time>2015-07-22T06:53:15Z</time>
      </trkpt>
      <trkpt lat="44.82805" lon="6.80874">
        <ele>2286.7</ele>
        <time>2015-07-22T06:53:38Z</time>
      </trkpt>
      <trkpt lat="44.82799" lon="6.80865">
        <ele>2287.6</ele>
        <time>2015-07-22T06:53:52Z</time>
      </trkpt>
      <trkpt lat="44.82792" lon="6.80858">
        <ele>2291.3</ele>
        <time>2015-07-22T06:54:04Z</time>
      </trkpt>
      <trkpt lat="44.82791" lon="6.80846">
        <ele>2293.1</ele>
        <time>2015-07-22T06:54:25Z</time>
      </trkpt>
      <trkpt lat="44.82792" lon="6.80845">
        <ele>2293.5</ele>
        <time>2015-07-22T06:54:26Z</time>
      </trkpt>
      <trkpt lat="44.82781" lon="6.80827">
        <ele>2298.2</ele>
        <time>2015-07-22T06:54:58Z</time>
      </trkpt>
      <trkpt lat="44.82778" lon="6.80815">
        <ele>2300.4</ele>
        <time>2015-07-22T06:55:14Z</time>
      </trkpt>
      <trkpt lat="44.8277" lon="6.80809">
        <ele>2302.6</ele>
        <time>2015-07-22T06:55:37Z</time>
      </trkpt>
      <trkpt lat="44.82769" lon="6.80809">
        <ele>2302.7</ele>
        <time>2015-07-22T06:55:38Z</time>
      </trkpt>
      <trkpt lat="44.82756" lon="6.80796">
        <ele>2308.2</ele>
        <time>2015-07-22T06:56:11Z</time>
      </trkpt>
      <trkpt lat="44.82748" lon="6.80791">
        <ele>2311.3</ele>
        <time>2015-07-22T06:56:29Z</time>
      </trkpt>
      <trkpt lat="44.8274" lon="6.80784">
        <ele>2315.6</ele>
        <time>2015-07-22T06:56:49Z</time>
      </trkpt>
      <trkpt lat="44.8274" lon="6.80784">
        <ele>2315.8</ele>
        <time>2015-07-22T06:56:50Z</time>
      </trkpt>
      <trkpt lat="44.82725" lon="6.80795">
        <ele>2319.8</ele>
        <time>2015-07-22T06:57:28Z</time>
      </trkpt>
      <trkpt lat="44.82716" lon="6.80799">
        <ele>2321.4</ele>
        <time>2015-07-22T06:57:49Z</time>
      </trkpt>
      <trkpt lat="44.82717" lon="6.80786">
        <ele>2323.8</ele>
        <time>2015-07-22T06:58:19Z</time>
      </trkpt>
      <trkpt lat="44.82716" lon="6.80786">
        <ele>2324</ele>
        <time>2015-07-22T06:58:20Z</time>
      </trkpt>
      <trkpt lat="44.827" lon="6.80779">
        <ele>2331.9</ele>
        <time>2015-07-22T06:59:03Z</time>
      </trkpt>
      <trkpt lat="44.82693" lon="6.80772">
        <ele>2338</ele>
        <time>2015-07-22T06:59:44Z</time>
      </trkpt>
      <trkpt lat="44.82693" lon="6.80771">
        <ele>2337.3</ele>
        <time>2015-07-22T06:59:45Z</time>
      </trkpt>
      <trkpt lat="44.82685" lon="6.80764">
        <ele>2341.1</ele>
        <time>2015-07-22T07:00:19Z</time>
      </trkpt>
      <trkpt lat="44.8268" lon="6.80754">
        <ele>2346</ele>
        <time>2015-07-22T07:00:44Z</time>
      </trkpt>
      <trkpt lat="44.82683" lon="6.80743">
        <ele>2349</ele>
        <time>2015-07-22T07:01:03Z</time>
      </trkpt>
      <trkpt lat="44.82683" lon="6.80742">
        <ele>2348.9</ele>
        <time>2015-07-22T07:01:04Z</time>
      </trkpt>
      <trkpt lat="44.82672" lon="6.80726">
        <ele>2358</ele>
        <time>2015-07-22T07:01:54Z</time>
      </trkpt>
      <trkpt lat="44.82663" lon="6.80721">
        <ele>2364.9</ele>
        <time>2015-07-22T07:02:25Z</time>
      </trkpt>
      <trkpt lat="44.82663" lon="6.80721">
        <ele>2364.7</ele>
        <time>2015-07-22T07:02:26Z</time>
      </trkpt>
      <trkpt lat="44.82647" lon="6.80721">
        <ele>2370.3</ele>
        <time>2015-07-22T07:03:18Z</time>
      </trkpt>
      <trkpt lat="44.82638" lon="6.80718">
        <ele>2372</ele>
        <time>2015-07-22T07:03:34Z</time>
      </trkpt>
      <trkpt lat="44.82638" lon="6.80718">
        <ele>2372.6</ele>
        <time>2015-07-22T07:03:35Z</time>
      </trkpt>
      <trkpt lat="44.82622" lon="6.80724">
        <ele>2380.5</ele>
        <time>2015-07-22T07:04:14Z</time>
      </trkpt>
      <trkpt lat="44.82619" lon="6.80712">
        <ele>2385.5</ele>
        <time>2015-07-22T07:04:36Z</time>
      </trkpt>
      <trkpt lat="44.82619" lon="6.80711">
        <ele>2385.5</ele>
        <time>2015-07-22T07:04:37Z</time>
      </trkpt>
      <trkpt lat="44.82602" lon="6.80705">
        <ele>2393.4</ele>
        <time>2015-07-22T07:05:29Z</time>
      </trkpt>
      <trkpt lat="44.82594" lon="6.80699">
        <ele>2396</ele>
        <time>2015-07-22T07:05:51Z</time>
      </trkpt>
      <trkpt lat="44.82594" lon="6.80699">
        <ele>2396</ele>
        <time>2015-07-22T07:05:52Z</time>
      </trkpt>
      <trkpt lat="44.82577" lon="6.80692">
        <ele>2402.8</ele>
        <time>2015-07-22T07:09:15Z</time>
      </trkpt>
      <trkpt lat="44.82577" lon="6.80691">
        <ele>2403.2</ele>
        <time>2015-07-22T07:09:16Z</time>
      </trkpt>
      <trkpt lat="44.82568" lon="6.80671">
        <ele>2411.8</ele>
        <time>2015-07-22T07:10:07Z</time>
      </trkpt>
      <trkpt lat="44.82561" lon="6.80665">
        <ele>2412.4</ele>
        <time>2015-07-22T07:10:21Z</time>
      </trkpt>
      <trkpt lat="44.82559" lon="6.80665">
        <ele>2412.3</ele>
        <time>2015-07-22T07:10:22Z</time>
      </trkpt>
      <trkpt lat="44.82544" lon="6.80656">
        <ele>2416.1</ele>
        <time>2015-07-22T07:10:58Z</time>
      </trkpt>
      <trkpt lat="44.82536" lon="6.80655">
        <ele>2419.3</ele>
        <time>2015-07-22T07:11:26Z</time>
      </trkpt>
      <trkpt lat="44.82535" lon="6.80655">
        <ele>2419.7</ele>
        <time>2015-07-22T07:11:27Z</time>
      </trkpt>
      <trkpt lat="44.82519" lon="6.80649">
        <ele>2421.9</ele>
        <time>2015-07-22T07:11:48Z</time>
      </trkpt>
      <trkpt lat="44.8251" lon="6.80649">
        <ele>2423.8</ele>
        <time>2015-07-22T07:12:02Z</time>
      </trkpt>
      <trkpt lat="44.82503" lon="6.80642">
        <ele>2426.1</ele>
        <time>2015-07-22T07:14:58Z</time>
      </trkpt>
      <trkpt lat="44.82503" lon="6.80642">
        <ele>2425.8</ele>
        <time>2015-07-22T07:14:59Z</time>
      </trkpt>
      <trkpt lat="44.82487" lon="6.80649">
        <ele>2427</ele>
        <time>2015-07-22T07:15:19Z</time>
      </trkpt>
      <trkpt lat="44.82479" lon="6.80655">
        <ele>2427.2</ele>
        <time>2015-07-22T07:15:27Z</time>
      </trkpt>
      <trkpt lat="44.82471" lon="6.80659">
        <ele>2429.1</ele>
        <time>2015-07-22T07:15:39Z</time>
      </trkpt>
      <trkpt lat="44.82463" lon="6.80663">
        <ele>2429.4</ele>
        <time>2015-07-22T07:15:51Z</time>
      </trkpt>
      <trkpt lat="44.82108" lon="6.80527">
        <ele>2465</ele>
        <time>2015-07-22T07:29:06Z</time>
      </trkpt>
      <trkpt lat="44.81938" lon="6.80368">
        <ele>2498.9</ele>
        <time>2015-07-22T07:34:19Z</time>
      </trkpt>
      <trkpt lat="44.8162" lon="6.80416">
        <ele>2560</ele>
        <time>2015-07-22T07:46:22Z</time>
      </trkpt>
      <trkpt lat="44.81534" lon="6.80418">
        <ele>2595.1</ele>
        <time>2015-07-22T07:49:29Z</time>
      </trkpt>
      <trkpt lat="44.81526" lon="6.80425">
        <ele>2612.6</ele>
        <time>2015-07-22T07:50:19Z</time>
      </trkpt>
      <trkpt lat="44.81527" lon="6.80413">
        <ele>2631.7</ele>
        <time>2015-07-22T08:09:33Z</time>
      </trkpt>
      <trkpt lat="44.81527" lon="6.80413">
        <ele>2631.4</ele>
        <time>2015-07-22T08:09:34Z</time>
      </trkpt>
      <trkpt lat="44.81527" lon="6.80426">
        <ele>2634.2</ele>
        <time>2015-07-22T08:14:41Z</time>
      </trkpt>
      <trkpt lat="44.81523" lon="6.80414">
        <ele>2633.3</ele>
        <time>2015-07-22T08:15:51Z</time>
      </trkpt>
      <trkpt lat="44.81511" lon="6.80398">
        <ele>2631.9</ele>
        <time>2015-07-22T08:16:53Z</time>
      </trkpt>
      <trkpt lat="44.8151" lon="6.80397">
        <ele>2631.5</ele>
        <time>2015-07-22T08:16:54Z</time>
      </trkpt>
      <trkpt lat="44.81496" lon="6.80389">
        <ele>2632.4</ele>
        <time>2015-07-22T08:17:06Z</time>
      </trkpt>
      <trkpt lat="44.81489" lon="6.80385">
        <ele>2632.4</ele>
        <time>2015-07-22T08:17:13Z</time>
      </trkpt>
      <trkpt lat="44.81482" lon="6.80379">
        <ele>2630.6</ele>
        <time>2015-07-22T08:17:19Z</time>
      </trkpt>
      <trkpt lat="44.81474" lon="6.80374">
        <ele>2631</ele>
        <time>2015-07-22T08:17:26Z</time>
      </trkpt>
      <trkpt lat="44.81466" lon="6.80368">
        <ele>2630.7</ele>
        <time>2015-07-22T08:17:33Z</time>
      </trkpt>
      <trkpt lat="44.8146" lon="6.80361">
        <ele>2630.4</ele>
        <time>2015-07-22T08:17:40Z</time>
      </trkpt>
      <trkpt lat="44.81455" lon="6.80352">
        <ele>2630.5</ele>
        <time>2015-07-22T08:17:49Z</time>
      </trkpt>
      <trkpt lat="44.81451" lon="6.80341">
        <ele>2629.4</ele>
        <time>2015-07-22T08:17:56Z</time>
      </trkpt>
      <trkpt lat="44.8145" lon="6.80339">
        <ele>2629.3</ele>
        <time>2015-07-22T08:17:57Z</time>
      </trkpt>
      <trkpt lat="44.81443" lon="6.80319">
        <ele>2629.1</ele>
        <time>2015-07-22T08:18:11Z</time>
      </trkpt>
      <trkpt lat="44.81439" lon="6.80308">
        <ele>2627.6</ele>
        <time>2015-07-22T08:18:17Z</time>
      </trkpt>
      <trkpt lat="44.81436" lon="6.80297">
        <ele>2627</ele>
        <time>2015-07-22T08:18:23Z</time>
      </trkpt>
      <trkpt lat="44.81432" lon="6.80287">
        <ele>2625.9</ele>
        <time>2015-07-22T08:18:29Z</time>
      </trkpt>
      <trkpt lat="44.81426" lon="6.80278">
        <ele>2626.4</ele>
        <time>2015-07-22T08:18:35Z</time>
      </trkpt>
      <trkpt lat="44.81419" lon="6.80271">
        <ele>2626</ele>
        <time>2015-07-22T08:18:42Z</time>
      </trkpt>
      <trkpt lat="44.81411" lon="6.8027">
        <ele>2625.3</ele>
        <time>2015-07-22T08:18:48Z</time>
      </trkpt>
      <trkpt lat="44.81402" lon="6.80268">
        <ele>2625</ele>
        <time>2015-07-22T08:18:55Z</time>
      </trkpt>
      <trkpt lat="44.81394" lon="6.80266">
        <ele>2624.6</ele>
        <time>2015-07-22T08:19:02Z</time>
      </trkpt>
      <trkpt lat="44.81392" lon="6.80266">
        <ele>2624.4</ele>
        <time>2015-07-22T08:19:03Z</time>
      </trkpt>
      <trkpt lat="44.81379" lon="6.80254">
        <ele>2619</ele>
        <time>2015-07-22T08:19:16Z</time>
      </trkpt>
      <trkpt lat="44.81372" lon="6.80248">
        <ele>2617.7</ele>
        <time>2015-07-22T08:19:24Z</time>
      </trkpt>
      <trkpt lat="44.81364" lon="6.80243">
        <ele>2615.2</ele>
        <time>2015-07-22T08:19:31Z</time>
      </trkpt>
      <trkpt lat="44.81358" lon="6.80236">
        <ele>2614.2</ele>
        <time>2015-07-22T08:19:37Z</time>
      </trkpt>
      <trkpt lat="44.81352" lon="6.80229">
        <ele>2612.5</ele>
        <time>2015-07-22T08:19:44Z</time>
      </trkpt>
      <trkpt lat="44.81345" lon="6.80223">
        <ele>2610.8</ele>
        <time>2015-07-22T08:19:52Z</time>
      </trkpt>
      <trkpt lat="44.81339" lon="6.80215">
        <ele>2610.2</ele>
        <time>2015-07-22T08:19:59Z</time>
      </trkpt>
      <trkpt lat="44.81332" lon="6.80207">
        <ele>2608</ele>
        <time>2015-07-22T08:20:06Z</time>
      </trkpt>
      <trkpt lat="44.81331" lon="6.80206">
        <ele>2607.6</ele>
        <time>2015-07-22T08:20:07Z</time>
      </trkpt>
      <trkpt lat="44.81319" lon="6.80193">
        <ele>2603.7</ele>
        <time>2015-07-22T08:20:20Z</time>
      </trkpt>
      <trkpt lat="44.81313" lon="6.80183">
        <ele>2602</ele>
        <time>2015-07-22T08:20:32Z</time>
      </trkpt>
      <trkpt lat="44.81305" lon="6.80179">
        <ele>2601.5</ele>
        <time>2015-07-22T08:20:39Z</time>
      </trkpt>
      <trkpt lat="44.81298" lon="6.80174">
        <ele>2599.9</ele>
        <time>2015-07-22T08:20:46Z</time>
      </trkpt>
      <trkpt lat="44.81291" lon="6.80168">
        <ele>2597.8</ele>
        <time>2015-07-22T08:20:53Z</time>
      </trkpt>
      <trkpt lat="44.81283" lon="6.80164">
        <ele>2597.3</ele>
        <time>2015-07-22T08:21:00Z</time>
      </trkpt>
      <trkpt lat="44.81275" lon="6.8016">
        <ele>2594.8</ele>
        <time>2015-07-22T08:21:07Z</time>
      </trkpt>
      <trkpt lat="44.81273" lon="6.8016">
        <ele>2594.6</ele>
        <time>2015-07-22T08:21:08Z</time>
      </trkpt>
      <trkpt lat="44.81259" lon="6.80155">
        <ele>2594.1</ele>
        <time>2015-07-22T08:21:20Z</time>
      </trkpt>
      <trkpt lat="44.81251" lon="6.80152">
        <ele>2591.3</ele>
        <time>2015-07-22T08:21:28Z</time>
      </trkpt>
      <trkpt lat="44.81242" lon="6.80154">
        <ele>2588.5</ele>
        <time>2015-07-22T08:21:36Z</time>
      </trkpt>
      <trkpt lat="44.81233" lon="6.80153">
        <ele>2589.2</ele>
        <time>2015-07-22T08:21:43Z</time>
      </trkpt>
      <trkpt lat="44.81226" lon="6.80153">
        <ele>2587.3</ele>
        <time>2015-07-22T08:21:50Z</time>
      </trkpt>
      <trkpt lat="44.81218" lon="6.80154">
        <ele>2586.2</ele>
        <time>2015-07-22T08:21:57Z</time>
      </trkpt>
      <trkpt lat="44.8121" lon="6.80158">
        <ele>2584.1</ele>
        <time>2015-07-22T08:22:03Z</time>
      </trkpt>
      <trkpt lat="44.81202" lon="6.80158">
        <ele>2583</ele>
        <time>2015-07-22T08:22:10Z</time>
      </trkpt>
      <trkpt lat="44.81201" lon="6.80158">
        <ele>2582.9</ele>
        <time>2015-07-22T08:22:11Z</time>
      </trkpt>
      <trkpt lat="44.81186" lon="6.80161">
        <ele>2582.4</ele>
        <time>2015-07-22T08:22:23Z</time>
      </trkpt>
      <trkpt lat="44.81177" lon="6.8016">
        <ele>2580.7</ele>
        <time>2015-07-22T08:22:30Z</time>
      </trkpt>
      <trkpt lat="44.81169" lon="6.80159">
        <ele>2579.8</ele>
        <time>2015-07-22T08:22:37Z</time>
      </trkpt>
      <trkpt lat="44.81161" lon="6.80162">
        <ele>2578.8</ele>
        <time>2015-07-22T08:22:44Z</time>
      </trkpt>
      <trkpt lat="44.81153" lon="6.80162">
        <ele>2578</ele>
        <time>2015-07-22T08:22:51Z</time>
      </trkpt>
      <trkpt lat="44.81145" lon="6.80162">
        <ele>2575.7</ele>
        <time>2015-07-22T08:22:58Z</time>
      </trkpt>
      <trkpt lat="44.81137" lon="6.80158">
        <ele>2575.3</ele>
        <time>2015-07-22T08:23:06Z</time>
      </trkpt>
      <trkpt lat="44.81129" lon="6.80154">
        <ele>2574.9</ele>
        <time>2015-07-22T08:23:13Z</time>
      </trkpt>
      <trkpt lat="44.81128" lon="6.80153">
        <ele>2574.8</ele>
        <time>2015-07-22T08:23:14Z</time>
      </trkpt>
      <trkpt lat="44.81113" lon="6.80145">
        <ele>2573.9</ele>
        <time>2015-07-22T08:23:27Z</time>
      </trkpt>
      <trkpt lat="44.81104" lon="6.80146">
        <ele>2571.4</ele>
        <time>2015-07-22T08:23:34Z</time>
      </trkpt>
      <trkpt lat="44.81096" lon="6.80141">
        <ele>2569.3</ele>
        <time>2015-07-22T08:23:41Z</time>
      </trkpt>
      <trkpt lat="44.81089" lon="6.80137">
        <ele>2568</ele>
        <time>2015-07-22T08:23:47Z</time>
      </trkpt>
      <trkpt lat="44.81082" lon="6.80131">
        <ele>2566.9</ele>
        <time>2015-07-22T08:23:53Z</time>
      </trkpt>
      <trkpt lat="44.81075" lon="6.80127">
        <ele>2565.9</ele>
        <time>2015-07-22T08:23:59Z</time>
      </trkpt>
      <trkpt lat="44.81067" lon="6.80126">
        <ele>2566</ele>
        <time>2015-07-22T08:24:06Z</time>
      </trkpt>
      <trkpt lat="44.81059" lon="6.80121">
        <ele>2564.8</ele>
        <time>2015-07-22T08:24:13Z</time>
      </trkpt>
      <trkpt lat="44.8105" lon="6.80117">
        <ele>2565.6</ele>
        <time>2015-07-22T08:24:20Z</time>
      </trkpt>
      <trkpt lat="44.81049" lon="6.80116">
        <ele>2565.4</ele>
        <time>2015-07-22T08:24:21Z</time>
      </trkpt>
      <trkpt lat="44.81036" lon="6.80105">
        <ele>2565.9</ele>
        <time>2015-07-22T08:24:33Z</time>
      </trkpt>
      <trkpt lat="44.81028" lon="6.80099">
        <ele>2563.5</ele>
        <time>2015-07-22T08:24:40Z</time>
      </trkpt>
      <trkpt lat="44.81021" lon="6.80092">
        <ele>2563.7</ele>
        <time>2015-07-22T08:24:47Z</time>
      </trkpt>
      <trkpt lat="44.81014" lon="6.80086">
        <ele>2563.8</ele>
        <time>2015-07-22T08:24:54Z</time>
      </trkpt>
      <trkpt lat="44.81005" lon="6.80087">
        <ele>2563.8</ele>
        <time>2015-07-22T08:25:02Z</time>
      </trkpt>
      <trkpt lat="44.80997" lon="6.80083">
        <ele>2562.2</ele>
        <time>2015-07-22T08:25:08Z</time>
      </trkpt>
      <trkpt lat="44.8099" lon="6.8008">
        <ele>2560.2</ele>
        <time>2015-07-22T08:25:14Z</time>
      </trkpt>
      <trkpt lat="44.80983" lon="6.80074">
        <ele>2559.9</ele>
        <time>2015-07-22T08:25:20Z</time>
      </trkpt>
      <trkpt lat="44.80975" lon="6.8007">
        <ele>2559.4</ele>
        <time>2015-07-22T08:25:26Z</time>
      </trkpt>
      <trkpt lat="44.80974" lon="6.80069">
        <ele>2559.9</ele>
        <time>2015-07-22T08:25:27Z</time>
      </trkpt>
      <trkpt lat="44.8096" lon="6.80061">
        <ele>2558.9</ele>
        <time>2015-07-22T08:25:38Z</time>
      </trkpt>
      <trkpt lat="44.80952" lon="6.80056">
        <ele>2556.6</ele>
        <time>2015-07-22T08:25:45Z</time>
      </trkpt>
      <trkpt lat="44.80945" lon="6.80052">
        <ele>2556.1</ele>
        <time>2015-07-22T08:25:52Z</time>
      </trkpt>
      <trkpt lat="44.80936" lon="6.80048">
        <ele>2555.5</ele>
        <time>2015-07-22T08:25:59Z</time>
      </trkpt>
      <trkpt lat="44.80929" lon="6.80041">
        <ele>2553.8</ele>
        <time>2015-07-22T08:26:06Z</time>
      </trkpt>
      <trkpt lat="44.80922" lon="6.80036">
        <ele>2553</ele>
        <time>2015-07-22T08:26:13Z</time>
      </trkpt>
      <trkpt lat="44.80914" lon="6.80032">
        <ele>2553.3</ele>
        <time>2015-07-22T08:26:38Z</time>
      </trkpt>
      <trkpt lat="44.80913" lon="6.80032">
        <ele>2553.6</ele>
        <time>2015-07-22T08:26:39Z</time>
      </trkpt>
      <trkpt lat="44.80898" lon="6.80029">
        <ele>2553.8</ele>
        <time>2015-07-22T08:26:57Z</time>
      </trkpt>
      <trkpt lat="44.80889" lon="6.80027">
        <ele>2553.2</ele>
        <time>2015-07-22T08:27:04Z</time>
      </trkpt>
      <trkpt lat="44.80881" lon="6.80024">
        <ele>2551.9</ele>
        <time>2015-07-22T08:27:11Z</time>
      </trkpt>
      <trkpt lat="44.80874" lon="6.80019">
        <ele>2552.4</ele>
        <time>2015-07-22T08:27:20Z</time>
      </trkpt>
      <trkpt lat="44.80866" lon="6.80015">
        <ele>2550.7</ele>
        <time>2015-07-22T08:27:28Z</time>
      </trkpt>
      <trkpt lat="44.80858" lon="6.80012">
        <ele>2549.7</ele>
        <time>2015-07-22T08:27:35Z</time>
      </trkpt>
      <trkpt lat="44.8085" lon="6.80008">
        <ele>2548.7</ele>
        <time>2015-07-22T08:27:42Z</time>
      </trkpt>
      <trkpt lat="44.80849" lon="6.80007">
        <ele>2548.3</ele>
        <time>2015-07-22T08:27:43Z</time>
      </trkpt>
      <trkpt lat="44.80836" lon="6.79996">
        <ele>2547.5</ele>
        <time>2015-07-22T08:27:56Z</time>
      </trkpt>
      <trkpt lat="44.80828" lon="6.79991">
        <ele>2543.4</ele>
        <time>2015-07-22T08:28:03Z</time>
      </trkpt>
      <trkpt lat="44.80819" lon="6.79988">
        <ele>2542.2</ele>
        <time>2015-07-22T08:28:11Z</time>
      </trkpt>
      <trkpt lat="44.80812" lon="6.79981">
        <ele>2542.1</ele>
        <time>2015-07-22T08:28:18Z</time>
      </trkpt>
      <trkpt lat="44.80805" lon="6.79975">
        <ele>2540.8</ele>
        <time>2015-07-22T08:28:25Z</time>
      </trkpt>
      <trkpt lat="44.80798" lon="6.7997">
        <ele>2536.2</ele>
        <time>2015-07-22T08:28:32Z</time>
      </trkpt>
      <trkpt lat="44.80791" lon="6.79964">
        <ele>2535.3</ele>
        <time>2015-07-22T08:28:39Z</time>
      </trkpt>
      <trkpt lat="44.80784" lon="6.79957">
        <ele>2534.8</ele>
        <time>2015-07-22T08:28:46Z</time>
      </trkpt>
      <trkpt lat="44.80784" lon="6.79956">
        <ele>2534.8</ele>
        <time>2015-07-22T08:28:47Z</time>
      </trkpt>
      <trkpt lat="44.80769" lon="6.79946">
        <ele>2532.1</ele>
        <time>2015-07-22T08:29:01Z</time>
      </trkpt>
      <trkpt lat="44.80762" lon="6.7994">
        <ele>2530.5</ele>
        <time>2015-07-22T08:29:07Z</time>
      </trkpt>
      <trkpt lat="44.80754" lon="6.79933">
        <ele>2528.8</ele>
        <time>2015-07-22T08:29:14Z</time>
      </trkpt>
      <trkpt lat="44.80747" lon="6.79928">
        <ele>2529.2</ele>
        <time>2015-07-22T08:29:20Z</time>
      </trkpt>
      <trkpt lat="44.8074" lon="6.7992">
        <ele>2528.4</ele>
        <time>2015-07-22T08:29:27Z</time>
      </trkpt>
      <trkpt lat="44.80733" lon="6.79913">
        <ele>2527</ele>
        <time>2015-07-22T08:29:35Z</time>
      </trkpt>
      <trkpt lat="44.80725" lon="6.79907">
        <ele>2525.7</ele>
        <time>2015-07-22T08:29:43Z</time>
      </trkpt>
      <trkpt lat="44.80718" lon="6.79902">
        <ele>2525.6</ele>
        <time>2015-07-22T08:29:50Z</time>
      </trkpt>
      <trkpt lat="44.80717" lon="6.79901">
        <ele>2525.6</ele>
        <time>2015-07-22T08:29:51Z</time>
      </trkpt>
      <trkpt lat="44.80703" lon="6.7989">
        <ele>2523.3</ele>
        <time>2015-07-22T08:30:08Z</time>
      </trkpt>
      <trkpt lat="44.80695" lon="6.79884">
        <ele>2522.8</ele>
        <time>2015-07-22T08:30:17Z</time>
      </trkpt>
      <trkpt lat="44.80688" lon="6.79878">
        <ele>2520</ele>
        <time>2015-07-22T08:30:25Z</time>
      </trkpt>
      <trkpt lat="44.80681" lon="6.79871">
        <ele>2519.5</ele>
        <time>2015-07-22T08:30:33Z</time>
      </trkpt>
      <trkpt lat="44.80676" lon="6.79863">
        <ele>2517.6</ele>
        <time>2015-07-22T08:30:40Z</time>
      </trkpt>
      <trkpt lat="44.80669" lon="6.79857">
        <ele>2517.2</ele>
        <time>2015-07-22T08:30:47Z</time>
      </trkpt>
      <trkpt lat="44.80661" lon="6.79853">
        <ele>2515.3</ele>
        <time>2015-07-22T08:30:54Z</time>
      </trkpt>
      <trkpt lat="44.8066" lon="6.79852">
        <ele>2514.9</ele>
        <time>2015-07-22T08:30:55Z</time>
      </trkpt>
      <trkpt lat="44.80646" lon="6.79843">
        <ele>2510.3</ele>
        <time>2015-07-22T08:31:08Z</time>
      </trkpt>
      <trkpt lat="44.80638" lon="6.79838">
        <ele>2509.9</ele>
        <time>2015-07-22T08:31:15Z</time>
      </trkpt>
      <trkpt lat="44.8063" lon="6.79834">
        <ele>2507.8</ele>
        <time>2015-07-22T08:31:22Z</time>
      </trkpt>
      <trkpt lat="44.80622" lon="6.79829">
        <ele>2506.1</ele>
        <time>2015-07-22T08:31:29Z</time>
      </trkpt>
      <trkpt lat="44.80614" lon="6.79824">
        <ele>2503.5</ele>
        <time>2015-07-22T08:31:36Z</time>
      </trkpt>
      <trkpt lat="44.80607" lon="6.79819">
        <ele>2503.6</ele>
        <time>2015-07-22T08:31:43Z</time>
      </trkpt>
      <trkpt lat="44.806" lon="6.79812">
        <ele>2499</ele>
        <time>2015-07-22T08:31:50Z</time>
      </trkpt>
      <trkpt lat="44.80592" lon="6.79812">
        <ele>2497</ele>
        <time>2015-07-22T08:31:56Z</time>
      </trkpt>
      <trkpt lat="44.8059" lon="6.79812">
        <ele>2496.7</ele>
        <time>2015-07-22T08:31:57Z</time>
      </trkpt>
      <trkpt lat="44.80577" lon="6.79803">
        <ele>2491.6</ele>
        <time>2015-07-22T08:32:08Z</time>
      </trkpt>
      <trkpt lat="44.80571" lon="6.79796">
        <ele>2489.7</ele>
        <time>2015-07-22T08:32:14Z</time>
      </trkpt>
      <trkpt lat="44.80565" lon="6.79788">
        <ele>2488.6</ele>
        <time>2015-07-22T08:32:20Z</time>
      </trkpt>
      <trkpt lat="44.80558" lon="6.79784">
        <ele>2485.4</ele>
        <time>2015-07-22T08:32:25Z</time>
      </trkpt>
      <trkpt lat="44.8055" lon="6.79781">
        <ele>2482.5</ele>
        <time>2015-07-22T08:32:30Z</time>
      </trkpt>
      <trkpt lat="44.80543" lon="6.79777">
        <ele>2481.2</ele>
        <time>2015-07-22T08:32:36Z</time>
      </trkpt>
      <trkpt lat="44.80535" lon="6.79771">
        <ele>2478.9</ele>
        <time>2015-07-22T08:32:43Z</time>
      </trkpt>
      <trkpt lat="44.80526" lon="6.79768">
        <ele>2479.3</ele>
        <time>2015-07-22T08:32:50Z</time>
      </trkpt>
      <trkpt lat="44.80518" lon="6.79767">
        <ele>2477.5</ele>
        <time>2015-07-22T08:32:57Z</time>
      </trkpt>
      <trkpt lat="44.80509" lon="6.79769">
        <ele>2477.6</ele>
        <time>2015-07-22T08:33:04Z</time>
      </trkpt>
      <trkpt lat="44.80508" lon="6.7977">
        <ele>2477.8</ele>
        <time>2015-07-22T08:33:05Z</time>
      </trkpt>
      <trkpt lat="44.80493" lon="6.7977">
        <ele>2472.8</ele>
        <time>2015-07-22T08:33:17Z</time>
      </trkpt>
      <trkpt lat="44.80485" lon="6.7977">
        <ele>2472.2</ele>
        <time>2015-07-22T08:33:24Z</time>
      </trkpt>
      <trkpt lat="44.80477" lon="6.79765">
        <ele>2468.7</ele>
        <time>2015-07-22T08:33:31Z</time>
      </trkpt>
      <trkpt lat="44.80469" lon="6.79765">
        <ele>2466.3</ele>
        <time>2015-07-22T08:33:37Z</time>
      </trkpt>
      <trkpt lat="44.80461" lon="6.79766">
        <ele>2465.7</ele>
        <time>2015-07-22T08:33:44Z</time>
      </trkpt>
      <trkpt lat="44.80452" lon="6.79765">
        <ele>2462.6</ele>
        <time>2015-07-22T08:33:53Z</time>
      </trkpt>
      <trkpt lat="44.80445" lon="6.79765">
        <ele>2461.8</ele>
        <time>2015-07-22T08:34:00Z</time>
      </trkpt>
      <trkpt lat="44.80437" lon="6.79766">
        <ele>2460.5</ele>
        <time>2015-07-22T08:34:06Z</time>
      </trkpt>
      <trkpt lat="44.80436" lon="6.79766">
        <ele>2459.4</ele>
        <time>2015-07-22T08:34:07Z</time>
      </trkpt>
      <trkpt lat="44.80421" lon="6.79771">
        <ele>2454</ele>
        <time>2015-07-22T08:34:18Z</time>
      </trkpt>
      <trkpt lat="44.80413" lon="6.79771">
        <ele>2452.5</ele>
        <time>2015-07-22T08:34:24Z</time>
      </trkpt>
      <trkpt lat="44.80405" lon="6.79773">
        <ele>2450</ele>
        <time>2015-07-22T08:34:31Z</time>
      </trkpt>
      <trkpt lat="44.80398" lon="6.79777">
        <ele>2449.2</ele>
        <time>2015-07-22T08:34:37Z</time>
      </trkpt>
      <trkpt lat="44.8039" lon="6.79776">
        <ele>2446.5</ele>
        <time>2015-07-22T08:34:44Z</time>
      </trkpt>
      <trkpt lat="44.80382" lon="6.79774">
        <ele>2443.8</ele>
        <time>2015-07-22T08:34:50Z</time>
      </trkpt>
      <trkpt lat="44.80374" lon="6.79774">
        <ele>2442.8</ele>
        <time>2015-07-22T08:34:56Z</time>
      </trkpt>
      <trkpt lat="44.80365" lon="6.79771">
        <ele>2440</ele>
        <time>2015-07-22T08:35:04Z</time>
      </trkpt>
      <trkpt lat="44.80357" lon="6.79769">
        <ele>2437.9</ele>
        <time>2015-07-22T08:35:11Z</time>
      </trkpt>
      <trkpt lat="44.80356" lon="6.79768">
        <ele>2437.8</ele>
        <time>2015-07-22T08:35:12Z</time>
      </trkpt>
      <trkpt lat="44.80342" lon="6.7976">
        <ele>2436.6</ele>
        <time>2015-07-22T08:35:25Z</time>
      </trkpt>
      <trkpt lat="44.80335" lon="6.79755">
        <ele>2433.4</ele>
        <time>2015-07-22T08:35:33Z</time>
      </trkpt>
      <trkpt lat="44.80327" lon="6.79751">
        <ele>2431.9</ele>
        <time>2015-07-22T08:35:40Z</time>
      </trkpt>
      <trkpt lat="44.8032" lon="6.79749">
        <ele>2429.9</ele>
        <time>2015-07-22T08:35:47Z</time>
      </trkpt>
      <trkpt lat="44.80311" lon="6.79745">
        <ele>2427.1</ele>
        <time>2015-07-22T08:35:53Z</time>
      </trkpt>
      <trkpt lat="44.80305" lon="6.79739">
        <ele>2424.7</ele>
        <time>2015-07-22T08:35:59Z</time>
      </trkpt>
      <trkpt lat="44.80297" lon="6.79734">
        <ele>2422.6</ele>
        <time>2015-07-22T08:36:06Z</time>
      </trkpt>
      <trkpt lat="44.80291" lon="6.79727">
        <ele>2419.7</ele>
        <time>2015-07-22T08:36:13Z</time>
      </trkpt>
      <trkpt lat="44.8029" lon="6.79727">
        <ele>2419.2</ele>
        <time>2015-07-22T08:36:14Z</time>
      </trkpt>
      <trkpt lat="44.80274" lon="6.79729">
        <ele>2417.1</ele>
        <time>2015-07-22T08:36:26Z</time>
      </trkpt>
      <trkpt lat="44.80266" lon="6.79728">
        <ele>2414.5</ele>
        <time>2015-07-22T08:36:32Z</time>
      </trkpt>
      <trkpt lat="44.80258" lon="6.79726">
        <ele>2412.1</ele>
        <time>2015-07-22T08:36:39Z</time>
      </trkpt>
      <trkpt lat="44.8025" lon="6.79724">
        <ele>2410.4</ele>
        <time>2015-07-22T08:36:45Z</time>
      </trkpt>
      <trkpt lat="44.80241" lon="6.79723">
        <ele>2407.4</ele>
        <time>2015-07-22T08:36:52Z</time>
      </trkpt>
      <trkpt lat="44.80234" lon="6.7972">
        <ele>2406.6</ele>
        <time>2015-07-22T08:36:58Z</time>
      </trkpt>
      <trkpt lat="44.80225" lon="6.79715">
        <ele>2404.2</ele>
        <time>2015-07-22T08:37:06Z</time>
      </trkpt>
      <trkpt lat="44.80222" lon="6.79704">
        <ele>2402.2</ele>
        <time>2015-07-22T08:37:14Z</time>
      </trkpt>
      <trkpt lat="44.80222" lon="6.79702">
        <ele>2402.2</ele>
        <time>2015-07-22T08:37:15Z</time>
      </trkpt>
      <trkpt lat="44.80218" lon="6.79681">
        <ele>2400.1</ele>
        <time>2015-07-22T08:37:30Z</time>
      </trkpt>
      <trkpt lat="44.80216" lon="6.79669">
        <ele>2396.7</ele>
        <time>2015-07-22T08:37:44Z</time>
      </trkpt>
      <trkpt lat="44.80214" lon="6.79658">
        <ele>2395.5</ele>
        <time>2015-07-22T08:37:55Z</time>
      </trkpt>
      <trkpt lat="44.80216" lon="6.79646">
        <ele>2392.9</ele>
        <time>2015-07-22T08:38:40Z</time>
      </trkpt>
      <trkpt lat="44.80215" lon="6.79645">
        <ele>2393</ele>
        <time>2015-07-22T08:38:41Z</time>
      </trkpt>
      <trkpt lat="44.80213" lon="6.79623">
        <ele>2389.3</ele>
        <time>2015-07-22T08:39:13Z</time>
      </trkpt>
      <trkpt lat="44.80208" lon="6.79613">
        <ele>2388.8</ele>
        <time>2015-07-22T08:39:25Z</time>
      </trkpt>
      <trkpt lat="44.80205" lon="6.79602">
        <ele>2385.8</ele>
        <time>2015-07-22T08:39:32Z</time>
      </trkpt>
      <trkpt lat="44.80199" lon="6.79593">
        <ele>2385.6</ele>
        <time>2015-07-22T08:39:40Z</time>
      </trkpt>
      <trkpt lat="44.80191" lon="6.79596">
        <ele>2385</ele>
        <time>2015-07-22T08:39:48Z</time>
      </trkpt>
      <trkpt lat="44.8019" lon="6.79596">
        <ele>2384</ele>
        <time>2015-07-22T08:39:49Z</time>
      </trkpt>
      <trkpt lat="44.80183" lon="6.79576">
        <ele>2378.9</ele>
        <time>2015-07-22T08:40:19Z</time>
      </trkpt>
      <trkpt lat="44.80176" lon="6.7958">
        <ele>2378.4</ele>
        <time>2015-07-22T08:40:29Z</time>
      </trkpt>
      <trkpt lat="44.8017" lon="6.79589">
        <ele>2375.8</ele>
        <time>2015-07-22T08:40:37Z</time>
      </trkpt>
      <trkpt lat="44.80165" lon="6.79598">
        <ele>2375.1</ele>
        <time>2015-07-22T08:40:44Z</time>
      </trkpt>
      <trkpt lat="44.8016" lon="6.79589">
        <ele>2373.1</ele>
        <time>2015-07-22T08:40:52Z</time>
      </trkpt>
      <trkpt lat="44.80159" lon="6.79587">
        <ele>2372.6</ele>
        <time>2015-07-22T08:40:53Z</time>
      </trkpt>
      <trkpt lat="44.80151" lon="6.79585">
        <ele>2369.4</ele>
        <time>2015-07-22T08:41:07Z</time>
      </trkpt>
      <trkpt lat="44.80146" lon="6.79594">
        <ele>2368.7</ele>
        <time>2015-07-22T08:41:14Z</time>
      </trkpt>
      <trkpt lat="44.80142" lon="6.79605">
        <ele>2367.6</ele>
        <time>2015-07-22T08:41:27Z</time>
      </trkpt>
      <trkpt lat="44.80139" lon="6.79615">
        <ele>2366.6</ele>
        <time>2015-07-22T08:41:33Z</time>
      </trkpt>
      <trkpt lat="44.80134" lon="6.79605">
        <ele>2363.2</ele>
        <time>2015-07-22T08:41:42Z</time>
      </trkpt>
      <trkpt lat="44.80134" lon="6.79593">
        <ele>2363.3</ele>
        <time>2015-07-22T08:41:52Z</time>
      </trkpt>
      <trkpt lat="44.80134" lon="6.79592">
        <ele>2363.2</ele>
        <time>2015-07-22T08:41:53Z</time>
      </trkpt>
      <trkpt lat="44.80121" lon="6.7961">
        <ele>2358.1</ele>
        <time>2015-07-22T08:43:44Z</time>
      </trkpt>
      <trkpt lat="44.80121" lon="6.79611">
        <ele>2357.3</ele>
        <time>2015-07-22T08:43:45Z</time>
      </trkpt>
      <trkpt lat="44.8012" lon="6.79609">
        <ele>2356.7</ele>
        <time>2015-07-22T08:44:49Z</time>
      </trkpt>
      <trkpt lat="44.80121" lon="6.79608">
        <ele>2356.8</ele>
        <time>2015-07-22T08:44:50Z</time>
      </trkpt>
      <trkpt lat="44.80115" lon="6.79619">
        <ele>2358.6</ele>
        <time>2015-07-22T08:46:17Z</time>
      </trkpt>
      <trkpt lat="44.80117" lon="6.79595">
        <ele>2358</ele>
        <time>2015-07-22T08:47:17Z</time>
      </trkpt>
      <trkpt lat="44.80117" lon="6.79595">
        <ele>2358.1</ele>
        <time>2015-07-22T08:47:18Z</time>
      </trkpt>
      <trkpt lat="44.8011" lon="6.79585">
        <ele>2357.5</ele>
        <time>2015-07-22T08:48:28Z</time>
      </trkpt>
      <trkpt lat="44.80113" lon="6.79565">
        <ele>2355.8</ele>
        <time>2015-07-22T08:48:39Z</time>
      </trkpt>
      <trkpt lat="44.80116" lon="6.79554">
        <ele>2356.2</ele>
        <time>2015-07-22T08:48:45Z</time>
      </trkpt>
      <trkpt lat="44.80121" lon="6.79543">
        <ele>2356.9</ele>
        <time>2015-07-22T08:48:51Z</time>
      </trkpt>
      <trkpt lat="44.80125" lon="6.79534">
        <ele>2355.8</ele>
        <time>2015-07-22T08:48:56Z</time>
      </trkpt>
      <trkpt lat="44.8013" lon="6.79525">
        <ele>2356.4</ele>
        <time>2015-07-22T08:49:01Z</time>
      </trkpt>
      <trkpt lat="44.80135" lon="6.79515">
        <ele>2355.9</ele>
        <time>2015-07-22T08:49:07Z</time>
      </trkpt>
      <trkpt lat="44.80141" lon="6.79507">
        <ele>2355.4</ele>
        <time>2015-07-22T08:49:13Z</time>
      </trkpt>
      <trkpt lat="44.80145" lon="6.79496">
        <ele>2355.1</ele>
        <time>2015-07-22T08:49:22Z</time>
      </trkpt>
      <trkpt lat="44.80143" lon="6.79485">
        <ele>2356.1</ele>
        <time>2015-07-22T08:49:33Z</time>
      </trkpt>
      <trkpt lat="44.80143" lon="6.79483">
        <ele>2355.9</ele>
        <time>2015-07-22T08:49:34Z</time>
      </trkpt>
      <trkpt lat="44.8013" lon="6.79473">
        <ele>2357.4</ele>
        <time>2015-07-22T08:49:46Z</time>
      </trkpt>
      <trkpt lat="44.80122" lon="6.79469">
        <ele>2356</ele>
        <time>2015-07-22T08:49:53Z</time>
      </trkpt>
      <trkpt lat="44.80114" lon="6.79464">
        <ele>2357.2</ele>
        <time>2015-07-22T08:49:59Z</time>
      </trkpt>
      <trkpt lat="44.80107" lon="6.7946">
        <ele>2357.8</ele>
        <time>2015-07-22T08:50:05Z</time>
      </trkpt>
      <trkpt lat="44.801" lon="6.79455">
        <ele>2357.6</ele>
        <time>2015-07-22T08:50:12Z</time>
      </trkpt>
      <trkpt lat="44.80092" lon="6.79448">
        <ele>2358.8</ele>
        <time>2015-07-22T08:50:19Z</time>
      </trkpt>
      <trkpt lat="44.80083" lon="6.79448">
        <ele>2361.5</ele>
        <time>2015-07-22T08:50:27Z</time>
      </trkpt>
      <trkpt lat="44.80075" lon="6.79445">
        <ele>2361.1</ele>
        <time>2015-07-22T08:50:57Z</time>
      </trkpt>
      <trkpt lat="44.80074" lon="6.79445">
        <ele>2360.9</ele>
        <time>2015-07-22T08:50:58Z</time>
      </trkpt>
      <trkpt lat="44.80059" lon="6.79438">
        <ele>2361.9</ele>
        <time>2015-07-22T08:51:12Z</time>
      </trkpt>
      <trkpt lat="44.80051" lon="6.79433">
        <ele>2360.3</ele>
        <time>2015-07-22T08:51:19Z</time>
      </trkpt>
      <trkpt lat="44.80042" lon="6.79432">
        <ele>2360.9</ele>
        <time>2015-07-22T08:51:26Z</time>
      </trkpt>
      <trkpt lat="44.80035" lon="6.79427">
        <ele>2362.6</ele>
        <time>2015-07-22T08:51:33Z</time>
      </trkpt>
      <trkpt lat="44.80028" lon="6.79421">
        <ele>2362.3</ele>
        <time>2015-07-22T08:51:41Z</time>
      </trkpt>
      <trkpt lat="44.80021" lon="6.79412">
        <ele>2361.7</ele>
        <time>2015-07-22T08:51:50Z</time>
      </trkpt>
      <trkpt lat="44.80013" lon="6.79409">
        <ele>2360.6</ele>
        <time>2015-07-22T08:52:00Z</time>
      </trkpt>
      <trkpt lat="44.80013" lon="6.79409">
        <ele>2360.3</ele>
        <time>2015-07-22T08:52:01Z</time>
      </trkpt>
      <trkpt lat="44.79997" lon="6.79412">
        <ele>2362.6</ele>
        <time>2015-07-22T08:52:19Z</time>
      </trkpt>
      <trkpt lat="44.79989" lon="6.7941">
        <ele>2363.2</ele>
        <time>2015-07-22T08:52:26Z</time>
      </trkpt>
      <trkpt lat="44.7998" lon="6.79408">
        <ele>2364.5</ele>
        <time>2015-07-22T08:52:33Z</time>
      </trkpt>
      <trkpt lat="44.79972" lon="6.79404">
        <ele>2363.1</ele>
        <time>2015-07-22T08:52:40Z</time>
      </trkpt>
      <trkpt lat="44.79965" lon="6.794">
        <ele>2363.6</ele>
        <time>2015-07-22T08:52:48Z</time>
      </trkpt>
      <trkpt lat="44.79957" lon="6.79395">
        <ele>2364.4</ele>
        <time>2015-07-22T08:52:56Z</time>
      </trkpt>
      <trkpt lat="44.7995" lon="6.7939">
        <ele>2365.6</ele>
        <time>2015-07-22T08:53:05Z</time>
      </trkpt>
      <trkpt lat="44.79949" lon="6.7939">
        <ele>2365.4</ele>
        <time>2015-07-22T08:53:06Z</time>
      </trkpt>
      <trkpt lat="44.79933" lon="6.79386">
        <ele>2366.8</ele>
        <time>2015-07-22T08:53:21Z</time>
      </trkpt>
      <trkpt lat="44.79924" lon="6.79382">
        <ele>2366.5</ele>
        <time>2015-07-22T08:53:29Z</time>
      </trkpt>
      <trkpt lat="44.79918" lon="6.79374">
        <ele>2365.7</ele>
        <time>2015-07-22T08:53:37Z</time>
      </trkpt>
      <trkpt lat="44.79912" lon="6.79367">
        <ele>2366</ele>
        <time>2015-07-22T08:53:43Z</time>
      </trkpt>
      <trkpt lat="44.79906" lon="6.79358">
        <ele>2366.2</ele>
        <time>2015-07-22T08:53:50Z</time>
      </trkpt>
      <trkpt lat="44.79901" lon="6.79351">
        <ele>2366.2</ele>
        <time>2015-07-22T08:53:56Z</time>
      </trkpt>
      <trkpt lat="44.79895" lon="6.79342">
        <ele>2365.1</ele>
        <time>2015-07-22T08:54:03Z</time>
      </trkpt>
      <trkpt lat="44.79888" lon="6.79334">
        <ele>2364</ele>
        <time>2015-07-22T08:54:11Z</time>
      </trkpt>
      <trkpt lat="44.79887" lon="6.79334">
        <ele>2363.6</ele>
        <time>2015-07-22T08:54:12Z</time>
      </trkpt>
      <trkpt lat="44.79871" lon="6.79332">
        <ele>2363.9</ele>
        <time>2015-07-22T08:54:25Z</time>
      </trkpt>
      <trkpt lat="44.79864" lon="6.79325">
        <ele>2364.2</ele>
        <time>2015-07-22T08:54:33Z</time>
      </trkpt>
      <trkpt lat="44.79857" lon="6.79319">
        <ele>2365.4</ele>
        <time>2015-07-22T08:54:40Z</time>
      </trkpt>
      <trkpt lat="44.79849" lon="6.79315">
        <ele>2364.9</ele>
        <time>2015-07-22T08:54:47Z</time>
      </trkpt>
      <trkpt lat="44.7984" lon="6.79313">
        <ele>2365.6</ele>
        <time>2015-07-22T08:54:54Z</time>
      </trkpt>
      <trkpt lat="44.79833" lon="6.7931">
        <ele>2364.4</ele>
        <time>2015-07-22T08:55:00Z</time>
      </trkpt>
      <trkpt lat="44.79825" lon="6.79307">
        <ele>2364.7</ele>
        <time>2015-07-22T08:55:06Z</time>
      </trkpt>
      <trkpt lat="44.79818" lon="6.79299">
        <ele>2365.7</ele>
        <time>2015-07-22T08:55:13Z</time>
      </trkpt>
      <trkpt lat="44.79818" lon="6.79298">
        <ele>2365.7</ele>
        <time>2015-07-22T08:55:14Z</time>
      </trkpt>
      <trkpt lat="44.79803" lon="6.79291">
        <ele>2365</ele>
        <time>2015-07-22T08:55:27Z</time>
      </trkpt>
      <trkpt lat="44.79795" lon="6.79286">
        <ele>2366.2</ele>
        <time>2015-07-22T08:55:34Z</time>
      </trkpt>
      <trkpt lat="44.79787" lon="6.79282">
        <ele>2366.3</ele>
        <time>2015-07-22T08:55:40Z</time>
      </trkpt>
      <trkpt lat="44.79779" lon="6.79277">
        <ele>2367.8</ele>
        <time>2015-07-22T08:55:49Z</time>
      </trkpt>
      <trkpt lat="44.79771" lon="6.79282">
        <ele>2366.2</ele>
        <time>2015-07-22T08:55:56Z</time>
      </trkpt>
      <trkpt lat="44.79763" lon="6.79286">
        <ele>2367</ele>
        <time>2015-07-22T08:56:03Z</time>
      </trkpt>
      <trkpt lat="44.79755" lon="6.79291">
        <ele>2367.2</ele>
        <time>2015-07-22T08:56:11Z</time>
      </trkpt>
      <trkpt lat="44.79748" lon="6.79297">
        <ele>2368.4</ele>
        <time>2015-07-22T08:56:19Z</time>
      </trkpt>
      <trkpt lat="44.79747" lon="6.79298">
        <ele>2368.6</ele>
        <time>2015-07-22T08:56:20Z</time>
      </trkpt>
      <trkpt lat="44.79732" lon="6.79305">
        <ele>2369.7</ele>
        <time>2015-07-22T08:56:33Z</time>
      </trkpt>
      <trkpt lat="44.79724" lon="6.79305">
        <ele>2370</ele>
        <time>2015-07-22T08:56:40Z</time>
      </trkpt>
      <trkpt lat="44.79715" lon="6.79305">
        <ele>2369</ele>
        <time>2015-07-22T08:56:47Z</time>
      </trkpt>
      <trkpt lat="44.79706" lon="6.79305">
        <ele>2369.1</ele>
        <time>2015-07-22T08:56:57Z</time>
      </trkpt>
      <trkpt lat="44.79698" lon="6.79301">
        <ele>2370.2</ele>
        <time>2015-07-22T08:57:05Z</time>
      </trkpt>
      <trkpt lat="44.79694" lon="6.79292">
        <ele>2372.2</ele>
        <time>2015-07-22T08:57:12Z</time>
      </trkpt>
      <trkpt lat="44.7969" lon="6.79281">
        <ele>2369.9</ele>
        <time>2015-07-22T08:57:19Z</time>
      </trkpt>
      <trkpt lat="44.79689" lon="6.79269">
        <ele>2368.3</ele>
        <time>2015-07-22T08:57:26Z</time>
      </trkpt>
      <trkpt lat="44.79689" lon="6.79268">
        <ele>2368.2</ele>
        <time>2015-07-22T08:57:27Z</time>
      </trkpt>
      <trkpt lat="44.79682" lon="6.79249">
        <ele>2366.3</ele>
        <time>2015-07-22T08:57:40Z</time>
      </trkpt>
      <trkpt lat="44.7968" lon="6.79238">
        <ele>2365</ele>
        <time>2015-07-22T08:57:47Z</time>
      </trkpt>
      <trkpt lat="44.79677" lon="6.79228">
        <ele>2364.7</ele>
        <time>2015-07-22T08:57:53Z</time>
      </trkpt>
      <trkpt lat="44.79674" lon="6.79217">
        <ele>2362.5</ele>
        <time>2015-07-22T08:57:59Z</time>
      </trkpt>
      <trkpt lat="44.79668" lon="6.79211">
        <ele>2362.1</ele>
        <time>2015-07-22T08:58:05Z</time>
      </trkpt>
      <trkpt lat="44.79661" lon="6.79204">
        <ele>2361.5</ele>
        <time>2015-07-22T08:58:12Z</time>
      </trkpt>
      <trkpt lat="44.79658" lon="6.79194">
        <ele>2360.8</ele>
        <time>2015-07-22T08:58:18Z</time>
      </trkpt>
      <trkpt lat="44.79654" lon="6.79184">
        <ele>2360</ele>
        <time>2015-07-22T08:58:24Z</time>
      </trkpt>
      <trkpt lat="44.79649" lon="6.79175">
        <ele>2358.9</ele>
        <time>2015-07-22T08:58:30Z</time>
      </trkpt>
      <trkpt lat="44.79648" lon="6.79174">
        <ele>2359.1</ele>
        <time>2015-07-22T08:58:31Z</time>
      </trkpt>
      <trkpt lat="44.79638" lon="6.79157">
        <ele>2360.3</ele>
        <time>2015-07-22T08:58:43Z</time>
      </trkpt>
      <trkpt lat="44.79632" lon="6.79148">
        <ele>2358.2</ele>
        <time>2015-07-22T08:58:50Z</time>
      </trkpt>
      <trkpt lat="44.79626" lon="6.79142">
        <ele>2358.8</ele>
        <time>2015-07-22T08:58:58Z</time>
      </trkpt>
      <trkpt lat="44.79619" lon="6.79136">
        <ele>2358.6</ele>
        <time>2015-07-22T08:59:05Z</time>
      </trkpt>
      <trkpt lat="44.79614" lon="6.79126">
        <ele>2360.7</ele>
        <time>2015-07-22T08:59:12Z</time>
      </trkpt>
      <trkpt lat="44.79608" lon="6.79118">
        <ele>2360.5</ele>
        <time>2015-07-22T08:59:19Z</time>
      </trkpt>
      <trkpt lat="44.79601" lon="6.79111">
        <ele>2360.8</ele>
        <time>2015-07-22T08:59:27Z</time>
      </trkpt>
      <trkpt lat="44.79593" lon="6.79107">
        <ele>2362.3</ele>
        <time>2015-07-22T08:59:34Z</time>
      </trkpt>
      <trkpt lat="44.79592" lon="6.79107">
        <ele>2362.3</ele>
        <time>2015-07-22T08:59:35Z</time>
      </trkpt>
      <trkpt lat="44.79578" lon="6.79098">
        <ele>2361.8</ele>
        <time>2015-07-22T08:59:48Z</time>
      </trkpt>
      <trkpt lat="44.79571" lon="6.79095">
        <ele>2361.6</ele>
        <time>2015-07-22T08:59:56Z</time>
      </trkpt>
      <trkpt lat="44.79563" lon="6.79092">
        <ele>2362.9</ele>
        <time>2015-07-22T09:00:04Z</time>
      </trkpt>
      <trkpt lat="44.79555" lon="6.79088">
        <ele>2363.2</ele>
        <time>2015-07-22T09:00:12Z</time>
      </trkpt>
      <trkpt lat="44.79547" lon="6.79083">
        <ele>2365</ele>
        <time>2015-07-22T09:00:21Z</time>
      </trkpt>
      <trkpt lat="44.79539" lon="6.79077">
        <ele>2366</ele>
        <time>2015-07-22T09:00:30Z</time>
      </trkpt>
      <trkpt lat="44.79532" lon="6.79071">
        <ele>2367.8</ele>
        <time>2015-07-22T09:00:38Z</time>
      </trkpt>
      <trkpt lat="44.79532" lon="6.79071">
        <ele>2368</ele>
        <time>2015-07-22T09:00:39Z</time>
      </trkpt>
      <trkpt lat="44.79517" lon="6.79062">
        <ele>2369.8</ele>
        <time>2015-07-22T09:00:54Z</time>
      </trkpt>
      <trkpt lat="44.79508" lon="6.79059">
        <ele>2371</ele>
        <time>2015-07-22T09:01:03Z</time>
      </trkpt>
      <trkpt lat="44.795" lon="6.79058">
        <ele>2372.8</ele>
        <time>2015-07-22T09:01:13Z</time>
      </trkpt>
      <trkpt lat="44.79491" lon="6.79059">
        <ele>2373.1</ele>
        <time>2015-07-22T09:01:38Z</time>
      </trkpt>
      <trkpt lat="44.79483" lon="6.79055">
        <ele>2374</ele>
        <time>2015-07-22T09:01:43Z</time>
      </trkpt>
      <trkpt lat="44.79482" lon="6.79054">
        <ele>2373</ele>
        <time>2015-07-22T09:01:44Z</time>
      </trkpt>
      <trkpt lat="44.79469" lon="6.79043">
        <ele>2372.5</ele>
        <time>2015-07-22T09:01:56Z</time>
      </trkpt>
      <trkpt lat="44.79462" lon="6.79035">
        <ele>2372.1</ele>
        <time>2015-07-22T09:02:02Z</time>
      </trkpt>
      <trkpt lat="44.79455" lon="6.79028">
        <ele>2372.3</ele>
        <time>2015-07-22T09:02:09Z</time>
      </trkpt>
      <trkpt lat="44.79448" lon="6.79021">
        <ele>2372</ele>
        <time>2015-07-22T09:02:16Z</time>
      </trkpt>
      <trkpt lat="44.79442" lon="6.79014">
        <ele>2371.7</ele>
        <time>2015-07-22T09:02:22Z</time>
      </trkpt>
      <trkpt lat="44.79436" lon="6.79006">
        <ele>2372.3</ele>
        <time>2015-07-22T09:02:29Z</time>
      </trkpt>
      <trkpt lat="44.79431" lon="6.78997">
        <ele>2373.4</ele>
        <time>2015-07-22T09:02:35Z</time>
      </trkpt>
      <trkpt lat="44.79425" lon="6.78988">
        <ele>2372.8</ele>
        <time>2015-07-22T09:02:42Z</time>
      </trkpt>
      <trkpt lat="44.79418" lon="6.7898">
        <ele>2373.6</ele>
        <time>2015-07-22T09:02:50Z</time>
      </trkpt>
      <trkpt lat="44.79417" lon="6.78979">
        <ele>2373.5</ele>
        <time>2015-07-22T09:02:51Z</time>
      </trkpt>
      <trkpt lat="44.79408" lon="6.78961">
        <ele>2372.1</ele>
        <time>2015-07-22T09:03:04Z</time>
      </trkpt>
      <trkpt lat="44.79402" lon="6.78953">
        <ele>2371.4</ele>
        <time>2015-07-22T09:03:11Z</time>
      </trkpt>
      <trkpt lat="44.79394" lon="6.78948">
        <ele>2371.6</ele>
        <time>2015-07-22T09:03:18Z</time>
      </trkpt>
      <trkpt lat="44.79389" lon="6.78938">
        <ele>2368.8</ele>
        <time>2015-07-22T09:03:25Z</time>
      </trkpt>
      <trkpt lat="44.79383" lon="6.78929">
        <ele>2369.6</ele>
        <time>2015-07-22T09:03:32Z</time>
      </trkpt>
      <trkpt lat="44.79377" lon="6.7892">
        <ele>2370</ele>
        <time>2015-07-22T09:03:39Z</time>
      </trkpt>
      <trkpt lat="44.79371" lon="6.78913">
        <ele>2370.1</ele>
        <time>2015-07-22T09:03:45Z</time>
      </trkpt>
      <trkpt lat="44.79366" lon="6.78903">
        <ele>2367.1</ele>
        <time>2015-07-22T09:03:52Z</time>
      </trkpt>
      <trkpt lat="44.79366" lon="6.78902">
        <ele>2367.2</ele>
        <time>2015-07-22T09:03:53Z</time>
      </trkpt>
      <trkpt lat="44.79354" lon="6.78887">
        <ele>2366.1</ele>
        <time>2015-07-22T09:04:06Z</time>
      </trkpt>
      <trkpt lat="44.79347" lon="6.7888">
        <ele>2364.3</ele>
        <time>2015-07-22T09:04:12Z</time>
      </trkpt>
      <trkpt lat="44.79341" lon="6.78875">
        <ele>2363.1</ele>
        <time>2015-07-22T09:04:18Z</time>
      </trkpt>
      <trkpt lat="44.79334" lon="6.78867">
        <ele>2360.7</ele>
        <time>2015-07-22T09:04:26Z</time>
      </trkpt>
      <trkpt lat="44.79326" lon="6.78864">
        <ele>2359.6</ele>
        <time>2015-07-22T09:04:35Z</time>
      </trkpt>
      <trkpt lat="44.79318" lon="6.78865">
        <ele>2359.7</ele>
        <time>2015-07-22T09:04:43Z</time>
      </trkpt>
      <trkpt lat="44.79309" lon="6.78864">
        <ele>2360.7</ele>
        <time>2015-07-22T09:04:51Z</time>
      </trkpt>
      <trkpt lat="44.793" lon="6.78863">
        <ele>2361.1</ele>
        <time>2015-07-22T09:04:59Z</time>
      </trkpt>
      <trkpt lat="44.79299" lon="6.78863">
        <ele>2361</ele>
        <time>2015-07-22T09:05:00Z</time>
      </trkpt>
      <trkpt lat="44.79285" lon="6.78871">
        <ele>2361.7</ele>
        <time>2015-07-22T09:05:12Z</time>
      </trkpt>
      <trkpt lat="44.79278" lon="6.78876">
        <ele>2362</ele>
        <time>2015-07-22T09:05:18Z</time>
      </trkpt>
      <trkpt lat="44.7927" lon="6.7888">
        <ele>2360.8</ele>
        <time>2015-07-22T09:05:24Z</time>
      </trkpt>
      <trkpt lat="44.79262" lon="6.78883">
        <ele>2360.8</ele>
        <time>2015-07-22T09:05:31Z</time>
      </trkpt>
      <trkpt lat="44.79254" lon="6.78883">
        <ele>2361.6</ele>
        <time>2015-07-22T09:05:37Z</time>
      </trkpt>
      <trkpt lat="44.79246" lon="6.78887">
        <ele>2360.8</ele>
        <time>2015-07-22T09:05:43Z</time>
      </trkpt>
      <trkpt lat="44.79238" lon="6.78891">
        <ele>2359.7</ele>
        <time>2015-07-22T09:05:50Z</time>
      </trkpt>
      <trkpt lat="44.79229" lon="6.78892">
        <ele>2360</ele>
        <time>2015-07-22T09:05:58Z</time>
      </trkpt>
      <trkpt lat="44.79221" lon="6.78889">
        <ele>2360.5</ele>
        <time>2015-07-22T09:06:06Z</time>
      </trkpt>
      <trkpt lat="44.7922" lon="6.78889">
        <ele>2360.3</ele>
        <time>2015-07-22T09:06:07Z</time>
      </trkpt>
      <trkpt lat="44.79207" lon="6.78878">
        <ele>2357.7</ele>
        <time>2015-07-22T09:06:21Z</time>
      </trkpt>
      <trkpt lat="44.79202" lon="6.78868">
        <ele>2356.7</ele>
        <time>2015-07-22T09:06:29Z</time>
      </trkpt>
      <trkpt lat="44.79197" lon="6.78858">
        <ele>2356.6</ele>
        <time>2015-07-22T09:06:36Z</time>
      </trkpt>
      <trkpt lat="44.79191" lon="6.7885">
        <ele>2355.6</ele>
        <time>2015-07-22T09:06:43Z</time>
      </trkpt>
      <trkpt lat="44.79184" lon="6.78843">
        <ele>2355.2</ele>
        <time>2015-07-22T09:07:02Z</time>
      </trkpt>
      <trkpt lat="44.79177" lon="6.78836">
        <ele>2353.5</ele>
        <time>2015-07-22T09:07:10Z</time>
      </trkpt>
      <trkpt lat="44.79176" lon="6.78834">
        <ele>2353.3</ele>
        <time>2015-07-22T09:07:11Z</time>
      </trkpt>
      <trkpt lat="44.79168" lon="6.78817">
        <ele>2353.6</ele>
        <time>2015-07-22T09:07:24Z</time>
      </trkpt>
      <trkpt lat="44.79163" lon="6.78808">
        <ele>2352.1</ele>
        <time>2015-07-22T09:07:31Z</time>
      </trkpt>
      <trkpt lat="44.79156" lon="6.788">
        <ele>2351.7</ele>
        <time>2015-07-22T09:07:38Z</time>
      </trkpt>
      <trkpt lat="44.79148" lon="6.78794">
        <ele>2348.8</ele>
        <time>2015-07-22T09:07:45Z</time>
      </trkpt>
      <trkpt lat="44.79142" lon="6.78789">
        <ele>2349.9</ele>
        <time>2015-07-22T09:07:52Z</time>
      </trkpt>
      <trkpt lat="44.79135" lon="6.78783">
        <ele>2348.4</ele>
        <time>2015-07-22T09:07:59Z</time>
      </trkpt>
      <trkpt lat="44.79126" lon="6.78779">
        <ele>2347</ele>
        <time>2015-07-22T09:08:07Z</time>
      </trkpt>
      <trkpt lat="44.79119" lon="6.78774">
        <ele>2347.1</ele>
        <time>2015-07-22T09:08:14Z</time>
      </trkpt>
      <trkpt lat="44.79118" lon="6.78774">
        <ele>2346.9</ele>
        <time>2015-07-22T09:08:15Z</time>
      </trkpt>
      <trkpt lat="44.79104" lon="6.78762">
        <ele>2345.6</ele>
        <time>2015-07-22T09:08:37Z</time>
      </trkpt>
      <trkpt lat="44.79101" lon="6.7875">
        <ele>2343.1</ele>
        <time>2015-07-22T09:08:51Z</time>
      </trkpt>
      <trkpt lat="44.79098" lon="6.7874">
        <ele>2340.5</ele>
        <time>2015-07-22T09:08:59Z</time>
      </trkpt>
      <trkpt lat="44.79095" lon="6.78728">
        <ele>2339.7</ele>
        <time>2015-07-22T09:09:07Z</time>
      </trkpt>
      <trkpt lat="44.79092" lon="6.78716">
        <ele>2337.2</ele>
        <time>2015-07-22T09:09:15Z</time>
      </trkpt>
      <trkpt lat="44.79092" lon="6.78715">
        <ele>2336.8</ele>
        <time>2015-07-22T09:09:16Z</time>
      </trkpt>
      <trkpt lat="44.79083" lon="6.78696">
        <ele>2334.6</ele>
        <time>2015-07-22T09:09:36Z</time>
      </trkpt>
      <trkpt lat="44.79078" lon="6.78688">
        <ele>2333.4</ele>
        <time>2015-07-22T09:09:43Z</time>
      </trkpt>
      <trkpt lat="44.79072" lon="6.7868">
        <ele>2332.3</ele>
        <time>2015-07-22T09:09:49Z</time>
      </trkpt>
      <trkpt lat="44.79065" lon="6.78673">
        <ele>2330.8</ele>
        <time>2015-07-22T09:09:56Z</time>
      </trkpt>
      <trkpt lat="44.79057" lon="6.78668">
        <ele>2330.2</ele>
        <time>2015-07-22T09:10:03Z</time>
      </trkpt>
      <trkpt lat="44.7905" lon="6.78664">
        <ele>2328.4</ele>
        <time>2015-07-22T09:10:09Z</time>
      </trkpt>
      <trkpt lat="44.79043" lon="6.78659">
        <ele>2327.5</ele>
        <time>2015-07-22T09:10:15Z</time>
      </trkpt>
      <trkpt lat="44.79036" lon="6.78652">
        <ele>2326.3</ele>
        <time>2015-07-22T09:10:22Z</time>
      </trkpt>
      <trkpt lat="44.79035" lon="6.7865">
        <ele>2325.9</ele>
        <time>2015-07-22T09:10:23Z</time>
      </trkpt>
      <trkpt lat="44.79022" lon="6.78636">
        <ele>2324.1</ele>
        <time>2015-07-22T09:10:36Z</time>
      </trkpt>
      <trkpt lat="44.79014" lon="6.78632">
        <ele>2321.8</ele>
        <time>2015-07-22T09:10:43Z</time>
      </trkpt>
      <trkpt lat="44.79008" lon="6.78626">
        <ele>2320.2</ele>
        <time>2015-07-22T09:10:49Z</time>
      </trkpt>
      <trkpt lat="44.79001" lon="6.78621">
        <ele>2320.6</ele>
        <time>2015-07-22T09:10:56Z</time>
      </trkpt>
      <trkpt lat="44.78992" lon="6.78622">
        <ele>2318</ele>
        <time>2015-07-22T09:11:04Z</time>
      </trkpt>
      <trkpt lat="44.78984" lon="6.78621">
        <ele>2316.6</ele>
        <time>2015-07-22T09:11:13Z</time>
      </trkpt>
      <trkpt lat="44.78976" lon="6.78617">
        <ele>2315.9</ele>
        <time>2015-07-22T09:11:20Z</time>
      </trkpt>
      <trkpt lat="44.78967" lon="6.78621">
        <ele>2314.5</ele>
        <time>2015-07-22T09:11:27Z</time>
      </trkpt>
      <trkpt lat="44.78966" lon="6.78621">
        <ele>2313.8</ele>
        <time>2015-07-22T09:11:28Z</time>
      </trkpt>
      <trkpt lat="44.78951" lon="6.78615">
        <ele>2309.9</ele>
        <time>2015-07-22T09:11:43Z</time>
      </trkpt>
      <trkpt lat="44.78948" lon="6.78626">
        <ele>2308.3</ele>
        <time>2015-07-22T09:11:53Z</time>
      </trkpt>
      <trkpt lat="44.78948" lon="6.78637">
        <ele>2304.5</ele>
        <time>2015-07-22T09:12:03Z</time>
      </trkpt>
      <trkpt lat="44.78952" lon="6.78648">
        <ele>2301.7</ele>
        <time>2015-07-22T09:12:18Z</time>
      </trkpt>
      <trkpt lat="44.78957" lon="6.78657">
        <ele>2301.7</ele>
        <time>2015-07-22T09:12:25Z</time>
      </trkpt>
      <trkpt lat="44.78962" lon="6.78668">
        <ele>2299.2</ele>
        <time>2015-07-22T09:12:32Z</time>
      </trkpt>
      <trkpt lat="44.78962" lon="6.78669">
        <ele>2298.7</ele>
        <time>2015-07-22T09:12:33Z</time>
      </trkpt>
      <trkpt lat="44.78968" lon="6.7869">
        <ele>2293.3</ele>
        <time>2015-07-22T09:13:27Z</time>
      </trkpt>
      <trkpt lat="44.78971" lon="6.78702">
        <ele>2292.8</ele>
        <time>2015-07-22T09:13:37Z</time>
      </trkpt>
      <trkpt lat="44.78971" lon="6.78702">
        <ele>2292.6</ele>
        <time>2015-07-22T09:13:38Z</time>
      </trkpt>
      <trkpt lat="44.78979" lon="6.78722">
        <ele>2286.5</ele>
        <time>2015-07-22T09:13:55Z</time>
      </trkpt>
      <trkpt lat="44.78982" lon="6.78733">
        <ele>2284</ele>
        <time>2015-07-22T09:14:18Z</time>
      </trkpt>
      <trkpt lat="44.78982" lon="6.78745">
        <ele>2281.7</ele>
        <time>2015-07-22T09:14:27Z</time>
      </trkpt>
      <trkpt lat="44.78981" lon="6.78757">
        <ele>2280.1</ele>
        <time>2015-07-22T09:14:35Z</time>
      </trkpt>
      <trkpt lat="44.78979" lon="6.78769">
        <ele>2278.8</ele>
        <time>2015-07-22T09:14:44Z</time>
      </trkpt>
      <trkpt lat="44.78979" lon="6.7877">
        <ele>2278.8</ele>
        <time>2015-07-22T09:14:45Z</time>
      </trkpt>
      <trkpt lat="44.78979" lon="6.78793">
        <ele>2274.5</ele>
        <time>2015-07-22T09:15:10Z</time>
      </trkpt>
      <trkpt lat="44.78977" lon="6.78806">
        <ele>2272.6</ele>
        <time>2015-07-22T09:15:17Z</time>
      </trkpt>
      <trkpt lat="44.78976" lon="6.78816">
        <ele>2272</ele>
        <time>2015-07-22T09:15:23Z</time>
      </trkpt>
      <trkpt lat="44.78974" lon="6.78828">
        <ele>2270.6</ele>
        <time>2015-07-22T09:15:30Z</time>
      </trkpt>
      <trkpt lat="44.78971" lon="6.78839">
        <ele>2269.4</ele>
        <time>2015-07-22T09:16:24Z</time>
      </trkpt>
      <trkpt lat="44.7897" lon="6.7884">
        <ele>2269.2</ele>
        <time>2015-07-22T09:16:25Z</time>
      </trkpt>
      <trkpt lat="44.78964" lon="6.78861">
        <ele>2267.5</ele>
        <time>2015-07-22T09:16:36Z</time>
      </trkpt>
      <trkpt lat="44.7896" lon="6.78871">
        <ele>2266.8</ele>
        <time>2015-07-22T09:16:42Z</time>
      </trkpt>
      <trkpt lat="44.78957" lon="6.78881">
        <ele>2266.4</ele>
        <time>2015-07-22T09:16:47Z</time>
      </trkpt>
      <trkpt lat="44.78954" lon="6.78891">
        <ele>2264.8</ele>
        <time>2015-07-22T09:16:52Z</time>
      </trkpt>
      <trkpt lat="44.78951" lon="6.78901">
        <ele>2263.5</ele>
        <time>2015-07-22T09:16:57Z</time>
      </trkpt>
      <trkpt lat="44.78946" lon="6.78911">
        <ele>2261.4</ele>
        <time>2015-07-22T09:17:03Z</time>
      </trkpt>
      <trkpt lat="44.78942" lon="6.78922">
        <ele>2260.1</ele>
        <time>2015-07-22T09:17:09Z</time>
      </trkpt>
      <trkpt lat="44.78941" lon="6.78933">
        <ele>2258.8</ele>
        <time>2015-07-22T09:17:14Z</time>
      </trkpt>
      <trkpt lat="44.7894" lon="6.78944">
        <ele>2256.9</ele>
        <time>2015-07-22T09:17:19Z</time>
      </trkpt>
      <trkpt lat="44.7894" lon="6.78955">
        <ele>2256</ele>
        <time>2015-07-22T09:17:26Z</time>
      </trkpt>
      <trkpt lat="44.78939" lon="6.78957">
        <ele>2256</ele>
        <time>2015-07-22T09:17:27Z</time>
      </trkpt>
      <trkpt lat="44.78937" lon="6.78978">
        <ele>2253.4</ele>
        <time>2015-07-22T09:17:39Z</time>
      </trkpt>
      <trkpt lat="44.78929" lon="6.78978">
        <ele>2252</ele>
        <time>2015-07-22T09:17:47Z</time>
      </trkpt>
      <trkpt lat="44.78922" lon="6.78972">
        <ele>2249.2</ele>
        <time>2015-07-22T09:17:54Z</time>
      </trkpt>
      <trkpt lat="44.78914" lon="6.78967">
        <ele>2248</ele>
        <time>2015-07-22T09:18:03Z</time>
      </trkpt>
      <trkpt lat="44.78907" lon="6.78962">
        <ele>2244.9</ele>
        <time>2015-07-22T09:18:10Z</time>
      </trkpt>
      <trkpt lat="44.78899" lon="6.78968">
        <ele>2240.6</ele>
        <time>2015-07-22T09:18:24Z</time>
      </trkpt>
      <trkpt lat="44.78896" lon="6.78978">
        <ele>2238.3</ele>
        <time>2015-07-22T09:18:33Z</time>
      </trkpt>
      <trkpt lat="44.78896" lon="6.7898">
        <ele>2238</ele>
        <time>2015-07-22T09:18:34Z</time>
      </trkpt>
      <trkpt lat="44.78899" lon="6.79001">
        <ele>2234.5</ele>
        <time>2015-07-22T09:18:47Z</time>
      </trkpt>
      <trkpt lat="44.78901" lon="6.79012">
        <ele>2233.5</ele>
        <time>2015-07-22T09:18:54Z</time>
      </trkpt>
      <trkpt lat="44.78903" lon="6.79023">
        <ele>2232</ele>
        <time>2015-07-22T09:19:01Z</time>
      </trkpt>
      <trkpt lat="44.78903" lon="6.79035">
        <ele>2229.8</ele>
        <time>2015-07-22T09:19:08Z</time>
      </trkpt>
      <trkpt lat="44.78905" lon="6.79047">
        <ele>2227.1</ele>
        <time>2015-07-22T09:19:15Z</time>
      </trkpt>
      <trkpt lat="44.78907" lon="6.79059">
        <ele>2226.1</ele>
        <time>2015-07-22T09:19:22Z</time>
      </trkpt>
      <trkpt lat="44.78908" lon="6.7907">
        <ele>2223.2</ele>
        <time>2015-07-22T09:19:30Z</time>
      </trkpt>
      <trkpt lat="44.7891" lon="6.79081">
        <ele>2219.9</ele>
        <time>2015-07-22T09:19:37Z</time>
      </trkpt>
      <trkpt lat="44.7891" lon="6.79083">
        <ele>2219.3</ele>
        <time>2015-07-22T09:19:38Z</time>
      </trkpt>
      <trkpt lat="44.78908" lon="6.79104">
        <ele>2216.8</ele>
        <time>2015-07-22T09:19:53Z</time>
      </trkpt>
      <trkpt lat="44.78914" lon="6.79114">
        <ele>2215</ele>
        <time>2015-07-22T09:20:00Z</time>
      </trkpt>
      <trkpt lat="44.78918" lon="6.79123">
        <ele>2213.4</ele>
        <time>2015-07-22T09:20:06Z</time>
      </trkpt>
      <trkpt lat="44.78923" lon="6.79133">
        <ele>2211.7</ele>
        <time>2015-07-22T09:20:13Z</time>
      </trkpt>
      <trkpt lat="44.78923" lon="6.79145">
        <ele>2210.1</ele>
        <time>2015-07-22T09:20:22Z</time>
      </trkpt>
      <trkpt lat="44.78917" lon="6.79153">
        <ele>2208.6</ele>
        <time>2015-07-22T09:20:30Z</time>
      </trkpt>
      <trkpt lat="44.78908" lon="6.79153">
        <ele>2206.2</ele>
        <time>2015-07-22T09:20:38Z</time>
      </trkpt>
      <trkpt lat="44.78907" lon="6.79153">
        <ele>2206.1</ele>
        <time>2015-07-22T09:20:39Z</time>
      </trkpt>
      <trkpt lat="44.78891" lon="6.7915">
        <ele>2201.6</ele>
        <time>2015-07-22T09:20:53Z</time>
      </trkpt>
      <trkpt lat="44.78883" lon="6.79147">
        <ele>2199.4</ele>
        <time>2015-07-22T09:21:00Z</time>
      </trkpt>
      <trkpt lat="44.7888" lon="6.79159">
        <ele>2196.2</ele>
        <time>2015-07-22T09:21:15Z</time>
      </trkpt>
      <trkpt lat="44.78883" lon="6.79171">
        <ele>2193.7</ele>
        <time>2015-07-22T09:21:23Z</time>
      </trkpt>
      <trkpt lat="44.78883" lon="6.79183">
        <ele>2190.8</ele>
        <time>2015-07-22T09:21:30Z</time>
      </trkpt>
      <trkpt lat="44.78874" lon="6.79185">
        <ele>2188.5</ele>
        <time>2015-07-22T09:21:41Z</time>
      </trkpt>
      <trkpt lat="44.78874" lon="6.79186">
        <ele>2188.5</ele>
        <time>2015-07-22T09:21:42Z</time>
      </trkpt>
      <trkpt lat="44.78869" lon="6.79204">
        <ele>2182.9</ele>
        <time>2015-07-22T09:22:02Z</time>
      </trkpt>
      <trkpt lat="44.78862" lon="6.79211">
        <ele>2180.3</ele>
        <time>2015-07-22T09:22:11Z</time>
      </trkpt>
      <trkpt lat="44.78858" lon="6.79222">
        <ele>2177.1</ele>
        <time>2015-07-22T09:22:23Z</time>
      </trkpt>
      <trkpt lat="44.78857" lon="6.79234">
        <ele>2176.2</ele>
        <time>2015-07-22T09:22:32Z</time>
      </trkpt>
      <trkpt lat="44.78851" lon="6.79242">
        <ele>2172.9</ele>
        <time>2015-07-22T09:22:42Z</time>
      </trkpt>
      <trkpt lat="44.7885" lon="6.79242">
        <ele>2172.8</ele>
        <time>2015-07-22T09:22:43Z</time>
      </trkpt>
      <trkpt lat="44.78835" lon="6.79247">
        <ele>2167.6</ele>
        <time>2015-07-22T09:23:02Z</time>
      </trkpt>
      <trkpt lat="44.78829" lon="6.79257">
        <ele>2164.7</ele>
        <time>2015-07-22T09:23:16Z</time>
      </trkpt>
      <trkpt lat="44.78827" lon="6.79269">
        <ele>2162.4</ele>
        <time>2015-07-22T09:23:27Z</time>
      </trkpt>
      <trkpt lat="44.78818" lon="6.79271">
        <ele>2159.4</ele>
        <time>2015-07-22T09:23:35Z</time>
      </trkpt>
      <trkpt lat="44.7881" lon="6.79271">
        <ele>2156.5</ele>
        <time>2015-07-22T09:23:43Z</time>
      </trkpt>
      <trkpt lat="44.78809" lon="6.79271">
        <ele>2156.3</ele>
        <time>2015-07-22T09:23:44Z</time>
      </trkpt>
      <trkpt lat="44.78798" lon="6.79281">
        <ele>2149.8</ele>
        <time>2015-07-22T09:24:17Z</time>
      </trkpt>
      <trkpt lat="44.78791" lon="6.79278">
        <ele>2148</ele>
        <time>2015-07-22T09:24:25Z</time>
      </trkpt>
      <trkpt lat="44.78783" lon="6.79275">
        <ele>2145.7</ele>
        <time>2015-07-22T09:24:33Z</time>
      </trkpt>
      <trkpt lat="44.78775" lon="6.79273">
        <ele>2144.2</ele>
        <time>2015-07-22T09:24:40Z</time>
      </trkpt>
      <trkpt lat="44.78767" lon="6.79269">
        <ele>2143.5</ele>
        <time>2015-07-22T09:24:47Z</time>
      </trkpt>
      <trkpt lat="44.78766" lon="6.79269">
        <ele>2143.4</ele>
        <time>2015-07-22T09:24:48Z</time>
      </trkpt>
      <trkpt lat="44.78752" lon="6.79258">
        <ele>2141</ele>
        <time>2015-07-22T09:25:07Z</time>
      </trkpt>
      <trkpt lat="44.78744" lon="6.79256">
        <ele>2141.3</ele>
        <time>2015-07-22T09:25:14Z</time>
      </trkpt>
      <trkpt lat="44.78735" lon="6.79254">
        <ele>2140.3</ele>
        <time>2015-07-22T09:25:21Z</time>
      </trkpt>
      <trkpt lat="44.78727" lon="6.79251">
        <ele>2140.4</ele>
        <time>2015-07-22T09:25:27Z</time>
      </trkpt>
      <trkpt lat="44.78719" lon="6.79247">
        <ele>2138.8</ele>
        <time>2015-07-22T09:25:33Z</time>
      </trkpt>
      <trkpt lat="44.78712" lon="6.79242">
        <ele>2138.6</ele>
        <time>2015-07-22T09:25:39Z</time>
      </trkpt>
      <trkpt lat="44.78704" lon="6.79237">
        <ele>2136.5</ele>
        <time>2015-07-22T09:25:47Z</time>
      </trkpt>
      <trkpt lat="44.78697" lon="6.79233">
        <ele>2135.3</ele>
        <time>2015-07-22T09:25:56Z</time>
      </trkpt>
      <trkpt lat="44.78696" lon="6.79232">
        <ele>2135.5</ele>
        <time>2015-07-22T09:25:57Z</time>
      </trkpt>
      <trkpt lat="44.78682" lon="6.79228">
        <ele>2131.6</ele>
        <time>2015-07-22T09:26:08Z</time>
      </trkpt>
      <trkpt lat="44.78674" lon="6.79224">
        <ele>2130.1</ele>
        <time>2015-07-22T09:26:14Z</time>
      </trkpt>
      <trkpt lat="44.78667" lon="6.79219">
        <ele>2129.1</ele>
        <time>2015-07-22T09:26:21Z</time>
      </trkpt>
      <trkpt lat="44.78661" lon="6.79211">
        <ele>2127.2</ele>
        <time>2015-07-22T09:26:29Z</time>
      </trkpt>
      <trkpt lat="44.78654" lon="6.79206">
        <ele>2128.9</ele>
        <time>2015-07-22T09:26:36Z</time>
      </trkpt>
      <trkpt lat="44.78646" lon="6.792">
        <ele>2126.7</ele>
        <time>2015-07-22T09:26:43Z</time>
      </trkpt>
      <trkpt lat="44.78638" lon="6.79196">
        <ele>2125.1</ele>
        <time>2015-07-22T09:26:49Z</time>
      </trkpt>
      <trkpt lat="44.7863" lon="6.79193">
        <ele>2123.2</ele>
        <time>2015-07-22T09:26:55Z</time>
      </trkpt>
      <trkpt lat="44.78622" lon="6.7919">
        <ele>2122.1</ele>
        <time>2015-07-22T09:27:02Z</time>
      </trkpt>
      <trkpt lat="44.78621" lon="6.79189">
        <ele>2122.3</ele>
        <time>2015-07-22T09:27:03Z</time>
      </trkpt>
      <trkpt lat="44.78612" lon="6.79197">
        <ele>2117.1</ele>
        <time>2015-07-22T09:27:23Z</time>
      </trkpt>
      <trkpt lat="44.78615" lon="6.79208">
        <ele>2116.3</ele>
        <time>2015-07-22T09:27:30Z</time>
      </trkpt>
      <trkpt lat="44.78617" lon="6.7922">
        <ele>2114.6</ele>
        <time>2015-07-22T09:27:38Z</time>
      </trkpt>
      <trkpt lat="44.78617" lon="6.79232">
        <ele>2113.2</ele>
        <time>2015-07-22T09:27:45Z</time>
      </trkpt>
      <trkpt lat="44.78619" lon="6.79243">
        <ele>2110.9</ele>
        <time>2015-07-22T09:27:52Z</time>
      </trkpt>
      <trkpt lat="44.78621" lon="6.79255">
        <ele>2110.7</ele>
        <time>2015-07-22T09:27:59Z</time>
      </trkpt>
      <trkpt lat="44.78619" lon="6.79267">
        <ele>2109.6</ele>
        <time>2015-07-22T09:28:07Z</time>
      </trkpt>
      <trkpt lat="44.78618" lon="6.79268">
        <ele>2109.5</ele>
        <time>2015-07-22T09:28:08Z</time>
      </trkpt>
      <trkpt lat="44.78608" lon="6.79284">
        <ele>2106.3</ele>
        <time>2015-07-22T09:28:21Z</time>
      </trkpt>
      <trkpt lat="44.78602" lon="6.79293">
        <ele>2103.5</ele>
        <time>2015-07-22T09:28:32Z</time>
      </trkpt>
      <trkpt lat="44.78596" lon="6.79302">
        <ele>2101.3</ele>
        <time>2015-07-22T09:28:43Z</time>
      </trkpt>
      <trkpt lat="44.786" lon="6.79312">
        <ele>2099.9</ele>
        <time>2015-07-22T09:28:53Z</time>
      </trkpt>
      <trkpt lat="44.78606" lon="6.79319">
        <ele>2098</ele>
        <time>2015-07-22T09:29:00Z</time>
      </trkpt>
      <trkpt lat="44.78614" lon="6.79324">
        <ele>2097.1</ele>
        <time>2015-07-22T09:29:23Z</time>
      </trkpt>
      <trkpt lat="44.78615" lon="6.79325">
        <ele>2096.9</ele>
        <time>2015-07-22T09:29:24Z</time>
      </trkpt>
      <trkpt lat="44.78624" lon="6.79343">
        <ele>2095.8</ele>
        <time>2015-07-22T09:29:37Z</time>
      </trkpt>
      <trkpt lat="44.7863" lon="6.79352">
        <ele>2095.4</ele>
        <time>2015-07-22T09:29:49Z</time>
      </trkpt>
      <trkpt lat="44.78631" lon="6.79364">
        <ele>2093.9</ele>
        <time>2015-07-22T09:29:57Z</time>
      </trkpt>
      <trkpt lat="44.78624" lon="6.79371">
        <ele>2091.9</ele>
        <time>2015-07-22T09:30:04Z</time>
      </trkpt>
      <trkpt lat="44.78624" lon="6.79384">
        <ele>2090.6</ele>
        <time>2015-07-22T09:30:12Z</time>
      </trkpt>
      <trkpt lat="44.78628" lon="6.79394">
        <ele>2080.6</ele>
        <time>2015-07-22T09:30:18Z</time>
      </trkpt>
      <trkpt lat="44.78633" lon="6.79404">
        <ele>2059.9</ele>
        <time>2015-07-22T09:30:25Z</time>
      </trkpt>
      <trkpt lat="44.78634" lon="6.79405">
        <ele>2059</ele>
        <time>2015-07-22T09:30:26Z</time>
      </trkpt>
      <trkpt lat="44.78647" lon="6.7942">
        <ele>2054.9</ele>
        <time>2015-07-22T09:30:39Z</time>
      </trkpt>
      <trkpt lat="44.78653" lon="6.79428">
        <ele>2055.6</ele>
        <time>2015-07-22T09:30:46Z</time>
      </trkpt>
      <trkpt lat="44.7866" lon="6.79436">
        <ele>2055.7</ele>
        <time>2015-07-22T09:30:53Z</time>
      </trkpt>
      <trkpt lat="44.78666" lon="6.79445">
        <ele>2053.4</ele>
        <time>2015-07-22T09:31:04Z</time>
      </trkpt>
      <trkpt lat="44.78669" lon="6.79456">
        <ele>2053.2</ele>
        <time>2015-07-22T09:31:11Z</time>
      </trkpt>
      <trkpt lat="44.7867" lon="6.79469">
        <ele>2051.2</ele>
        <time>2015-07-22T09:31:21Z</time>
      </trkpt>
      <trkpt lat="44.78671" lon="6.7948">
        <ele>2051.9</ele>
        <time>2015-07-22T09:31:38Z</time>
      </trkpt>
      <trkpt lat="44.78671" lon="6.79481">
        <ele>2052.3</ele>
        <time>2015-07-22T09:31:39Z</time>
      </trkpt>
      <trkpt lat="44.78654" lon="6.79476">
        <ele>2051.6</ele>
        <time>2015-07-22T09:32:38Z</time>
      </trkpt>
      <trkpt lat="44.78646" lon="6.79473">
        <ele>2050.9</ele>
        <time>2015-07-22T09:32:44Z</time>
      </trkpt>
      <trkpt lat="44.78644" lon="6.79473">
        <ele>2051.5</ele>
        <time>2015-07-22T09:32:45Z</time>
      </trkpt>
      <trkpt lat="44.78631" lon="6.7947">
        <ele>2051.9</ele>
        <time>2015-07-22T09:32:52Z</time>
      </trkpt>
      <trkpt lat="44.78622" lon="6.7947">
        <ele>2051.6</ele>
        <time>2015-07-22T09:32:57Z</time>
      </trkpt>
      <trkpt lat="44.78614" lon="6.79471">
        <ele>2052</ele>
        <time>2015-07-22T09:33:04Z</time>
      </trkpt>
      <trkpt lat="44.78606" lon="6.79472">
        <ele>2053.2</ele>
        <time>2015-07-22T09:33:12Z</time>
      </trkpt>
      <trkpt lat="44.78598" lon="6.79475">
        <ele>2054.5</ele>
        <time>2015-07-22T09:33:22Z</time>
      </trkpt>
      <trkpt lat="44.78589" lon="6.79475">
        <ele>2056.6</ele>
        <time>2015-07-22T09:33:32Z</time>
      </trkpt>
      <trkpt lat="44.78581" lon="6.79471">
        <ele>2057.8</ele>
        <time>2015-07-22T09:33:41Z</time>
      </trkpt>
      <trkpt lat="44.78573" lon="6.79467">
        <ele>2057.5</ele>
        <time>2015-07-22T09:33:50Z</time>
      </trkpt>
      <trkpt lat="44.78572" lon="6.79466">
        <ele>2057.4</ele>
        <time>2015-07-22T09:33:51Z</time>
      </trkpt>
      <trkpt lat="44.78558" lon="6.7946">
        <ele>2057.3</ele>
        <time>2015-07-22T09:34:05Z</time>
      </trkpt>
      <trkpt lat="44.78549" lon="6.79459">
        <ele>2057.1</ele>
        <time>2015-07-22T09:34:13Z</time>
      </trkpt>
      <trkpt lat="44.78542" lon="6.79456">
        <ele>2057.5</ele>
        <time>2015-07-22T09:34:37Z</time>
      </trkpt>
      <trkpt lat="44.78535" lon="6.79448">
        <ele>2056.9</ele>
        <time>2015-07-22T09:34:45Z</time>
      </trkpt>
      <trkpt lat="44.78527" lon="6.79445">
        <ele>2054.7</ele>
        <time>2015-07-22T09:34:52Z</time>
      </trkpt>
      <trkpt lat="44.78525" lon="6.79445">
        <ele>2054.4</ele>
        <time>2015-07-22T09:34:53Z</time>
      </trkpt>
      <trkpt lat="44.78511" lon="6.79447">
        <ele>2054.3</ele>
        <time>2015-07-22T09:35:07Z</time>
      </trkpt>
      <trkpt lat="44.78503" lon="6.79449">
        <ele>2054.7</ele>
        <time>2015-07-22T09:35:14Z</time>
      </trkpt>
      <trkpt lat="44.78495" lon="6.79449">
        <ele>2054.2</ele>
        <time>2015-07-22T09:35:23Z</time>
      </trkpt>
      <trkpt lat="44.78488" lon="6.79441">
        <ele>2054.6</ele>
        <time>2015-07-22T09:35:33Z</time>
      </trkpt>
      <trkpt lat="44.78484" lon="6.79431">
        <ele>2053.4</ele>
        <time>2015-07-22T09:35:43Z</time>
      </trkpt>
      <trkpt lat="44.78477" lon="6.79423">
        <ele>2052.2</ele>
        <time>2015-07-22T09:35:52Z</time>
      </trkpt>
      <trkpt lat="44.7847" lon="6.79416">
        <ele>2052.4</ele>
        <time>2015-07-22T09:36:00Z</time>
      </trkpt>
      <trkpt lat="44.78469" lon="6.79415">
        <ele>2052.3</ele>
        <time>2015-07-22T09:36:01Z</time>
      </trkpt>
      <trkpt lat="44.78459" lon="6.79398">
        <ele>2049.5</ele>
        <time>2015-07-22T09:36:15Z</time>
      </trkpt>
      <trkpt lat="44.78453" lon="6.79389">
        <ele>2048.4</ele>
        <time>2015-07-22T09:36:22Z</time>
      </trkpt>
      <trkpt lat="44.78448" lon="6.7938">
        <ele>2047.9</ele>
        <time>2015-07-22T09:36:28Z</time>
      </trkpt>
      <trkpt lat="44.78442" lon="6.79373">
        <ele>2046.9</ele>
        <time>2015-07-22T09:36:34Z</time>
      </trkpt>
      <trkpt lat="44.78436" lon="6.79367">
        <ele>2047.1</ele>
        <time>2015-07-22T09:36:40Z</time>
      </trkpt>
      <trkpt lat="44.78429" lon="6.79358">
        <ele>2045.5</ele>
        <time>2015-07-22T09:36:46Z</time>
      </trkpt>
      <trkpt lat="44.78423" lon="6.7935">
        <ele>2044.5</ele>
        <time>2015-07-22T09:36:51Z</time>
      </trkpt>
      <trkpt lat="44.78417" lon="6.79343">
        <ele>2043.7</ele>
        <time>2015-07-22T09:36:56Z</time>
      </trkpt>
      <trkpt lat="44.78412" lon="6.79335">
        <ele>2043.4</ele>
        <time>2015-07-22T09:37:01Z</time>
      </trkpt>
      <trkpt lat="44.78407" lon="6.79325">
        <ele>2041.1</ele>
        <time>2015-07-22T09:37:07Z</time>
      </trkpt>
      <trkpt lat="44.78406" lon="6.79323">
        <ele>2040.9</ele>
        <time>2015-07-22T09:37:08Z</time>
      </trkpt>
      <trkpt lat="44.78395" lon="6.79307">
        <ele>2040.4</ele>
        <time>2015-07-22T09:37:22Z</time>
      </trkpt>
      <trkpt lat="44.7839" lon="6.79297">
        <ele>2038.1</ele>
        <time>2015-07-22T09:37:34Z</time>
      </trkpt>
      <trkpt lat="44.78387" lon="6.79286">
        <ele>2037.4</ele>
        <time>2015-07-22T09:37:43Z</time>
      </trkpt>
      <trkpt lat="44.78389" lon="6.79274">
        <ele>2037.7</ele>
        <time>2015-07-22T09:38:09Z</time>
      </trkpt>
      <trkpt lat="44.78389" lon="6.79274">
        <ele>2037.5</ele>
        <time>2015-07-22T09:38:10Z</time>
      </trkpt>
      <trkpt lat="44.78374" lon="6.79263">
        <ele>2036.3</ele>
        <time>2015-07-22T09:38:33Z</time>
      </trkpt>
      <trkpt lat="44.78367" lon="6.79256">
        <ele>2035.5</ele>
        <time>2015-07-22T09:38:46Z</time>
      </trkpt>
      <trkpt lat="44.78358" lon="6.79252">
        <ele>2034.9</ele>
        <time>2015-07-22T09:38:56Z</time>
      </trkpt>
      <trkpt lat="44.78353" lon="6.79243">
        <ele>2033.5</ele>
        <time>2015-07-22T09:39:27Z</time>
      </trkpt>
      <trkpt lat="44.78352" lon="6.79243">
        <ele>2033.9</ele>
        <time>2015-07-22T09:39:28Z</time>
      </trkpt>
      <trkpt lat="44.78338" lon="6.7923">
        <ele>2032.1</ele>
        <time>2015-07-22T09:39:47Z</time>
      </trkpt>
      <trkpt lat="44.78333" lon="6.79221">
        <ele>2030.9</ele>
        <time>2015-07-22T09:40:04Z</time>
      </trkpt>
      <trkpt lat="44.78325" lon="6.79216">
        <ele>2031.8</ele>
        <time>2015-07-22T09:40:13Z</time>
      </trkpt>
      <trkpt lat="44.78317" lon="6.7922">
        <ele>2029.3</ele>
        <time>2015-07-22T09:40:22Z</time>
      </trkpt>
      <trkpt lat="44.7831" lon="6.79225">
        <ele>2028.6</ele>
        <time>2015-07-22T09:40:29Z</time>
      </trkpt>
      <trkpt lat="44.78308" lon="6.79226">
        <ele>2028.5</ele>
        <time>2015-07-22T09:40:30Z</time>
      </trkpt>
      <trkpt lat="44.78293" lon="6.79233">
        <ele>2026.9</ele>
        <time>2015-07-22T09:40:47Z</time>
      </trkpt>
      <trkpt lat="44.78287" lon="6.79224">
        <ele>2026.4</ele>
        <time>2015-07-22T09:41:04Z</time>
      </trkpt>
      <trkpt lat="44.78286" lon="6.79212">
        <ele>2024.1</ele>
        <time>2015-07-22T09:41:20Z</time>
      </trkpt>
      <trkpt lat="44.78292" lon="6.79203">
        <ele>2024</ele>
        <time>2015-07-22T09:41:34Z</time>
      </trkpt>
      <trkpt lat="44.78292" lon="6.79202">
        <ele>2023.9</ele>
        <time>2015-07-22T09:41:35Z</time>
      </trkpt>
      <trkpt lat="44.78286" lon="6.7918">
        <ele>2022.2</ele>
        <time>2015-07-22T09:41:53Z</time>
      </trkpt>
      <trkpt lat="44.78281" lon="6.7917">
        <ele>2022.2</ele>
        <time>2015-07-22T09:42:03Z</time>
      </trkpt>
      <trkpt lat="44.78274" lon="6.79163">
        <ele>2021.2</ele>
        <time>2015-07-22T09:42:11Z</time>
      </trkpt>
      <trkpt lat="44.78267" lon="6.79157">
        <ele>2020.6</ele>
        <time>2015-07-22T09:42:19Z</time>
      </trkpt>
      <trkpt lat="44.78259" lon="6.79153">
        <ele>2019.1</ele>
        <time>2015-07-22T09:42:26Z</time>
      </trkpt>
      <trkpt lat="44.78251" lon="6.79149">
        <ele>2017.8</ele>
        <time>2015-07-22T09:42:32Z</time>
      </trkpt>
      <trkpt lat="44.78242" lon="6.79147">
        <ele>2016.2</ele>
        <time>2015-07-22T09:42:38Z</time>
      </trkpt>
      <trkpt lat="44.78241" lon="6.79147">
        <ele>2016.4</ele>
        <time>2015-07-22T09:42:39Z</time>
      </trkpt>
      <trkpt lat="44.78226" lon="6.79144">
        <ele>2014.9</ele>
        <time>2015-07-22T09:42:50Z</time>
      </trkpt>
      <trkpt lat="44.78218" lon="6.79142">
        <ele>2013.7</ele>
        <time>2015-07-22T09:42:56Z</time>
      </trkpt>
      <trkpt lat="44.7821" lon="6.79139">
        <ele>2013.6</ele>
        <time>2015-07-22T09:43:03Z</time>
      </trkpt>
      <trkpt lat="44.78202" lon="6.79135">
        <ele>2012</ele>
        <time>2015-07-22T09:43:09Z</time>
      </trkpt>
      <trkpt lat="44.78194" lon="6.79131">
        <ele>2011.2</ele>
        <time>2015-07-22T09:43:16Z</time>
      </trkpt>
      <trkpt lat="44.78187" lon="6.79126">
        <ele>2011</ele>
        <time>2015-07-22T09:43:24Z</time>
      </trkpt>
      <trkpt lat="44.78179" lon="6.79121">
        <ele>2009.7</ele>
        <time>2015-07-22T09:43:31Z</time>
      </trkpt>
      <trkpt lat="44.78172" lon="6.79116">
        <ele>2008.7</ele>
        <time>2015-07-22T09:43:37Z</time>
      </trkpt>
      <trkpt lat="44.78165" lon="6.79112">
        <ele>2008</ele>
        <time>2015-07-22T09:43:43Z</time>
      </trkpt>
      <trkpt lat="44.78163" lon="6.79112">
        <ele>2007.7</ele>
        <time>2015-07-22T09:43:44Z</time>
      </trkpt>
      <trkpt lat="44.78149" lon="6.79107">
        <ele>2007.9</ele>
        <time>2015-07-22T09:43:56Z</time>
      </trkpt>
      <trkpt lat="44.78142" lon="6.791">
        <ele>2007.3</ele>
        <time>2015-07-22T09:44:04Z</time>
      </trkpt>
      <trkpt lat="44.78136" lon="6.79091">
        <ele>2005.5</ele>
        <time>2015-07-22T09:44:11Z</time>
      </trkpt>
      <trkpt lat="44.78131" lon="6.79082">
        <ele>2004.6</ele>
        <time>2015-07-22T09:44:18Z</time>
      </trkpt>
      <trkpt lat="44.78125" lon="6.79073">
        <ele>2003.1</ele>
        <time>2015-07-22T09:44:25Z</time>
      </trkpt>
      <trkpt lat="44.78119" lon="6.79066">
        <ele>2003.2</ele>
        <time>2015-07-22T09:44:32Z</time>
      </trkpt>
      <trkpt lat="44.78112" lon="6.79059">
        <ele>2001.9</ele>
        <time>2015-07-22T09:44:39Z</time>
      </trkpt>
      <trkpt lat="44.78105" lon="6.79052">
        <ele>2000.7</ele>
        <time>2015-07-22T09:44:45Z</time>
      </trkpt>
      <trkpt lat="44.78104" lon="6.79051">
        <ele>2000.7</ele>
        <time>2015-07-22T09:44:46Z</time>
      </trkpt>
      <trkpt lat="44.78091" lon="6.79038">
        <ele>1999.5</ele>
        <time>2015-07-22T09:44:59Z</time>
      </trkpt>
      <trkpt lat="44.78083" lon="6.79033">
        <ele>1998.1</ele>
        <time>2015-07-22T09:45:06Z</time>
      </trkpt>
      <trkpt lat="44.78076" lon="6.79028">
        <ele>1997.8</ele>
        <time>2015-07-22T09:45:12Z</time>
      </trkpt>
      <trkpt lat="44.78069" lon="6.79023">
        <ele>1997.4</ele>
        <time>2015-07-22T09:45:18Z</time>
      </trkpt>
      <trkpt lat="44.78062" lon="6.79017">
        <ele>1996.6</ele>
        <time>2015-07-22T09:45:24Z</time>
      </trkpt>
      <trkpt lat="44.78054" lon="6.79015">
        <ele>1996</ele>
        <time>2015-07-22T09:45:31Z</time>
      </trkpt>
      <trkpt lat="44.78046" lon="6.79012">
        <ele>1996.6</ele>
        <time>2015-07-22T09:45:37Z</time>
      </trkpt>
      <trkpt lat="44.78038" lon="6.79006">
        <ele>1995.2</ele>
        <time>2015-07-22T09:45:43Z</time>
      </trkpt>
      <trkpt lat="44.78031" lon="6.79">
        <ele>1995</ele>
        <time>2015-07-22T09:45:48Z</time>
      </trkpt>
      <trkpt lat="44.7803" lon="6.78999">
        <ele>1994.9</ele>
        <time>2015-07-22T09:45:49Z</time>
      </trkpt>
      <trkpt lat="44.78017" lon="6.7899">
        <ele>1992.7</ele>
        <time>2015-07-22T09:45:59Z</time>
      </trkpt>
      <trkpt lat="44.78012" lon="6.78985">
        <ele>1991.7</ele>
        <time>2015-07-22T09:46:03Z</time>
      </trkpt>
      <trkpt lat="44.77986" lon="6.78962">
        <ele>1990.4</ele>
        <time>2015-07-22T09:46:25Z</time>
      </trkpt>
      <trkpt lat="44.77978" lon="6.78955">
        <ele>1987.7</ele>
        <time>2015-07-22T09:46:31Z</time>
      </trkpt>
      <trkpt lat="44.7797" lon="6.78952">
        <ele>1985.6</ele>
        <time>2015-07-22T09:46:38Z</time>
      </trkpt>
      <trkpt lat="44.77961" lon="6.78948">
        <ele>1984.8</ele>
        <time>2015-07-22T09:46:44Z</time>
      </trkpt>
      <trkpt lat="44.77954" lon="6.78942">
        <ele>1983.5</ele>
        <time>2015-07-22T09:46:50Z</time>
      </trkpt>
      <trkpt lat="44.77953" lon="6.78941">
        <ele>1983.3</ele>
        <time>2015-07-22T09:46:51Z</time>
      </trkpt>
      <trkpt lat="44.77938" lon="6.78931">
        <ele>1980.9</ele>
        <time>2015-07-22T09:47:06Z</time>
      </trkpt>
      <trkpt lat="44.7793" lon="6.78927">
        <ele>1979.8</ele>
        <time>2015-07-22T09:47:14Z</time>
      </trkpt>
      <trkpt lat="44.77922" lon="6.78922">
        <ele>1978.3</ele>
        <time>2015-07-22T09:47:21Z</time>
      </trkpt>
      <trkpt lat="44.77914" lon="6.78916">
        <ele>1976.3</ele>
        <time>2015-07-22T09:47:28Z</time>
      </trkpt>
      <trkpt lat="44.77908" lon="6.78912">
        <ele>1974.4</ele>
        <time>2015-07-22T09:47:34Z</time>
      </trkpt>
      <trkpt lat="44.77816" lon="6.78851">
        <ele>1970.6</ele>
        <time>2015-07-22T09:48:55Z</time>
      </trkpt>
      <trkpt lat="44.77809" lon="6.78845">
        <ele>1961</ele>
        <time>2015-07-22T09:49:01Z</time>
      </trkpt>
      <trkpt lat="44.77814" lon="6.78836">
        <ele>1955.3</ele>
        <time>2015-07-22T09:49:25Z</time>
      </trkpt>
      <trkpt lat="44.77823" lon="6.78837">
        <ele>1956.9</ele>
        <time>2015-07-22T09:49:35Z</time>
      </trkpt>
      <trkpt lat="44.77828" lon="6.78842">
        <ele>1956.9</ele>
        <time>2015-07-22T09:49:40Z</time>
      </trkpt>
      <trkpt lat="44.77842" lon="6.78836">
        <ele>1956.1</ele>
        <time>2015-07-22T09:49:50Z</time>
      </trkpt>
      <trkpt lat="44.77843" lon="6.78824">
        <ele>1953.2</ele>
        <time>2015-07-22T09:49:58Z</time>
      </trkpt>
      <trkpt lat="44.77843" lon="6.78823">
        <ele>1952.8</ele>
        <time>2015-07-22T09:49:59Z</time>
      </trkpt>
      <trkpt lat="44.77837" lon="6.78802">
        <ele>1950.7</ele>
        <time>2015-07-22T09:50:16Z</time>
      </trkpt>
      <trkpt lat="44.77832" lon="6.78792">
        <ele>1949.9</ele>
        <time>2015-07-22T09:50:24Z</time>
      </trkpt>
      <trkpt lat="44.77827" lon="6.78784">
        <ele>1948.7</ele>
        <time>2015-07-22T09:50:30Z</time>
      </trkpt>
      <trkpt lat="44.7782" lon="6.78779">
        <ele>1947.8</ele>
        <time>2015-07-22T09:50:37Z</time>
      </trkpt>
      <trkpt lat="44.77813" lon="6.78771">
        <ele>1946.4</ele>
        <time>2015-07-22T09:50:44Z</time>
      </trkpt>
      <trkpt lat="44.77806" lon="6.78766">
        <ele>1945.8</ele>
        <time>2015-07-22T09:50:51Z</time>
      </trkpt>
      <trkpt lat="44.77798" lon="6.78762">
        <ele>1944.5</ele>
        <time>2015-07-22T09:50:57Z</time>
      </trkpt>
      <trkpt lat="44.77791" lon="6.78762">
        <ele>1944.1</ele>
        <time>2015-07-22T09:51:01Z</time>
      </trkpt>
      <trkpt lat="44.77789" lon="6.78761">
        <ele>1944.1</ele>
        <time>2015-07-22T09:51:02Z</time>
      </trkpt>
      <trkpt lat="44.77774" lon="6.78762">
        <ele>1941.4</ele>
        <time>2015-07-22T09:51:11Z</time>
      </trkpt>
      <trkpt lat="44.77724" lon="6.78753">
        <ele>1940.2</ele>
        <time>2015-07-22T09:51:52Z</time>
      </trkpt>
      <trkpt lat="44.77716" lon="6.78751">
        <ele>1935.1</ele>
        <time>2015-07-22T09:51:58Z</time>
      </trkpt>
      <trkpt lat="44.77709" lon="6.78745">
        <ele>1932.6</ele>
        <time>2015-07-22T09:52:05Z</time>
      </trkpt>
      <trkpt lat="44.77708" lon="6.78744">
        <ele>1932.6</ele>
        <time>2015-07-22T09:52:06Z</time>
      </trkpt>
      <trkpt lat="44.77693" lon="6.78735">
        <ele>1930</ele>
        <time>2015-07-22T09:52:18Z</time>
      </trkpt>
      <trkpt lat="44.77685" lon="6.78733">
        <ele>1930</ele>
        <time>2015-07-22T09:52:24Z</time>
      </trkpt>
      <trkpt lat="44.77677" lon="6.78731">
        <ele>1928.7</ele>
        <time>2015-07-22T09:52:30Z</time>
      </trkpt>
      <trkpt lat="44.77668" lon="6.78729">
        <ele>1927.1</ele>
        <time>2015-07-22T09:52:37Z</time>
      </trkpt>
      <trkpt lat="44.7766" lon="6.78727">
        <ele>1926.4</ele>
        <time>2015-07-22T09:52:43Z</time>
      </trkpt>
      <trkpt lat="44.77651" lon="6.78726">
        <ele>1925</ele>
        <time>2015-07-22T09:52:50Z</time>
      </trkpt>
      <trkpt lat="44.77642" lon="6.78726">
        <ele>1923.9</ele>
        <time>2015-07-22T09:52:56Z</time>
      </trkpt>
      <trkpt lat="44.77634" lon="6.78726">
        <ele>1924.6</ele>
        <time>2015-07-22T09:53:02Z</time>
      </trkpt>
      <trkpt lat="44.77626" lon="6.78722">
        <ele>1922.5</ele>
        <time>2015-07-22T09:53:09Z</time>
      </trkpt>
      <trkpt lat="44.77625" lon="6.78721">
        <ele>1922.2</ele>
        <time>2015-07-22T09:53:10Z</time>
      </trkpt>
      <trkpt lat="44.77231" lon="6.78619">
        <ele>1898</ele>
        <time>2015-07-22T09:58:32Z</time>
      </trkpt>
      <trkpt lat="44.77218" lon="6.78612">
        <ele>1890.7</ele>
        <time>2015-07-22T09:58:44Z</time>
      </trkpt>
      <trkpt lat="44.77202" lon="6.78603">
        <ele>1886</ele>
        <time>2015-07-22T09:58:56Z</time>
      </trkpt>
      <trkpt lat="44.77164" lon="6.78595">
        <ele>1885</ele>
        <time>2015-07-22T09:59:42Z</time>
      </trkpt>
      <trkpt lat="44.7712" lon="6.78585">
        <ele>1882.4</ele>
        <time>2015-07-22T10:00:31Z</time>
      </trkpt>
      <trkpt lat="44.77111" lon="6.78585">
        <ele>1879.2</ele>
        <time>2015-07-22T10:00:37Z</time>
      </trkpt>
      <trkpt lat="44.77103" lon="6.78584">
        <ele>1878.2</ele>
        <time>2015-07-22T10:00:42Z</time>
      </trkpt>
      <trkpt lat="44.77095" lon="6.78584">
        <ele>1878.2</ele>
        <time>2015-07-22T10:00:47Z</time>
      </trkpt>
      <trkpt lat="44.77088" lon="6.78587">
        <ele>1878.3</ele>
        <time>2015-07-22T10:00:52Z</time>
      </trkpt>
      <trkpt lat="44.7708" lon="6.7859">
        <ele>1877.4</ele>
        <time>2015-07-22T10:00:58Z</time>
      </trkpt>
      <trkpt lat="44.77072" lon="6.78591">
        <ele>1878</ele>
        <time>2015-07-22T10:01:04Z</time>
      </trkpt>
      <trkpt lat="44.77063" lon="6.78592">
        <ele>1876.1</ele>
        <time>2015-07-22T10:01:10Z</time>
      </trkpt>
      <trkpt lat="44.77054" lon="6.78593">
        <ele>1875.1</ele>
        <time>2015-07-22T10:01:17Z</time>
      </trkpt>
      <trkpt lat="44.77046" lon="6.78591">
        <ele>1875</ele>
        <time>2015-07-22T10:01:25Z</time>
      </trkpt>
      <trkpt lat="44.77038" lon="6.78587">
        <ele>1874.7</ele>
        <time>2015-07-22T10:01:32Z</time>
      </trkpt>
      <trkpt lat="44.77037" lon="6.78586">
        <ele>1874.5</ele>
        <time>2015-07-22T10:01:33Z</time>
      </trkpt>
      <trkpt lat="44.7702" lon="6.78584">
        <ele>1873</ele>
        <time>2015-07-22T10:01:43Z</time>
      </trkpt>
      <trkpt lat="44.77" lon="6.78593">
        <ele>1872.4</ele>
        <time>2015-07-22T10:01:58Z</time>
      </trkpt>
      <trkpt lat="44.76992" lon="6.78595">
        <ele>1869.4</ele>
        <time>2015-07-22T10:02:06Z</time>
      </trkpt>
      <trkpt lat="44.76983" lon="6.78596">
        <ele>1869</ele>
        <time>2015-07-22T10:02:13Z</time>
      </trkpt>
      <trkpt lat="44.76975" lon="6.78597">
        <ele>1869.1</ele>
        <time>2015-07-22T10:02:23Z</time>
      </trkpt>
      <trkpt lat="44.76971" lon="6.78597">
        <ele>1866.7</ele>
        <time>2015-07-22T10:02:28Z</time>
      </trkpt>
      <trkpt lat="44.7693" lon="6.78581">
        <ele>1866.1</ele>
        <time>2015-07-22T10:03:03Z</time>
      </trkpt>
      <trkpt lat="44.76922" lon="6.78578">
        <ele>1862.5</ele>
        <time>2015-07-22T10:03:09Z</time>
      </trkpt>
      <trkpt lat="44.76914" lon="6.78575">
        <ele>1860.9</ele>
        <time>2015-07-22T10:03:15Z</time>
      </trkpt>
      <trkpt lat="44.76907" lon="6.78573">
        <ele>1860.8</ele>
        <time>2015-07-22T10:03:20Z</time>
      </trkpt>
      <trkpt lat="44.76899" lon="6.78571">
        <ele>1860.3</ele>
        <time>2015-07-22T10:03:25Z</time>
      </trkpt>
      <trkpt lat="44.7689" lon="6.78569">
        <ele>1858.9</ele>
        <time>2015-07-22T10:03:31Z</time>
      </trkpt>
      <trkpt lat="44.76883" lon="6.78565">
        <ele>1858.7</ele>
        <time>2015-07-22T10:03:38Z</time>
      </trkpt>
      <trkpt lat="44.76872" lon="6.78557">
        <ele>1857.6</ele>
        <time>2015-07-22T10:03:48Z</time>
      </trkpt>
      <trkpt lat="44.76863" lon="6.78553">
        <ele>1854.2</ele>
        <time>2015-07-22T10:03:55Z</time>
      </trkpt>
      <trkpt lat="44.76856" lon="6.78549">
        <ele>1852.7</ele>
        <time>2015-07-22T10:04:01Z</time>
      </trkpt>
      <trkpt lat="44.76847" lon="6.78547">
        <ele>1852.3</ele>
        <time>2015-07-22T10:04:07Z</time>
      </trkpt>
      <trkpt lat="44.76846" lon="6.78547">
        <ele>1852.3</ele>
        <time>2015-07-22T10:04:08Z</time>
      </trkpt>
      <trkpt lat="44.76831" lon="6.78551">
        <ele>1851.8</ele>
        <time>2015-07-22T10:04:18Z</time>
      </trkpt>
      <trkpt lat="44.76822" lon="6.78554">
        <ele>1850.6</ele>
        <time>2015-07-22T10:04:25Z</time>
      </trkpt>
      <trkpt lat="44.76814" lon="6.78554">
        <ele>1849.1</ele>
        <time>2015-07-22T10:04:33Z</time>
      </trkpt>
      <trkpt lat="44.76805" lon="6.78558">
        <ele>1848.3</ele>
        <time>2015-07-22T10:04:40Z</time>
      </trkpt>
      <trkpt lat="44.76797" lon="6.78561">
        <ele>1848.1</ele>
        <time>2015-07-22T10:04:45Z</time>
      </trkpt>
      <trkpt lat="44.76789" lon="6.78561">
        <ele>1847.4</ele>
        <time>2015-07-22T10:04:49Z</time>
      </trkpt>
      <trkpt lat="44.76781" lon="6.78563">
        <ele>1847.4</ele>
        <time>2015-07-22T10:04:54Z</time>
      </trkpt>
      <trkpt lat="44.76772" lon="6.78565">
        <ele>1846.5</ele>
        <time>2015-07-22T10:05:01Z</time>
      </trkpt>
      <trkpt lat="44.76764" lon="6.78565">
        <ele>1844.2</ele>
        <time>2015-07-22T10:05:07Z</time>
      </trkpt>
      <trkpt lat="44.7676" lon="6.78566">
        <ele>1844.3</ele>
        <time>2015-07-22T10:05:10Z</time>
      </trkpt>
      <trkpt lat="44.76734" lon="6.78569">
        <ele>1843.5</ele>
        <time>2015-07-22T10:05:33Z</time>
      </trkpt>
      <trkpt lat="44.76732" lon="6.78569">
        <ele>1843.2</ele>
        <time>2015-07-22T10:05:34Z</time>
      </trkpt>
      <trkpt lat="44.76718" lon="6.78568">
        <ele>1842.5</ele>
        <time>2015-07-22T10:05:44Z</time>
      </trkpt>
      <trkpt lat="44.76711" lon="6.78569">
        <ele>1839.2</ele>
        <time>2015-07-22T10:05:49Z</time>
      </trkpt>
      <trkpt lat="44.76703" lon="6.78569">
        <ele>1839.2</ele>
        <time>2015-07-22T10:05:55Z</time>
      </trkpt>
      <trkpt lat="44.76695" lon="6.78567">
        <ele>1839.1</ele>
        <time>2015-07-22T10:06:02Z</time>
      </trkpt>
      <trkpt lat="44.76687" lon="6.78569">
        <ele>1837.5</ele>
        <time>2015-07-22T10:06:08Z</time>
      </trkpt>
      <trkpt lat="44.76679" lon="6.78573">
        <ele>1838.6</ele>
        <time>2015-07-22T10:06:14Z</time>
      </trkpt>
      <trkpt lat="44.76672" lon="6.78577">
        <ele>1837.8</ele>
        <time>2015-07-22T10:06:19Z</time>
      </trkpt>
      <trkpt lat="44.76665" lon="6.78584">
        <ele>1837.4</ele>
        <time>2015-07-22T10:06:24Z</time>
      </trkpt>
      <trkpt lat="44.76659" lon="6.7859">
        <ele>1836.8</ele>
        <time>2015-07-22T10:06:29Z</time>
      </trkpt>
      <trkpt lat="44.76654" lon="6.78599">
        <ele>1836.8</ele>
        <time>2015-07-22T10:06:34Z</time>
      </trkpt>
      <trkpt lat="44.76653" lon="6.786">
        <ele>1837</ele>
        <time>2015-07-22T10:06:35Z</time>
      </trkpt>
      <trkpt lat="44.76645" lon="6.78619">
        <ele>1836.5</ele>
        <time>2015-07-22T10:06:49Z</time>
      </trkpt>
      <trkpt lat="44.76639" lon="6.78627">
        <ele>1837</ele>
        <time>2015-07-22T10:06:56Z</time>
      </trkpt>
      <trkpt lat="44.76632" lon="6.78632">
        <ele>1838</ele>
        <time>2015-07-22T10:07:04Z</time>
      </trkpt>
      <trkpt lat="44.76623" lon="6.78636">
        <ele>1837</ele>
        <time>2015-07-22T10:07:10Z</time>
      </trkpt>
      <trkpt lat="44.76616" lon="6.78639">
        <ele>1837</ele>
        <time>2015-07-22T10:07:16Z</time>
      </trkpt>
      <trkpt lat="44.76609" lon="6.78643">
        <ele>1837.7</ele>
        <time>2015-07-22T10:07:21Z</time>
      </trkpt>
      <trkpt lat="44.76602" lon="6.78646">
        <ele>1836.9</ele>
        <time>2015-07-22T10:07:26Z</time>
      </trkpt>
      <trkpt lat="44.76593" lon="6.78651">
        <ele>1837.6</ele>
        <time>2015-07-22T10:07:32Z</time>
      </trkpt>
      <trkpt lat="44.76586" lon="6.78654">
        <ele>1837.4</ele>
        <time>2015-07-22T10:07:37Z</time>
      </trkpt>
      <trkpt lat="44.76584" lon="6.78654">
        <ele>1837.7</ele>
        <time>2015-07-22T10:07:38Z</time>
      </trkpt>
      <trkpt lat="44.76571" lon="6.78663">
        <ele>1836.6</ele>
        <time>2015-07-22T10:07:48Z</time>
      </trkpt>
      <trkpt lat="44.76564" lon="6.78669">
        <ele>1837.1</ele>
        <time>2015-07-22T10:07:54Z</time>
      </trkpt>
      <trkpt lat="44.76557" lon="6.78676">
        <ele>1837.7</ele>
        <time>2015-07-22T10:08:00Z</time>
      </trkpt>
      <trkpt lat="44.76552" lon="6.78686">
        <ele>1838.3</ele>
        <time>2015-07-22T10:08:07Z</time>
      </trkpt>
      <trkpt lat="44.7655" lon="6.78697">
        <ele>1837.3</ele>
        <time>2015-07-22T10:08:14Z</time>
      </trkpt>
      <trkpt lat="44.7655" lon="6.78709">
        <ele>1838.6</ele>
        <time>2015-07-22T10:08:24Z</time>
      </trkpt>
      <trkpt lat="44.76549" lon="6.78721">
        <ele>1837.8</ele>
        <time>2015-07-22T10:08:34Z</time>
      </trkpt>
      <trkpt lat="44.76548" lon="6.78733">
        <ele>1836.6</ele>
        <time>2015-07-22T10:08:44Z</time>
      </trkpt>
      <trkpt lat="44.76547" lon="6.78735">
        <ele>1837</ele>
        <time>2015-07-22T10:08:45Z</time>
      </trkpt>
      <trkpt lat="44.76541" lon="6.78755">
        <ele>1836.9</ele>
        <time>2015-07-22T10:08:56Z</time>
      </trkpt>
      <trkpt lat="44.76536" lon="6.78764">
        <ele>1836.6</ele>
        <time>2015-07-22T10:09:03Z</time>
      </trkpt>
      <trkpt lat="44.76529" lon="6.78771">
        <ele>1836.8</ele>
        <time>2015-07-22T10:09:09Z</time>
      </trkpt>
      <trkpt lat="44.76522" lon="6.78778">
        <ele>1837</ele>
        <time>2015-07-22T10:09:15Z</time>
      </trkpt>
      <trkpt lat="44.76516" lon="6.78784">
        <ele>1836.4</ele>
        <time>2015-07-22T10:09:21Z</time>
      </trkpt>
      <trkpt lat="44.76508" lon="6.7879">
        <ele>1835.6</ele>
        <time>2015-07-22T10:09:34Z</time>
      </trkpt>
      <trkpt lat="44.76502" lon="6.78797">
        <ele>1835.8</ele>
        <time>2015-07-22T10:10:31Z</time>
      </trkpt>
      <trkpt lat="44.76501" lon="6.78799">
        <ele>1836</ele>
        <time>2015-07-22T10:10:32Z</time>
      </trkpt>
      <trkpt lat="44.76494" lon="6.78817">
        <ele>1834.3</ele>
        <time>2015-07-22T10:10:44Z</time>
      </trkpt>
      <trkpt lat="44.76492" lon="6.78827">
        <ele>1833.5</ele>
        <time>2015-07-22T10:10:49Z</time>
      </trkpt>
      <trkpt lat="44.76489" lon="6.78839">
        <ele>1832.1</ele>
        <time>2015-07-22T10:10:55Z</time>
      </trkpt>
      <trkpt lat="44.76487" lon="6.7885">
        <ele>1832.2</ele>
        <time>2015-07-22T10:11:00Z</time>
      </trkpt>
      <trkpt lat="44.76486" lon="6.78862">
        <ele>1831.6</ele>
        <time>2015-07-22T10:11:06Z</time>
      </trkpt>
      <trkpt lat="44.76485" lon="6.78875">
        <ele>1831.5</ele>
        <time>2015-07-22T10:11:12Z</time>
      </trkpt>
      <trkpt lat="44.76485" lon="6.78887">
        <ele>1830.5</ele>
        <time>2015-07-22T10:11:18Z</time>
      </trkpt>
      <trkpt lat="44.76484" lon="6.78898">
        <ele>1829.6</ele>
        <time>2015-07-22T10:11:24Z</time>
      </trkpt>
      <trkpt lat="44.76484" lon="6.78909">
        <ele>1830</ele>
        <time>2015-07-22T10:11:30Z</time>
      </trkpt>
      <trkpt lat="44.76485" lon="6.7892">
        <ele>1829.3</ele>
        <time>2015-07-22T10:11:36Z</time>
      </trkpt>
      <trkpt lat="44.76485" lon="6.78922">
        <ele>1829</ele>
        <time>2015-07-22T10:11:37Z</time>
      </trkpt>
      <trkpt lat="44.76487" lon="6.78944">
        <ele>1827.4</ele>
        <time>2015-07-22T10:11:56Z</time>
      </trkpt>
      <trkpt lat="44.76489" lon="6.78956">
        <ele>1828.2</ele>
        <time>2015-07-22T10:12:05Z</time>
      </trkpt>
      <trkpt lat="44.76489" lon="6.78968">
        <ele>1828.4</ele>
        <time>2015-07-22T10:12:13Z</time>
      </trkpt>
      <trkpt lat="44.7649" lon="6.7898">
        <ele>1827.6</ele>
        <time>2015-07-22T10:12:22Z</time>
      </trkpt>
      <trkpt lat="44.76493" lon="6.78992">
        <ele>1827.6</ele>
        <time>2015-07-22T10:12:40Z</time>
      </trkpt>
      <trkpt lat="44.76493" lon="6.78993">
        <ele>1827.5</ele>
        <time>2015-07-22T10:12:41Z</time>
      </trkpt>
      <trkpt lat="44.76493" lon="6.79015">
        <ele>1827.3</ele>
        <time>2015-07-22T10:13:03Z</time>
      </trkpt>
      <trkpt lat="44.76493" lon="6.79028">
        <ele>1826.3</ele>
        <time>2015-07-22T10:13:11Z</time>
      </trkpt>
      <trkpt lat="44.76493" lon="6.79039">
        <ele>1826.6</ele>
        <time>2015-07-22T10:13:17Z</time>
      </trkpt>
      <trkpt lat="44.76494" lon="6.79051">
        <ele>1826.5</ele>
        <time>2015-07-22T10:13:24Z</time>
      </trkpt>
      <trkpt lat="44.76495" lon="6.79062">
        <ele>1826.4</ele>
        <time>2015-07-22T10:13:30Z</time>
      </trkpt>
      <trkpt lat="44.76496" lon="6.79075">
        <ele>1825.5</ele>
        <time>2015-07-22T10:13:37Z</time>
      </trkpt>
      <trkpt lat="44.76499" lon="6.79086">
        <ele>1824.6</ele>
        <time>2015-07-22T10:13:43Z</time>
      </trkpt>
      <trkpt lat="44.76499" lon="6.79088">
        <ele>1824.5</ele>
        <time>2015-07-22T10:13:44Z</time>
      </trkpt>
      <trkpt lat="44.76504" lon="6.7911">
        <ele>1825.1</ele>
        <time>2015-07-22T10:13:55Z</time>
      </trkpt>
      <trkpt lat="44.76506" lon="6.79121">
        <ele>1824.1</ele>
        <time>2015-07-22T10:14:01Z</time>
      </trkpt>
      <trkpt lat="44.76509" lon="6.79132">
        <ele>1824.7</ele>
        <time>2015-07-22T10:14:14Z</time>
      </trkpt>
      <trkpt lat="44.76512" lon="6.79143">
        <ele>1824</ele>
        <time>2015-07-22T10:14:41Z</time>
      </trkpt>
      <trkpt lat="44.76514" lon="6.79155">
        <ele>1823.9</ele>
        <time>2015-07-22T10:14:48Z</time>
      </trkpt>
      <trkpt lat="44.76514" lon="6.79157">
        <ele>1824.2</ele>
        <time>2015-07-22T10:14:49Z</time>
      </trkpt>
      <trkpt lat="44.76515" lon="6.79179">
        <ele>1825</ele>
        <time>2015-07-22T10:15:04Z</time>
      </trkpt>
      <trkpt lat="44.76518" lon="6.7919">
        <ele>1824.3</ele>
        <time>2015-07-22T10:15:11Z</time>
      </trkpt>
      <trkpt lat="44.76518" lon="6.79202">
        <ele>1824.5</ele>
        <time>2015-07-22T10:15:19Z</time>
      </trkpt>
      <trkpt lat="44.76519" lon="6.79213">
        <ele>1824.4</ele>
        <time>2015-07-22T10:15:25Z</time>
      </trkpt>
      <trkpt lat="44.76521" lon="6.79225">
        <ele>1823.6</ele>
        <time>2015-07-22T10:15:32Z</time>
      </trkpt>
      <trkpt lat="44.76524" lon="6.79236">
        <ele>1823.8</ele>
        <time>2015-07-22T10:15:39Z</time>
      </trkpt>
      <trkpt lat="44.76529" lon="6.79247">
        <ele>1823.3</ele>
        <time>2015-07-22T10:15:47Z</time>
      </trkpt>
      <trkpt lat="44.76532" lon="6.79257">
        <ele>1823.2</ele>
        <time>2015-07-22T10:15:53Z</time>
      </trkpt>
      <trkpt lat="44.76533" lon="6.79258">
        <ele>1823</ele>
        <time>2015-07-22T10:15:54Z</time>
      </trkpt>
      <trkpt lat="44.76539" lon="6.79277">
        <ele>1821.1</ele>
        <time>2015-07-22T10:16:05Z</time>
      </trkpt>
      <trkpt lat="44.76542" lon="6.79288">
        <ele>1821</ele>
        <time>2015-07-22T10:16:12Z</time>
      </trkpt>
      <trkpt lat="44.76545" lon="6.79299">
        <ele>1820.6</ele>
        <time>2015-07-22T10:16:21Z</time>
      </trkpt>
      <trkpt lat="44.76549" lon="6.79309">
        <ele>1820.8</ele>
        <time>2015-07-22T10:16:27Z</time>
      </trkpt>
      <trkpt lat="44.76554" lon="6.79319">
        <ele>1820.1</ele>
        <time>2015-07-22T10:16:33Z</time>
      </trkpt>
      <trkpt lat="44.76558" lon="6.79328">
        <ele>1819</ele>
        <time>2015-07-22T10:16:39Z</time>
      </trkpt>
      <trkpt lat="44.76562" lon="6.79337">
        <ele>1819.2</ele>
        <time>2015-07-22T10:16:45Z</time>
      </trkpt>
      <trkpt lat="44.76567" lon="6.79346">
        <ele>1818.3</ele>
        <time>2015-07-22T10:16:51Z</time>
      </trkpt>
      <trkpt lat="44.76571" lon="6.79356">
        <ele>1817.6</ele>
        <time>2015-07-22T10:16:57Z</time>
      </trkpt>
      <trkpt lat="44.76572" lon="6.79358">
        <ele>1817.4</ele>
        <time>2015-07-22T10:16:58Z</time>
      </trkpt>
      <trkpt lat="44.76582" lon="6.79374">
        <ele>1817.5</ele>
        <time>2015-07-22T10:17:10Z</time>
      </trkpt>
      <trkpt lat="44.76586" lon="6.79384">
        <ele>1816.6</ele>
        <time>2015-07-22T10:17:16Z</time>
      </trkpt>
      <trkpt lat="44.76591" lon="6.79394">
        <ele>1815.4</ele>
        <time>2015-07-22T10:17:22Z</time>
      </trkpt>
      <trkpt lat="44.76597" lon="6.79401">
        <ele>1815.6</ele>
        <time>2015-07-22T10:17:29Z</time>
      </trkpt>
      <trkpt lat="44.76604" lon="6.79409">
        <ele>1814.4</ele>
        <time>2015-07-22T10:17:36Z</time>
      </trkpt>
      <trkpt lat="44.76612" lon="6.79415">
        <ele>1812.7</ele>
        <time>2015-07-22T10:17:44Z</time>
      </trkpt>
      <trkpt lat="44.76619" lon="6.79419">
        <ele>1812</ele>
        <time>2015-07-22T10:17:51Z</time>
      </trkpt>
      <trkpt lat="44.76627" lon="6.79425">
        <ele>1811.2</ele>
        <time>2015-07-22T10:17:58Z</time>
      </trkpt>
      <trkpt lat="44.76628" lon="6.79426">
        <ele>1811.1</ele>
        <time>2015-07-22T10:17:59Z</time>
      </trkpt>
      <trkpt lat="44.76638" lon="6.79443">
        <ele>1810.8</ele>
        <time>2015-07-22T10:18:11Z</time>
      </trkpt>
      <trkpt lat="44.76644" lon="6.79452">
        <ele>1810.8</ele>
        <time>2015-07-22T10:18:18Z</time>
      </trkpt>
      <trkpt lat="44.76649" lon="6.79463">
        <ele>1809.8</ele>
        <time>2015-07-22T10:18:24Z</time>
      </trkpt>
      <trkpt lat="44.76653" lon="6.79474">
        <ele>1809</ele>
        <time>2015-07-22T10:18:30Z</time>
      </trkpt>
      <trkpt lat="44.76656" lon="6.79484">
        <ele>1807.1</ele>
        <time>2015-07-22T10:18:37Z</time>
      </trkpt>
      <trkpt lat="44.76659" lon="6.79496">
        <ele>1806.4</ele>
        <time>2015-07-22T10:18:44Z</time>
      </trkpt>
      <trkpt lat="44.7666" lon="6.79508">
        <ele>1805.9</ele>
        <time>2015-07-22T10:18:52Z</time>
      </trkpt>
      <trkpt lat="44.76661" lon="6.79519">
        <ele>1805.3</ele>
        <time>2015-07-22T10:18:58Z</time>
      </trkpt>
      <trkpt lat="44.76664" lon="6.79531">
        <ele>1804.1</ele>
        <time>2015-07-22T10:19:04Z</time>
      </trkpt>
      <trkpt lat="44.76664" lon="6.79533">
        <ele>1803.5</ele>
        <time>2015-07-22T10:19:05Z</time>
      </trkpt>
      <trkpt lat="44.76668" lon="6.79555">
        <ele>1801.7</ele>
        <time>2015-07-22T10:19:17Z</time>
      </trkpt>
      <trkpt lat="44.7667" lon="6.79567">
        <ele>1799.9</ele>
        <time>2015-07-22T10:19:25Z</time>
      </trkpt>
      <trkpt lat="44.7667" lon="6.79577">
        <ele>1799</ele>
        <time>2015-07-22T10:19:31Z</time>
      </trkpt>
      <trkpt lat="44.7667" lon="6.79588">
        <ele>1798.3</ele>
        <time>2015-07-22T10:19:37Z</time>
      </trkpt>
      <trkpt lat="44.76669" lon="6.796">
        <ele>1798</ele>
        <time>2015-07-22T10:19:43Z</time>
      </trkpt>
      <trkpt lat="44.76668" lon="6.79613">
        <ele>1796.9</ele>
        <time>2015-07-22T10:19:49Z</time>
      </trkpt>
      <trkpt lat="44.76666" lon="6.79624">
        <ele>1795.7</ele>
        <time>2015-07-22T10:19:54Z</time>
      </trkpt>
      <trkpt lat="44.76667" lon="6.79636">
        <ele>1795</ele>
        <time>2015-07-22T10:20:00Z</time>
      </trkpt>
      <trkpt lat="44.76668" lon="6.79647">
        <ele>1794.8</ele>
        <time>2015-07-22T10:20:05Z</time>
      </trkpt>
      <trkpt lat="44.76668" lon="6.79649">
        <ele>1794.9</ele>
        <time>2015-07-22T10:20:06Z</time>
      </trkpt>
      <trkpt lat="44.76675" lon="6.79668">
        <ele>1792.8</ele>
        <time>2015-07-22T10:20:17Z</time>
      </trkpt>
      <trkpt lat="44.76678" lon="6.79678">
        <ele>1792.8</ele>
        <time>2015-07-22T10:20:23Z</time>
      </trkpt>
      <trkpt lat="44.76679" lon="6.7969">
        <ele>1791.5</ele>
        <time>2015-07-22T10:20:30Z</time>
      </trkpt>
      <trkpt lat="44.76682" lon="6.797">
        <ele>1790</ele>
        <time>2015-07-22T10:20:37Z</time>
      </trkpt>
      <trkpt lat="44.76686" lon="6.79711">
        <ele>1789.2</ele>
        <time>2015-07-22T10:20:44Z</time>
      </trkpt>
      <trkpt lat="44.76692" lon="6.7972">
        <ele>1787.3</ele>
        <time>2015-07-22T10:20:51Z</time>
      </trkpt>
      <trkpt lat="44.76699" lon="6.79727">
        <ele>1785.6</ele>
        <time>2015-07-22T10:20:58Z</time>
      </trkpt>
      <trkpt lat="44.767" lon="6.79739">
        <ele>1785.7</ele>
        <time>2015-07-22T10:21:04Z</time>
      </trkpt>
      <trkpt lat="44.76704" lon="6.79749">
        <ele>1784.7</ele>
        <time>2015-07-22T10:21:09Z</time>
      </trkpt>
      <trkpt lat="44.76705" lon="6.79751">
        <ele>1784.4</ele>
        <time>2015-07-22T10:21:10Z</time>
      </trkpt>
      <trkpt lat="44.7671" lon="6.79772">
        <ele>1781.7</ele>
        <time>2015-07-22T10:21:21Z</time>
      </trkpt>
      <trkpt lat="44.7671" lon="6.79783">
        <ele>1781.3</ele>
        <time>2015-07-22T10:21:26Z</time>
      </trkpt>
      <trkpt lat="44.76709" lon="6.79795">
        <ele>1780.1</ele>
        <time>2015-07-22T10:21:34Z</time>
      </trkpt>
      <trkpt lat="44.76706" lon="6.79806">
        <ele>1779.8</ele>
        <time>2015-07-22T10:21:40Z</time>
      </trkpt>
      <trkpt lat="44.76703" lon="6.79817">
        <ele>1779.5</ele>
        <time>2015-07-22T10:21:47Z</time>
      </trkpt>
      <trkpt lat="44.76698" lon="6.79827">
        <ele>1778</ele>
        <time>2015-07-22T10:21:55Z</time>
      </trkpt>
      <trkpt lat="44.76693" lon="6.79837">
        <ele>1776.9</ele>
        <time>2015-07-22T10:22:02Z</time>
      </trkpt>
      <trkpt lat="44.76691" lon="6.79849">
        <ele>1776.3</ele>
        <time>2015-07-22T10:22:09Z</time>
      </trkpt>
      <trkpt lat="44.76688" lon="6.7986">
        <ele>1775.2</ele>
        <time>2015-07-22T10:22:16Z</time>
      </trkpt>
      <trkpt lat="44.76688" lon="6.79862">
        <ele>1775.3</ele>
        <time>2015-07-22T10:22:17Z</time>
      </trkpt>
      <trkpt lat="44.76681" lon="6.79881">
        <ele>1774.3</ele>
        <time>2015-07-22T10:22:29Z</time>
      </trkpt>
      <trkpt lat="44.76677" lon="6.79891">
        <ele>1774.1</ele>
        <time>2015-07-22T10:22:38Z</time>
      </trkpt>
      <trkpt lat="44.76673" lon="6.79902">
        <ele>1774</ele>
        <time>2015-07-22T10:22:46Z</time>
      </trkpt>
      <trkpt lat="44.7667" lon="6.79912">
        <ele>1772.4</ele>
        <time>2015-07-22T10:22:53Z</time>
      </trkpt>
      <trkpt lat="44.76668" lon="6.79924">
        <ele>1772.4</ele>
        <time>2015-07-22T10:23:00Z</time>
      </trkpt>
      <trkpt lat="44.76666" lon="6.79936">
        <ele>1771.3</ele>
        <time>2015-07-22T10:23:06Z</time>
      </trkpt>
      <trkpt lat="44.76665" lon="6.79946">
        <ele>1771.3</ele>
        <time>2015-07-22T10:23:11Z</time>
      </trkpt>
      <trkpt lat="44.76663" lon="6.79959">
        <ele>1770.6</ele>
        <time>2015-07-22T10:23:17Z</time>
      </trkpt>
      <trkpt lat="44.76663" lon="6.79961">
        <ele>1770.6</ele>
        <time>2015-07-22T10:23:18Z</time>
      </trkpt>
      <trkpt lat="44.76659" lon="6.79982">
        <ele>1769.4</ele>
        <time>2015-07-22T10:23:29Z</time>
      </trkpt>
      <trkpt lat="44.76657" lon="6.79993">
        <ele>1767.6</ele>
        <time>2015-07-22T10:23:36Z</time>
      </trkpt>
      <trkpt lat="44.76657" lon="6.80004">
        <ele>1766.7</ele>
        <time>2015-07-22T10:23:42Z</time>
      </trkpt>
      <trkpt lat="44.76657" lon="6.80015">
        <ele>1765.9</ele>
        <time>2015-07-22T10:23:48Z</time>
      </trkpt>
      <trkpt lat="44.76658" lon="6.80027">
        <ele>1763.9</ele>
        <time>2015-07-22T10:23:55Z</time>
      </trkpt>
      <trkpt lat="44.76655" lon="6.80038">
        <ele>1762.3</ele>
        <time>2015-07-22T10:24:03Z</time>
      </trkpt>
      <trkpt lat="44.7665" lon="6.80048">
        <ele>1761.8</ele>
        <time>2015-07-22T10:24:10Z</time>
      </trkpt>
      <trkpt lat="44.76648" lon="6.80059">
        <ele>1761.9</ele>
        <time>2015-07-22T10:24:17Z</time>
      </trkpt>
      <trkpt lat="44.76647" lon="6.8007">
        <ele>1762</ele>
        <time>2015-07-22T10:24:24Z</time>
      </trkpt>
      <trkpt lat="44.76647" lon="6.80072">
        <ele>1761.9</ele>
        <time>2015-07-22T10:24:25Z</time>
      </trkpt>
      <trkpt lat="44.76645" lon="6.80092">
        <ele>1760</ele>
        <time>2015-07-22T10:24:36Z</time>
      </trkpt>
      <trkpt lat="44.76644" lon="6.80104">
        <ele>1758.9</ele>
        <time>2015-07-22T10:24:42Z</time>
      </trkpt>
      <trkpt lat="44.76642" lon="6.80115">
        <ele>1757</ele>
        <time>2015-07-22T10:24:48Z</time>
      </trkpt>
      <trkpt lat="44.7664" lon="6.80126">
        <ele>1757.6</ele>
        <time>2015-07-22T10:24:53Z</time>
      </trkpt>
      <trkpt lat="44.76638" lon="6.80137">
        <ele>1757.1</ele>
        <time>2015-07-22T10:24:59Z</time>
      </trkpt>
      <trkpt lat="44.76637" lon="6.80149">
        <ele>1756.1</ele>
        <time>2015-07-22T10:25:06Z</time>
      </trkpt>
      <trkpt lat="44.76638" lon="6.80161">
        <ele>1754.7</ele>
        <time>2015-07-22T10:25:13Z</time>
      </trkpt>
      <trkpt lat="44.7664" lon="6.80172">
        <ele>1754.1</ele>
        <time>2015-07-22T10:25:20Z</time>
      </trkpt>
      <trkpt lat="44.76643" lon="6.80183">
        <ele>1752.5</ele>
        <time>2015-07-22T10:25:27Z</time>
      </trkpt>
      <trkpt lat="44.76643" lon="6.80184">
        <ele>1752.6</ele>
        <time>2015-07-22T10:25:28Z</time>
      </trkpt>
      <trkpt lat="44.76648" lon="6.80205">
        <ele>1749.9</ele>
        <time>2015-07-22T10:25:41Z</time>
      </trkpt>
      <trkpt lat="44.7665" lon="6.80217">
        <ele>1749.6</ele>
        <time>2015-07-22T10:25:49Z</time>
      </trkpt>
      <trkpt lat="44.76648" lon="6.8023">
        <ele>1749.9</ele>
        <time>2015-07-22T10:25:58Z</time>
      </trkpt>
      <trkpt lat="44.76645" lon="6.8024">
        <ele>1748.8</ele>
        <time>2015-07-22T10:26:05Z</time>
      </trkpt>
      <trkpt lat="44.76641" lon="6.8025">
        <ele>1746.9</ele>
        <time>2015-07-22T10:26:12Z</time>
      </trkpt>
      <trkpt lat="44.76636" lon="6.80261">
        <ele>1747</ele>
        <time>2015-07-22T10:26:28Z</time>
      </trkpt>
      <trkpt lat="44.76636" lon="6.80262">
        <ele>1747</ele>
        <time>2015-07-22T10:26:29Z</time>
      </trkpt>
      <trkpt lat="44.76634" lon="6.80274">
        <ele>1744.8</ele>
        <time>2015-07-22T10:27:35Z</time>
      </trkpt>
      <trkpt lat="44.76635" lon="6.80295">
        <ele>1743.6</ele>
        <time>2015-07-22T10:27:48Z</time>
      </trkpt>
      <trkpt lat="44.76633" lon="6.80307">
        <ele>1742.8</ele>
        <time>2015-07-22T10:27:55Z</time>
      </trkpt>
      <trkpt lat="44.76631" lon="6.80318">
        <ele>1740.4</ele>
        <time>2015-07-22T10:28:02Z</time>
      </trkpt>
      <trkpt lat="44.76629" lon="6.80329">
        <ele>1739.6</ele>
        <time>2015-07-22T10:28:09Z</time>
      </trkpt>
      <trkpt lat="44.76628" lon="6.8034">
        <ele>1739.5</ele>
        <time>2015-07-22T10:28:15Z</time>
      </trkpt>
      <trkpt lat="44.76628" lon="6.80352">
        <ele>1738.4</ele>
        <time>2015-07-22T10:28:22Z</time>
      </trkpt>
      <trkpt lat="44.76629" lon="6.80363">
        <ele>1737.1</ele>
        <time>2015-07-22T10:28:33Z</time>
      </trkpt>
      <trkpt lat="44.7663" lon="6.80375">
        <ele>1736.6</ele>
        <time>2015-07-22T10:28:40Z</time>
      </trkpt>
      <trkpt lat="44.76631" lon="6.80377">
        <ele>1736.7</ele>
        <time>2015-07-22T10:28:41Z</time>
      </trkpt>
      <trkpt lat="44.76634" lon="6.80399">
        <ele>1733.7</ele>
        <time>2015-07-22T10:28:57Z</time>
      </trkpt>
      <trkpt lat="44.76636" lon="6.8041">
        <ele>1731.4</ele>
        <time>2015-07-22T10:29:06Z</time>
      </trkpt>
      <trkpt lat="44.76637" lon="6.80422">
        <ele>1731</ele>
        <time>2015-07-22T10:29:14Z</time>
      </trkpt>
      <trkpt lat="44.76637" lon="6.80434">
        <ele>1729.3</ele>
        <time>2015-07-22T10:29:22Z</time>
      </trkpt>
      <trkpt lat="44.76637" lon="6.80446">
        <ele>1728</ele>
        <time>2015-07-22T10:29:30Z</time>
      </trkpt>
      <trkpt lat="44.76638" lon="6.80458">
        <ele>1726.9</ele>
        <time>2015-07-22T10:29:38Z</time>
      </trkpt>
      <trkpt lat="44.76637" lon="6.80471">
        <ele>1725.3</ele>
        <time>2015-07-22T10:29:46Z</time>
      </trkpt>
      <trkpt lat="44.76636" lon="6.80472">
        <ele>1725.2</ele>
        <time>2015-07-22T10:29:47Z</time>
      </trkpt>
      <trkpt lat="44.76632" lon="6.80494">
        <ele>1724.3</ele>
        <time>2015-07-22T10:30:00Z</time>
      </trkpt>
      <trkpt lat="44.76632" lon="6.80507">
        <ele>1723.7</ele>
        <time>2015-07-22T10:30:12Z</time>
      </trkpt>
      <trkpt lat="44.76625" lon="6.80515">
        <ele>1725.9</ele>
        <time>2015-07-22T10:34:37Z</time>
      </trkpt>
      <trkpt lat="44.76625" lon="6.80516">
        <ele>1725.8</ele>
        <time>2015-07-22T10:34:38Z</time>
      </trkpt>
      <trkpt lat="44.76616" lon="6.80533">
        <ele>1690.6</ele>
        <time>2015-07-22T10:35:36Z</time>
      </trkpt>
      <trkpt lat="44.76613" lon="6.80544">
        <ele>1691.3</ele>
        <time>2015-07-22T10:35:56Z</time>
      </trkpt>
      <trkpt lat="44.76612" lon="6.80545">
        <ele>1691.3</ele>
        <time>2015-07-22T10:35:57Z</time>
      </trkpt>
      <trkpt lat="44.76614" lon="6.80544">
        <ele>1689.1</ele>
        <time>2015-07-22T10:36:21Z</time>
      </trkpt>
      <trkpt lat="44.76618" lon="6.80533">
        <ele>1691.2</ele>
        <time>2015-07-22T10:36:32Z</time>
      </trkpt>
      <trkpt lat="44.76621" lon="6.80522">
        <ele>1691.7</ele>
        <time>2015-07-22T10:36:40Z</time>
      </trkpt>
      <trkpt lat="44.76624" lon="6.8051">
        <ele>1690</ele>
        <time>2015-07-22T10:36:48Z</time>
      </trkpt>
      <trkpt lat="44.76626" lon="6.80498">
        <ele>1689</ele>
        <time>2015-07-22T10:36:55Z</time>
      </trkpt>
      <trkpt lat="44.76628" lon="6.80486">
        <ele>1688.1</ele>
        <time>2015-07-22T10:37:02Z</time>
      </trkpt>
      <trkpt lat="44.76628" lon="6.80484">
        <ele>1688</ele>
        <time>2015-07-22T10:37:03Z</time>
      </trkpt>
      <trkpt lat="44.76625" lon="6.80462">
        <ele>1687.2</ele>
        <time>2015-07-22T10:37:14Z</time>
      </trkpt>
      <trkpt lat="44.76622" lon="6.80451">
        <ele>1686.3</ele>
        <time>2015-07-22T10:37:23Z</time>
      </trkpt>
      <trkpt lat="44.76616" lon="6.80443">
        <ele>1685.4</ele>
        <time>2015-07-22T10:37:31Z</time>
      </trkpt>
      <trkpt lat="44.76611" lon="6.80435">
        <ele>1683.2</ele>
        <time>2015-07-22T10:37:39Z</time>
      </trkpt>
      <trkpt lat="44.76607" lon="6.80425">
        <ele>1682.7</ele>
        <time>2015-07-22T10:37:45Z</time>
      </trkpt>
      <trkpt lat="44.76604" lon="6.80414">
        <ele>1682</ele>
        <time>2015-07-22T10:37:51Z</time>
      </trkpt>
      <trkpt lat="44.76602" lon="6.80403">
        <ele>1682.1</ele>
        <time>2015-07-22T10:37:56Z</time>
      </trkpt>
      <trkpt lat="44.76599" lon="6.80391">
        <ele>1681.5</ele>
        <time>2015-07-22T10:38:03Z</time>
      </trkpt>
      <trkpt lat="44.76599" lon="6.80402">
        <ele>1680</ele>
        <time>2015-07-22T10:38:16Z</time>
      </trkpt>
      <trkpt lat="44.76599" lon="6.80404">
        <ele>1679.5</ele>
        <time>2015-07-22T10:38:17Z</time>
      </trkpt>
      <trkpt lat="44.76597" lon="6.80426">
        <ele>1677.4</ele>
        <time>2015-07-22T10:38:34Z</time>
      </trkpt>
      <trkpt lat="44.76598" lon="6.80438">
        <ele>1678</ele>
        <time>2015-07-22T10:38:45Z</time>
      </trkpt>
      <trkpt lat="44.76599" lon="6.8045">
        <ele>1677.8</ele>
        <time>2015-07-22T10:39:00Z</time>
      </trkpt>
      <trkpt lat="44.76597" lon="6.80461">
        <ele>1676.4</ele>
        <time>2015-07-22T10:39:07Z</time>
      </trkpt>
      <trkpt lat="44.76594" lon="6.80472">
        <ele>1676.8</ele>
        <time>2015-07-22T10:39:12Z</time>
      </trkpt>
      <trkpt lat="44.76592" lon="6.80483">
        <ele>1676.5</ele>
        <time>2015-07-22T10:39:19Z</time>
      </trkpt>
      <trkpt lat="44.76592" lon="6.80485">
        <ele>1676.5</ele>
        <time>2015-07-22T10:39:20Z</time>
      </trkpt>
      <trkpt lat="44.76588" lon="6.80505">
        <ele>1675.9</ele>
        <time>2015-07-22T10:39:33Z</time>
      </trkpt>
      <trkpt lat="44.76585" lon="6.80515">
        <ele>1676.2</ele>
        <time>2015-07-22T10:39:39Z</time>
      </trkpt>
      <trkpt lat="44.76581" lon="6.80526">
        <ele>1675</ele>
        <time>2015-07-22T10:39:46Z</time>
      </trkpt>
      <trkpt lat="44.76576" lon="6.80536">
        <ele>1674.6</ele>
        <time>2015-07-22T10:40:13Z</time>
      </trkpt>
      <trkpt lat="44.76574" lon="6.80548">
        <ele>1674.1</ele>
        <time>2015-07-22T10:40:20Z</time>
      </trkpt>
      <trkpt lat="44.7657" lon="6.80558">
        <ele>1672.4</ele>
        <time>2015-07-22T10:40:29Z</time>
      </trkpt>
      <trkpt lat="44.7657" lon="6.8056">
        <ele>1672.2</ele>
        <time>2015-07-22T10:40:30Z</time>
      </trkpt>
      <trkpt lat="44.76566" lon="6.80581">
        <ele>1669.8</ele>
        <time>2015-07-22T10:40:41Z</time>
      </trkpt>
      <trkpt lat="44.76564" lon="6.80592">
        <ele>1669.3</ele>
        <time>2015-07-22T10:40:47Z</time>
      </trkpt>
      <trkpt lat="44.76563" lon="6.80603">
        <ele>1667.3</ele>
        <time>2015-07-22T10:40:55Z</time>
      </trkpt>
      <trkpt lat="44.76563" lon="6.80616">
        <ele>1666.8</ele>
        <time>2015-07-22T10:41:04Z</time>
      </trkpt>
      <trkpt lat="44.76561" lon="6.80628">
        <ele>1665.5</ele>
        <time>2015-07-22T10:41:11Z</time>
      </trkpt>
      <trkpt lat="44.7656" lon="6.8064">
        <ele>1665.2</ele>
        <time>2015-07-22T10:41:19Z</time>
      </trkpt>
      <trkpt lat="44.76559" lon="6.80652">
        <ele>1664.1</ele>
        <time>2015-07-22T10:41:27Z</time>
      </trkpt>
      <trkpt lat="44.76557" lon="6.80664">
        <ele>1662.9</ele>
        <time>2015-07-22T10:41:34Z</time>
      </trkpt>
      <trkpt lat="44.76556" lon="6.80666">
        <ele>1663</ele>
        <time>2015-07-22T10:41:35Z</time>
      </trkpt>
      <trkpt lat="44.76553" lon="6.80687">
        <ele>1661.2</ele>
        <time>2015-07-22T10:41:46Z</time>
      </trkpt>
      <trkpt lat="44.76551" lon="6.80698">
        <ele>1660.6</ele>
        <time>2015-07-22T10:41:53Z</time>
      </trkpt>
      <trkpt lat="44.7655" lon="6.8071">
        <ele>1659.5</ele>
        <time>2015-07-22T10:42:00Z</time>
      </trkpt>
      <trkpt lat="44.76551" lon="6.80723">
        <ele>1659.8</ele>
        <time>2015-07-22T10:42:07Z</time>
      </trkpt>
      <trkpt lat="44.76553" lon="6.80734">
        <ele>1658</ele>
        <time>2015-07-22T10:42:13Z</time>
      </trkpt>
      <trkpt lat="44.76557" lon="6.80745">
        <ele>1658</ele>
        <time>2015-07-22T10:42:46Z</time>
      </trkpt>
      <trkpt lat="44.76557" lon="6.80745">
        <ele>1657.9</ele>
        <time>2015-07-22T10:42:47Z</time>
      </trkpt>
      <trkpt lat="44.76571" lon="6.80755">
        <ele>1657.7</ele>
        <time>2015-07-22T10:43:03Z</time>
      </trkpt>
      <trkpt lat="44.76579" lon="6.8076">
        <ele>1658</ele>
        <time>2015-07-22T10:43:09Z</time>
      </trkpt>
      <trkpt lat="44.76585" lon="6.80768">
        <ele>1654.2</ele>
        <time>2015-07-22T10:43:16Z</time>
      </trkpt>
      <trkpt lat="44.7659" lon="6.80778">
        <ele>1653.9</ele>
        <time>2015-07-22T10:43:23Z</time>
      </trkpt>
      <trkpt lat="44.76593" lon="6.80789">
        <ele>1653.4</ele>
        <time>2015-07-22T10:43:30Z</time>
      </trkpt>
      <trkpt lat="44.76598" lon="6.80798">
        <ele>1654.2</ele>
        <time>2015-07-22T10:43:39Z</time>
      </trkpt>
      <trkpt lat="44.76596" lon="6.8081">
        <ele>1650.5</ele>
        <time>2015-07-22T10:44:06Z</time>
      </trkpt>
      <trkpt lat="44.76595" lon="6.8081">
        <ele>1650.5</ele>
        <time>2015-07-22T10:44:07Z</time>
      </trkpt>
      <trkpt lat="44.7658" lon="6.80817">
        <ele>1648.2</ele>
        <time>2015-07-22T10:44:31Z</time>
      </trkpt>
      <trkpt lat="44.76572" lon="6.80823">
        <ele>1647.5</ele>
        <time>2015-07-22T10:44:38Z</time>
      </trkpt>
      <trkpt lat="44.76566" lon="6.80832">
        <ele>1645.6</ele>
        <time>2015-07-22T10:44:45Z</time>
      </trkpt>
      <trkpt lat="44.7656" lon="6.80841">
        <ele>1644.8</ele>
        <time>2015-07-22T10:45:01Z</time>
      </trkpt>
      <trkpt lat="44.76553" lon="6.80847">
        <ele>1643.7</ele>
        <time>2015-07-22T10:45:11Z</time>
      </trkpt>
      <trkpt lat="44.76552" lon="6.80848">
        <ele>1643.7</ele>
        <time>2015-07-22T10:45:12Z</time>
      </trkpt>
      <trkpt lat="44.76538" lon="6.80859">
        <ele>1640.7</ele>
        <time>2015-07-22T10:45:26Z</time>
      </trkpt>
      <trkpt lat="44.76532" lon="6.80867">
        <ele>1640</ele>
        <time>2015-07-22T10:45:33Z</time>
      </trkpt>
      <trkpt lat="44.76526" lon="6.80875">
        <ele>1638.2</ele>
        <time>2015-07-22T10:45:40Z</time>
      </trkpt>
      <trkpt lat="44.7652" lon="6.80884">
        <ele>1637.1</ele>
        <time>2015-07-22T10:45:48Z</time>
      </trkpt>
      <trkpt lat="44.76515" lon="6.80894">
        <ele>1636.6</ele>
        <time>2015-07-22T10:45:55Z</time>
      </trkpt>
      <trkpt lat="44.76515" lon="6.80906">
        <ele>1635.1</ele>
        <time>2015-07-22T10:46:03Z</time>
      </trkpt>
      <trkpt lat="44.76516" lon="6.80917">
        <ele>1633.5</ele>
        <time>2015-07-22T10:46:10Z</time>
      </trkpt>
      <trkpt lat="44.7652" lon="6.80928">
        <ele>1631.3</ele>
        <time>2015-07-22T10:46:16Z</time>
      </trkpt>
      <trkpt lat="44.7652" lon="6.8093">
        <ele>1630.9</ele>
        <time>2015-07-22T10:46:17Z</time>
      </trkpt>
      <trkpt lat="44.76504" lon="6.80921">
        <ele>1626.6</ele>
        <time>2015-07-22T10:46:41Z</time>
      </trkpt>
      <trkpt lat="44.76498" lon="6.80914">
        <ele>1624.4</ele>
        <time>2015-07-22T10:46:50Z</time>
      </trkpt>
      <trkpt lat="44.76493" lon="6.80905">
        <ele>1622.8</ele>
        <time>2015-07-22T10:46:57Z</time>
      </trkpt>
      <trkpt lat="44.76487" lon="6.80896">
        <ele>1621.2</ele>
        <time>2015-07-22T10:47:04Z</time>
      </trkpt>
      <trkpt lat="44.76486" lon="6.80884">
        <ele>1620.5</ele>
        <time>2015-07-22T10:47:14Z</time>
      </trkpt>
      <trkpt lat="44.76478" lon="6.80877">
        <ele>1617.3</ele>
        <time>2015-07-22T10:47:32Z</time>
      </trkpt>
      <trkpt lat="44.76477" lon="6.80878">
        <ele>1617.1</ele>
        <time>2015-07-22T10:47:33Z</time>
      </trkpt>
      <trkpt lat="44.7647" lon="6.80872">
        <ele>1611</ele>
        <time>2015-07-22T10:48:05Z</time>
      </trkpt>
      <trkpt lat="44.76474" lon="6.80861">
        <ele>1609.8</ele>
        <time>2015-07-22T10:48:15Z</time>
      </trkpt>
      <trkpt lat="44.76466" lon="6.80858">
        <ele>1607.1</ele>
        <time>2015-07-22T10:48:27Z</time>
      </trkpt>
      <trkpt lat="44.76458" lon="6.80857">
        <ele>1604.4</ele>
        <time>2015-07-22T10:48:37Z</time>
      </trkpt>
      <trkpt lat="44.76457" lon="6.80857">
        <ele>1604.3</ele>
        <time>2015-07-22T10:48:38Z</time>
      </trkpt>
      <trkpt lat="44.76445" lon="6.80871">
        <ele>1600.1</ele>
        <time>2015-07-22T10:48:53Z</time>
      </trkpt>
      <trkpt lat="44.76439" lon="6.8088">
        <ele>1598.8</ele>
        <time>2015-07-22T10:49:01Z</time>
      </trkpt>
      <trkpt lat="44.76436" lon="6.80892">
        <ele>1595.7</ele>
        <time>2015-07-22T10:49:14Z</time>
      </trkpt>
      <trkpt lat="44.76436" lon="6.80903">
        <ele>1593.3</ele>
        <time>2015-07-22T10:49:22Z</time>
      </trkpt>
      <trkpt lat="44.76434" lon="6.80915">
        <ele>1591.9</ele>
        <time>2015-07-22T10:49:28Z</time>
      </trkpt>
      <trkpt lat="44.76433" lon="6.80926">
        <ele>1591.1</ele>
        <time>2015-07-22T10:49:34Z</time>
      </trkpt>
      <trkpt lat="44.76433" lon="6.80938">
        <ele>1589.4</ele>
        <time>2015-07-22T10:49:41Z</time>
      </trkpt>
      <trkpt lat="44.76433" lon="6.8094">
        <ele>1589.2</ele>
        <time>2015-07-22T10:49:42Z</time>
      </trkpt>
      <trkpt lat="44.76436" lon="6.80962">
        <ele>1587.3</ele>
        <time>2015-07-22T10:49:55Z</time>
      </trkpt>
      <trkpt lat="44.76437" lon="6.80975">
        <ele>1585.1</ele>
        <time>2015-07-22T10:50:02Z</time>
      </trkpt>
      <trkpt lat="44.76438" lon="6.80986">
        <ele>1584.4</ele>
        <time>2015-07-22T10:50:10Z</time>
      </trkpt>
      <trkpt lat="44.7644" lon="6.80997">
        <ele>1582</ele>
        <time>2015-07-22T10:50:18Z</time>
      </trkpt>
      <trkpt lat="44.76441" lon="6.81009">
        <ele>1582.3</ele>
        <time>2015-07-22T10:50:26Z</time>
      </trkpt>
      <trkpt lat="44.76443" lon="6.8102">
        <ele>1580.1</ele>
        <time>2015-07-22T10:50:32Z</time>
      </trkpt>
      <trkpt lat="44.76446" lon="6.81031">
        <ele>1579.8</ele>
        <time>2015-07-22T10:50:38Z</time>
      </trkpt>
      <trkpt lat="44.76451" lon="6.81041">
        <ele>1580.4</ele>
        <time>2015-07-22T10:50:45Z</time>
      </trkpt>
      <trkpt lat="44.76451" lon="6.81043">
        <ele>1580.5</ele>
        <time>2015-07-22T10:50:46Z</time>
      </trkpt>
      <trkpt lat="44.76456" lon="6.81063">
        <ele>1575.5</ele>
        <time>2015-07-22T10:51:08Z</time>
      </trkpt>
      <trkpt lat="44.76458" lon="6.81075">
        <ele>1574.3</ele>
        <time>2015-07-22T10:51:16Z</time>
      </trkpt>
      <trkpt lat="44.76459" lon="6.81087">
        <ele>1572.1</ele>
        <time>2015-07-22T10:51:28Z</time>
      </trkpt>
      <trkpt lat="44.76455" lon="6.81097">
        <ele>1572.2</ele>
        <time>2015-07-22T10:51:37Z</time>
      </trkpt>
      <trkpt lat="44.76449" lon="6.81107">
        <ele>1569.7</ele>
        <time>2015-07-22T10:51:44Z</time>
      </trkpt>
      <trkpt lat="44.76445" lon="6.81118">
        <ele>1568</ele>
        <time>2015-07-22T10:51:51Z</time>
      </trkpt>
      <trkpt lat="44.76444" lon="6.81119">
        <ele>1567.6</ele>
        <time>2015-07-22T10:51:52Z</time>
      </trkpt>
      <trkpt lat="44.76439" lon="6.81139">
        <ele>1565.2</ele>
        <time>2015-07-22T10:52:03Z</time>
      </trkpt>
      <trkpt lat="44.76433" lon="6.81146">
        <ele>1565.2</ele>
        <time>2015-07-22T10:52:09Z</time>
      </trkpt>
      <trkpt lat="44.76426" lon="6.81153">
        <ele>1564.1</ele>
        <time>2015-07-22T10:52:15Z</time>
      </trkpt>
      <trkpt lat="44.7642" lon="6.81161">
        <ele>1563.3</ele>
        <time>2015-07-22T10:52:21Z</time>
      </trkpt>
      <trkpt lat="44.76415" lon="6.81169">
        <ele>1563</ele>
        <time>2015-07-22T10:52:28Z</time>
      </trkpt>
      <trkpt lat="44.76409" lon="6.81176">
        <ele>1561.7</ele>
        <time>2015-07-22T10:52:35Z</time>
      </trkpt>
      <trkpt lat="44.76404" lon="6.81186">
        <ele>1559.7</ele>
        <time>2015-07-22T10:52:45Z</time>
      </trkpt>
      <trkpt lat="44.76398" lon="6.81195">
        <ele>1558.6</ele>
        <time>2015-07-22T10:52:54Z</time>
      </trkpt>
      <trkpt lat="44.76397" lon="6.81196">
        <ele>1558.1</ele>
        <time>2015-07-22T10:52:55Z</time>
      </trkpt>
      <trkpt lat="44.76388" lon="6.81213">
        <ele>1557.2</ele>
        <time>2015-07-22T10:53:07Z</time>
      </trkpt>
      <trkpt lat="44.76382" lon="6.81222">
        <ele>1555.6</ele>
        <time>2015-07-22T10:53:13Z</time>
      </trkpt>
      <trkpt lat="44.7638" lon="6.81234">
        <ele>1555.2</ele>
        <time>2015-07-22T10:53:20Z</time>
      </trkpt>
      <trkpt lat="44.76379" lon="6.81245">
        <ele>1553.9</ele>
        <time>2015-07-22T10:53:26Z</time>
      </trkpt>
      <trkpt lat="44.76375" lon="6.81256">
        <ele>1552.9</ele>
        <time>2015-07-22T10:53:38Z</time>
      </trkpt>
      <trkpt lat="44.76371" lon="6.81246">
        <ele>1552.3</ele>
        <time>2015-07-22T10:53:56Z</time>
      </trkpt>
      <trkpt lat="44.7637" lon="6.81245">
        <ele>1552.2</ele>
        <time>2015-07-22T10:53:57Z</time>
      </trkpt>
      <trkpt lat="44.76366" lon="6.81224">
        <ele>1546.8</ele>
        <time>2015-07-22T10:54:15Z</time>
      </trkpt>
      <trkpt lat="44.76363" lon="6.81213">
        <ele>1545.9</ele>
        <time>2015-07-22T10:54:24Z</time>
      </trkpt>
      <trkpt lat="44.76363" lon="6.81201">
        <ele>1544.7</ele>
        <time>2015-07-22T10:54:32Z</time>
      </trkpt>
      <trkpt lat="44.76365" lon="6.8119">
        <ele>1544</ele>
        <time>2015-07-22T10:54:41Z</time>
      </trkpt>
      <trkpt lat="44.76367" lon="6.81179">
        <ele>1542.4</ele>
        <time>2015-07-22T10:54:47Z</time>
      </trkpt>
      <trkpt lat="44.7637" lon="6.81167">
        <ele>1540.6</ele>
        <time>2015-07-22T10:54:53Z</time>
      </trkpt>
      <trkpt lat="44.7637" lon="6.81155">
        <ele>1538.4</ele>
        <time>2015-07-22T10:54:59Z</time>
      </trkpt>
      <trkpt lat="44.7637" lon="6.81154">
        <ele>1538.3</ele>
        <time>2015-07-22T10:55:00Z</time>
      </trkpt>
      <trkpt lat="44.76356" lon="6.8114">
        <ele>1534.6</ele>
        <time>2015-07-22T10:55:20Z</time>
      </trkpt>
      <trkpt lat="44.76348" lon="6.81138">
        <ele>1531.3</ele>
        <time>2015-07-22T10:55:29Z</time>
      </trkpt>
      <trkpt lat="44.7634" lon="6.81135">
        <ele>1529.8</ele>
        <time>2015-07-22T10:55:37Z</time>
      </trkpt>
      <trkpt lat="44.76331" lon="6.81137">
        <ele>1526.8</ele>
        <time>2015-07-22T10:55:46Z</time>
      </trkpt>
      <trkpt lat="44.76325" lon="6.81145">
        <ele>1524.6</ele>
        <time>2015-07-22T10:55:54Z</time>
      </trkpt>
      <trkpt lat="44.76321" lon="6.81156">
        <ele>1525.1</ele>
        <time>2015-07-22T10:56:02Z</time>
      </trkpt>
      <trkpt lat="44.76321" lon="6.81158">
        <ele>1524.6</ele>
        <time>2015-07-22T10:56:03Z</time>
      </trkpt>
      <trkpt lat="44.7632" lon="6.81178">
        <ele>1520.6</ele>
        <time>2015-07-22T10:56:16Z</time>
      </trkpt>
      <trkpt lat="44.76318" lon="6.8119">
        <ele>1518.2</ele>
        <time>2015-07-22T10:56:26Z</time>
      </trkpt>
      <trkpt lat="44.76319" lon="6.81203">
        <ele>1517</ele>
        <time>2015-07-22T10:56:34Z</time>
      </trkpt>
      <trkpt lat="44.76317" lon="6.81215">
        <ele>1515.2</ele>
        <time>2015-07-22T10:56:42Z</time>
      </trkpt>
      <trkpt lat="44.76314" lon="6.81227">
        <ele>1513</ele>
        <time>2015-07-22T10:56:52Z</time>
      </trkpt>
      <trkpt lat="44.7631" lon="6.81238">
        <ele>1512.9</ele>
        <time>2015-07-22T10:57:03Z</time>
      </trkpt>
      <trkpt lat="44.76307" lon="6.8125">
        <ele>1512.1</ele>
        <time>2015-07-22T10:57:12Z</time>
      </trkpt>
      <trkpt lat="44.76307" lon="6.81251">
        <ele>1511.8</ele>
        <time>2015-07-22T10:57:13Z</time>
      </trkpt>
      <trkpt lat="44.76304" lon="6.81274">
        <ele>1508.3</ele>
        <time>2015-07-22T10:57:32Z</time>
      </trkpt>
      <trkpt lat="44.76301" lon="6.81286">
        <ele>1506.7</ele>
        <time>2015-07-22T10:57:42Z</time>
      </trkpt>
      <trkpt lat="44.76301" lon="6.81298">
        <ele>1505.3</ele>
        <time>2015-07-22T10:57:53Z</time>
      </trkpt>
      <trkpt lat="44.76294" lon="6.81306">
        <ele>1500.9</ele>
        <time>2015-07-22T10:58:15Z</time>
      </trkpt>
      <trkpt lat="44.76294" lon="6.81307">
        <ele>1500.7</ele>
        <time>2015-07-22T10:58:16Z</time>
      </trkpt>
      <trkpt lat="44.76292" lon="6.81329">
        <ele>1496.3</ele>
        <time>2015-07-22T10:58:37Z</time>
      </trkpt>
      <trkpt lat="44.76293" lon="6.81341">
        <ele>1494.9</ele>
        <time>2015-07-22T10:58:45Z</time>
      </trkpt>
      <trkpt lat="44.76293" lon="6.81353">
        <ele>1493.3</ele>
        <time>2015-07-22T10:58:52Z</time>
      </trkpt>
      <trkpt lat="44.76291" lon="6.81363">
        <ele>1490.6</ele>
        <time>2015-07-22T10:58:57Z</time>
      </trkpt>
      <trkpt lat="44.76289" lon="6.81374">
        <ele>1489</ele>
        <time>2015-07-22T10:59:03Z</time>
      </trkpt>
      <trkpt lat="44.76289" lon="6.81386">
        <ele>1488.4</ele>
        <time>2015-07-22T10:59:10Z</time>
      </trkpt>
      <trkpt lat="44.76289" lon="6.81398">
        <ele>1485.9</ele>
        <time>2015-07-22T10:59:17Z</time>
      </trkpt>
      <trkpt lat="44.76289" lon="6.814">
        <ele>1485.7</ele>
        <time>2015-07-22T10:59:18Z</time>
      </trkpt>
      <trkpt lat="44.76285" lon="6.81421">
        <ele>1481.5</ele>
        <time>2015-07-22T10:59:32Z</time>
      </trkpt>
      <trkpt lat="44.76282" lon="6.81431">
        <ele>1480.6</ele>
        <time>2015-07-22T10:59:39Z</time>
      </trkpt>
      <trkpt lat="44.76279" lon="6.81443">
        <ele>1478.2</ele>
        <time>2015-07-22T10:59:48Z</time>
      </trkpt>
      <trkpt lat="44.76277" lon="6.81454">
        <ele>1476.6</ele>
        <time>2015-07-22T10:59:56Z</time>
      </trkpt>
      <trkpt lat="44.76276" lon="6.81467">
        <ele>1475.3</ele>
        <time>2015-07-22T11:00:04Z</time>
      </trkpt>
      <trkpt lat="44.76276" lon="6.81479">
        <ele>1473</ele>
        <time>2015-07-22T11:00:12Z</time>
      </trkpt>
      <trkpt lat="44.76276" lon="6.81491">
        <ele>1471.7</ele>
        <time>2015-07-22T11:00:19Z</time>
      </trkpt>
      <trkpt lat="44.76275" lon="6.81502">
        <ele>1471.6</ele>
        <time>2015-07-22T11:00:26Z</time>
      </trkpt>
      <trkpt lat="44.76275" lon="6.81504">
        <ele>1471.7</ele>
        <time>2015-07-22T11:00:27Z</time>
      </trkpt>
      <trkpt lat="44.76273" lon="6.81524">
        <ele>1469.8</ele>
        <time>2015-07-22T11:00:39Z</time>
      </trkpt>
      <trkpt lat="44.76273" lon="6.81537">
        <ele>1467.6</ele>
        <time>2015-07-22T11:00:46Z</time>
      </trkpt>
      <trkpt lat="44.76275" lon="6.81548">
        <ele>1466.6</ele>
        <time>2015-07-22T11:00:54Z</time>
      </trkpt>
      <trkpt lat="44.76279" lon="6.81558">
        <ele>1465.8</ele>
        <time>2015-07-22T11:01:01Z</time>
      </trkpt>
      <trkpt lat="44.76281" lon="6.81569">
        <ele>1464</ele>
        <time>2015-07-22T11:01:07Z</time>
      </trkpt>
      <trkpt lat="44.7628" lon="6.81581">
        <ele>1464.1</ele>
        <time>2015-07-22T11:01:13Z</time>
      </trkpt>
      <trkpt lat="44.76283" lon="6.81592">
        <ele>1463.7</ele>
        <time>2015-07-22T11:01:20Z</time>
      </trkpt>
      <trkpt lat="44.76284" lon="6.81603">
        <ele>1460.5</ele>
        <time>2015-07-22T11:01:29Z</time>
      </trkpt>
      <trkpt lat="44.76284" lon="6.81605">
        <ele>1460.3</ele>
        <time>2015-07-22T11:01:30Z</time>
      </trkpt>
      <trkpt lat="44.76284" lon="6.81627">
        <ele>1458.6</ele>
        <time>2015-07-22T11:01:47Z</time>
      </trkpt>
      <trkpt lat="44.76283" lon="6.8164">
        <ele>1457.8</ele>
        <time>2015-07-22T11:01:55Z</time>
      </trkpt>
      <trkpt lat="44.76283" lon="6.81651">
        <ele>1456.7</ele>
        <time>2015-07-22T11:02:04Z</time>
      </trkpt>
      <trkpt lat="44.76284" lon="6.81663">
        <ele>1453.6</ele>
        <time>2015-07-22T11:02:13Z</time>
      </trkpt>
      <trkpt lat="44.76284" lon="6.81675">
        <ele>1450.8</ele>
        <time>2015-07-22T11:02:21Z</time>
      </trkpt>
      <trkpt lat="44.76282" lon="6.81687">
        <ele>1449.6</ele>
        <time>2015-07-22T11:02:28Z</time>
      </trkpt>
      <trkpt lat="44.76283" lon="6.81699">
        <ele>1448.6</ele>
        <time>2015-07-22T11:02:35Z</time>
      </trkpt>
      <trkpt lat="44.76283" lon="6.81701">
        <ele>1448.2</ele>
        <time>2015-07-22T11:02:36Z</time>
      </trkpt>
      <trkpt lat="44.76284" lon="6.81722">
        <ele>1443.5</ele>
        <time>2015-07-22T11:02:50Z</time>
      </trkpt>
      <trkpt lat="44.76287" lon="6.81734">
        <ele>1442</ele>
        <time>2015-07-22T11:03:00Z</time>
      </trkpt>
      <trkpt lat="44.76289" lon="6.81746">
        <ele>1441.5</ele>
        <time>2015-07-22T11:03:09Z</time>
      </trkpt>
      <trkpt lat="44.7629" lon="6.81757">
        <ele>1439.6</ele>
        <time>2015-07-22T11:03:16Z</time>
      </trkpt>
      <trkpt lat="44.76292" lon="6.81769">
        <ele>1438.4</ele>
        <time>2015-07-22T11:03:23Z</time>
      </trkpt>
      <trkpt lat="44.76295" lon="6.8178">
        <ele>1436.7</ele>
        <time>2015-07-22T11:03:31Z</time>
      </trkpt>
      <trkpt lat="44.76296" lon="6.81792">
        <ele>1437.9</ele>
        <time>2015-07-22T11:03:38Z</time>
      </trkpt>
      <trkpt lat="44.76296" lon="6.81794">
        <ele>1437.5</ele>
        <time>2015-07-22T11:03:39Z</time>
      </trkpt>
      <trkpt lat="44.76295" lon="6.81815">
        <ele>1434.1</ele>
        <time>2015-07-22T11:03:52Z</time>
      </trkpt>
      <trkpt lat="44.76295" lon="6.81827">
        <ele>1433.9</ele>
        <time>2015-07-22T11:04:00Z</time>
      </trkpt>
      <trkpt lat="44.76293" lon="6.81838">
        <ele>1434</ele>
        <time>2015-07-22T11:04:07Z</time>
      </trkpt>
      <trkpt lat="44.76294" lon="6.81849">
        <ele>1432.8</ele>
        <time>2015-07-22T11:04:13Z</time>
      </trkpt>
      <trkpt lat="44.76297" lon="6.8186">
        <ele>1431.8</ele>
        <time>2015-07-22T11:04:19Z</time>
      </trkpt>
      <trkpt lat="44.76298" lon="6.81872">
        <ele>1430.4</ele>
        <time>2015-07-22T11:04:27Z</time>
      </trkpt>
      <trkpt lat="44.76299" lon="6.81884">
        <ele>1429.3</ele>
        <time>2015-07-22T11:04:36Z</time>
      </trkpt>
      <trkpt lat="44.76299" lon="6.81896">
        <ele>1429.2</ele>
        <time>2015-07-22T11:04:52Z</time>
      </trkpt>
      <trkpt lat="44.76299" lon="6.81897">
        <ele>1429.1</ele>
        <time>2015-07-22T11:04:53Z</time>
      </trkpt>
      <trkpt lat="44.76298" lon="6.81909">
        <ele>1427.7</ele>
        <time>2015-07-22T11:06:08Z</time>
      </trkpt>
      <trkpt lat="44.76286" lon="6.81892">
        <ele>1423.9</ele>
        <time>2015-07-22T11:06:49Z</time>
      </trkpt>
      <trkpt lat="44.76281" lon="6.81882">
        <ele>1422</ele>
        <time>2015-07-22T11:06:57Z</time>
      </trkpt>
      <trkpt lat="44.76276" lon="6.81874">
        <ele>1421</ele>
        <time>2015-07-22T11:07:03Z</time>
      </trkpt>
      <trkpt lat="44.76273" lon="6.81862">
        <ele>1419</ele>
        <time>2015-07-22T11:07:10Z</time>
      </trkpt>
      <trkpt lat="44.76273" lon="6.8186">
        <ele>1418.4</ele>
        <time>2015-07-22T11:07:11Z</time>
      </trkpt>
      <trkpt lat="44.76268" lon="6.81841">
        <ele>1415.5</ele>
        <time>2015-07-22T11:07:23Z</time>
      </trkpt>
      <trkpt lat="44.76263" lon="6.81832">
        <ele>1413.8</ele>
        <time>2015-07-22T11:07:29Z</time>
      </trkpt>
      <trkpt lat="44.76259" lon="6.81822">
        <ele>1411.5</ele>
        <time>2015-07-22T11:07:35Z</time>
      </trkpt>
      <trkpt lat="44.76254" lon="6.81811">
        <ele>1410.4</ele>
        <time>2015-07-22T11:07:41Z</time>
      </trkpt>
      <trkpt lat="44.7625" lon="6.81802">
        <ele>1407.1</ele>
        <time>2015-07-22T11:07:46Z</time>
      </trkpt>
      <trkpt lat="44.76248" lon="6.81789">
        <ele>1405.3</ele>
        <time>2015-07-22T11:07:52Z</time>
      </trkpt>
      <trkpt lat="44.7624" lon="6.81791">
        <ele>1402.3</ele>
        <time>2015-07-22T11:08:09Z</time>
      </trkpt>
      <trkpt lat="44.76237" lon="6.81802">
        <ele>1399.2</ele>
        <time>2015-07-22T11:08:27Z</time>
      </trkpt>
      <trkpt lat="44.76237" lon="6.81803">
        <ele>1399.2</ele>
        <time>2015-07-22T11:08:28Z</time>
      </trkpt>
      <trkpt lat="44.76233" lon="6.81825">
        <ele>1398.9</ele>
        <time>2015-07-22T11:08:42Z</time>
      </trkpt>
      <trkpt lat="44.76234" lon="6.81836">
        <ele>1398.2</ele>
        <time>2015-07-22T11:08:52Z</time>
      </trkpt>
      <trkpt lat="44.76235" lon="6.81848">
        <ele>1397.7</ele>
        <time>2015-07-22T11:08:59Z</time>
      </trkpt>
      <trkpt lat="44.76238" lon="6.8186">
        <ele>1398.8</ele>
        <time>2015-07-22T11:09:06Z</time>
      </trkpt>
      <trkpt lat="44.76242" lon="6.81871">
        <ele>1400.2</ele>
        <time>2015-07-22T11:09:12Z</time>
      </trkpt>
      <trkpt lat="44.76244" lon="6.81882">
        <ele>1399.8</ele>
        <time>2015-07-22T11:09:18Z</time>
      </trkpt>
      <trkpt lat="44.76246" lon="6.81894">
        <ele>1398.8</ele>
        <time>2015-07-22T11:09:25Z</time>
      </trkpt>
      <trkpt lat="44.76247" lon="6.81905">
        <ele>1399.4</ele>
        <time>2015-07-22T11:09:31Z</time>
      </trkpt>
      <trkpt lat="44.76247" lon="6.81907">
        <ele>1399.4</ele>
        <time>2015-07-22T11:09:32Z</time>
      </trkpt>
      <trkpt lat="44.76251" lon="6.81928">
        <ele>1400.1</ele>
        <time>2015-07-22T11:09:44Z</time>
      </trkpt>
      <trkpt lat="44.76252" lon="6.81939">
        <ele>1400.4</ele>
        <time>2015-07-22T11:09:50Z</time>
      </trkpt>
      <trkpt lat="44.76253" lon="6.81951">
        <ele>1400.2</ele>
        <time>2015-07-22T11:09:57Z</time>
      </trkpt>
      <trkpt lat="44.76252" lon="6.81964">
        <ele>1400.3</ele>
        <time>2015-07-22T11:10:07Z</time>
      </trkpt>
      <trkpt lat="44.76252" lon="6.81976">
        <ele>1400.5</ele>
        <time>2015-07-22T11:10:15Z</time>
      </trkpt>
      <trkpt lat="44.76252" lon="6.81987">
        <ele>1401</ele>
        <time>2015-07-22T11:10:23Z</time>
      </trkpt>
      <trkpt lat="44.76252" lon="6.81999">
        <ele>1400.8</ele>
        <time>2015-07-22T11:10:34Z</time>
      </trkpt>
      <trkpt lat="44.76253" lon="6.82">
        <ele>1400.7</ele>
        <time>2015-07-22T11:10:35Z</time>
      </trkpt>
      <trkpt lat="44.76252" lon="6.82023">
        <ele>1401</ele>
        <time>2015-07-22T11:10:54Z</time>
      </trkpt>
      <trkpt lat="44.76252" lon="6.82035">
        <ele>1401.7</ele>
        <time>2015-07-22T11:11:02Z</time>
      </trkpt>
      <trkpt lat="44.76253" lon="6.82047">
        <ele>1400.8</ele>
        <time>2015-07-22T11:11:10Z</time>
      </trkpt>
      <trkpt lat="44.76251" lon="6.82058">
        <ele>1401</ele>
        <time>2015-07-22T11:11:18Z</time>
      </trkpt>
      <trkpt lat="44.76253" lon="6.8207">
        <ele>1401.7</ele>
        <time>2015-07-22T11:11:30Z</time>
      </trkpt>
      <trkpt lat="44.76248" lon="6.82079">
        <ele>1402.2</ele>
        <time>2015-07-22T11:11:49Z</time>
      </trkpt>
      <trkpt lat="44.76247" lon="6.82079">
        <ele>1402.1</ele>
        <time>2015-07-22T11:11:50Z</time>
      </trkpt>
      <trkpt lat="44.76233" lon="6.82091">
        <ele>1402.3</ele>
        <time>2015-07-22T11:12:19Z</time>
      </trkpt>
      <trkpt lat="44.76224" lon="6.82092">
        <ele>1402.7</ele>
        <time>2015-07-22T11:12:33Z</time>
      </trkpt>
      <trkpt lat="44.76215" lon="6.8209">
        <ele>1402.9</ele>
        <time>2015-07-22T11:12:44Z</time>
      </trkpt>
      <trkpt lat="44.76207" lon="6.82089">
        <ele>1402.5</ele>
        <time>2015-07-22T11:12:54Z</time>
      </trkpt>
      <trkpt lat="44.76206" lon="6.82089">
        <ele>1402.6</ele>
        <time>2015-07-22T11:12:55Z</time>
      </trkpt>
      <trkpt lat="44.76191" lon="6.82091">
        <ele>1402.4</ele>
        <time>2015-07-22T11:13:05Z</time>
      </trkpt>
      <trkpt lat="44.76183" lon="6.8209">
        <ele>1401.7</ele>
        <time>2015-07-22T11:13:10Z</time>
      </trkpt>
      <trkpt lat="44.76177" lon="6.82082">
        <ele>1402.7</ele>
        <time>2015-07-22T11:13:28Z</time>
      </trkpt>
      <trkpt lat="44.76168" lon="6.82082">
        <ele>1402.7</ele>
        <time>2015-07-22T11:14:50Z</time>
      </trkpt>
      <trkpt lat="44.76168" lon="6.82082">
        <ele>1402.6</ele>
        <time>2015-07-22T11:14:51Z</time>
      </trkpt>
      <trkpt lat="44.76159" lon="6.82081">
        <ele>1403</ele>
        <time>2015-07-22T11:17:24Z</time>
      </trkpt>
      <trkpt lat="44.76144" lon="6.8208">
        <ele>1402.4</ele>
        <time>2015-07-22T11:17:36Z</time>
      </trkpt>
      <trkpt lat="44.76135" lon="6.82077">
        <ele>1403.1</ele>
        <time>2015-07-22T11:17:44Z</time>
      </trkpt>
      <trkpt lat="44.76127" lon="6.82073">
        <ele>1403.2</ele>
        <time>2015-07-22T11:17:52Z</time>
      </trkpt>
      <trkpt lat="44.7612" lon="6.8208">
        <ele>1402.9</ele>
        <time>2015-07-22T11:18:05Z</time>
      </trkpt>
      <trkpt lat="44.76112" lon="6.82085">
        <ele>1404</ele>
        <time>2015-07-22T11:18:15Z</time>
      </trkpt>
      <trkpt lat="44.76108" lon="6.82096">
        <ele>1404.2</ele>
        <time>2015-07-22T11:18:23Z</time>
      </trkpt>
      <trkpt lat="44.76107" lon="6.82108">
        <ele>1404</ele>
        <time>2015-07-22T11:18:29Z</time>
      </trkpt>
      <trkpt lat="44.76107" lon="6.8211">
        <ele>1404.2</ele>
        <time>2015-07-22T11:18:30Z</time>
      </trkpt>
      <trkpt lat="44.76106" lon="6.82131">
        <ele>1404.7</ele>
        <time>2015-07-22T11:18:40Z</time>
      </trkpt>
      <trkpt lat="44.76109" lon="6.82141">
        <ele>1404.5</ele>
        <time>2015-07-22T11:18:49Z</time>
      </trkpt>
      <trkpt lat="44.76112" lon="6.82152">
        <ele>1404.1</ele>
        <time>2015-07-22T11:18:55Z</time>
      </trkpt>
      <trkpt lat="44.76115" lon="6.82163">
        <ele>1403.4</ele>
        <time>2015-07-22T11:19:02Z</time>
      </trkpt>
      <trkpt lat="44.76116" lon="6.82175">
        <ele>1402.7</ele>
        <time>2015-07-22T11:19:09Z</time>
      </trkpt>
      <trkpt lat="44.76115" lon="6.82187">
        <ele>1403.2</ele>
        <time>2015-07-22T11:19:15Z</time>
      </trkpt>
      <trkpt lat="44.76107" lon="6.82193">
        <ele>1402.8</ele>
        <time>2015-07-22T11:19:27Z</time>
      </trkpt>
      <trkpt lat="44.76101" lon="6.82202">
        <ele>1404.7</ele>
        <time>2015-07-22T11:19:40Z</time>
      </trkpt>
      <trkpt lat="44.761" lon="6.82203">
        <ele>1404.9</ele>
        <time>2015-07-22T11:19:41Z</time>
      </trkpt>
      <trkpt lat="44.76097" lon="6.82225">
        <ele>1404.3</ele>
        <time>2015-07-22T11:19:55Z</time>
      </trkpt>
      <trkpt lat="44.76096" lon="6.82236">
        <ele>1404.7</ele>
        <time>2015-07-22T11:20:02Z</time>
      </trkpt>
      <trkpt lat="44.76099" lon="6.82248">
        <ele>1404.6</ele>
        <time>2015-07-22T11:20:28Z</time>
      </trkpt>
      <trkpt lat="44.76104" lon="6.82239">
        <ele>1404.9</ele>
        <time>2015-07-22T11:21:33Z</time>
      </trkpt>
      <trkpt lat="44.76104" lon="6.82237">
        <ele>1404.5</ele>
        <time>2015-07-22T11:21:34Z</time>
      </trkpt>
      <trkpt lat="44.76097" lon="6.82218">
        <ele>1404.6</ele>
        <time>2015-07-22T11:21:48Z</time>
      </trkpt>
      <trkpt lat="44.76096" lon="6.82206">
        <ele>1404</ele>
        <time>2015-07-22T11:21:59Z</time>
      </trkpt>
      <trkpt lat="44.76105" lon="6.82203">
        <ele>1403.7</ele>
        <time>2015-07-22T11:22:07Z</time>
      </trkpt>
      <trkpt lat="44.76113" lon="6.82202">
        <ele>1404.9</ele>
        <time>2015-07-22T11:22:22Z</time>
      </trkpt>
      <trkpt lat="44.7612" lon="6.82203">
        <ele>1402.6</ele>
        <time>2015-07-22T11:22:37Z</time>
      </trkpt>
      <trkpt lat="44.7612" lon="6.82203">
        <ele>1402.6</ele>
        <time>2015-07-22T11:22:37Z</time>
      </trkpt>
    </trkseg>
  </trk>
</gpx>